Darstellungsparameter: Aktuell verwendete Einstellungen:
Skalierung der Graphiken ... ?
xyx+y,   Skalierungsfaktor:      Skalierung: Modus: x, Faktor: 1
Darstellungszeitraum ... ?
Vom - - bis: - -   Zeitraum: 14.12.2019 - 03.01.2020
Min/Max/Avg-Anzeige ... ?
Zeige MMA aktuell
Zeige MMA Monat
Zeige MMA alles
Zeige --A aktuell
Zeige --A Monat
Zeige --A alles
Keine MMA-Anzeige
MMA:
Average (ber die Originaldaten)
MMA-Basis: 14.12.2019 - 03.01.2020
Quicknavigation für Darstellung... ?
Tage:      1T, 2T, 3T, 5T -1T -2T -3T -5T +1T +2T +3T +5T
Wochen: 1W, 2W, 3W -1W -2W -3W +1W +2W +3W
Monate: 1M, 3M, 6M -1M -3M -6M +1M +3M +6M
Jahre:    1J, 3J, 5J, 10J -1J -3J -5J -10J +1J +3J +5J +10J
Nutze für die Darstellung ... ?
Originaldaten oder Mittelwerte auf ...
Stundenbasis Tagesbasis Wochenbasis
Monatsbasis Jahresbasis      Datenbasis: Original-Daten
Darstellen als:
Statistik (Auto) Statistik J:M      Darstellung:
Zur Graphik,    zurück zur Übersicht aller Sensoren.
 
Tabellarische Datenbersicht: ?
 
Sensor: Nr:Datum:Temp:Feuchte:
Aussen-T/F 1 14-12-2019 00:01:17 4.4 C 32 %
2 14-12-2019 00:11:17 4.5 C 30 %
3 14-12-2019 00:21:17 4.6 C 30 %
4 14-12-2019 00:31:18 4.3 C 33 %
5 14-12-2019 00:41:18 4.7 C 32 %
6 14-12-2019 00:51:17 5.1 C 28 %
7 14-12-2019 01:01:17 5.4 C 27 %
8 14-12-2019 01:11:17 5.3 C 27 %
9 14-12-2019 01:21:17 5.2 C 26 %
10 14-12-2019 01:31:17 5.1 C 26 %
11 14-12-2019 01:41:17 5.3 C 25 %
12 14-12-2019 01:51:17 5.2 C 25 %
13 14-12-2019 02:01:17 5 C 26 %
14 14-12-2019 02:11:17 4.5 C 30 %
15 14-12-2019 02:21:17 4.6 C 29 %
16 14-12-2019 02:31:18 4.7 C 29 %
17 14-12-2019 02:41:18 4.8 C 28 %
18 14-12-2019 02:51:17 4.5 C 30 %
19 14-12-2019 03:01:18 4.2 C 33 %
20 14-12-2019 03:11:18 4.1 C 36 %
21 14-12-2019 03:21:17 3.9 C 38 %
22 14-12-2019 03:31:17 3.9 C 39 %
23 14-12-2019 03:41:17 3.9 C 36 %
24 14-12-2019 03:51:18 3.8 C 36 %
25 14-12-2019 04:01:17 3.8 C 40 %
Sensor: Nr:Datum:Temp:Feuchte:
Aussen-T/F 26 14-12-2019 04:11:17 3.8 C 41 %
27 14-12-2019 04:21:17 3.7 C 42 %
28 14-12-2019 04:31:18 3.5 C 42 %
29 14-12-2019 04:41:18 3.5 C 42 %
30 14-12-2019 04:51:17 3.4 C 42 %
31 14-12-2019 05:01:17 3.4 C 41 %
32 14-12-2019 05:11:17 3.4 C 41 %
33 14-12-2019 05:21:17 3.4 C 42 %
34 14-12-2019 05:31:18 3.4 C 42 %
35 14-12-2019 05:41:18 3.4 C 43 %
36 14-12-2019 05:51:17 3.4 C 43 %
37 14-12-2019 06:01:18 3.4 C 42 %
38 14-12-2019 06:11:18 3.7 C 43 %
39 14-12-2019 06:21:17 4 C 42 %
40 14-12-2019 06:31:17 5 C 40 %
41 14-12-2019 06:41:17 5.2 C 39 %
42 14-12-2019 06:51:18 5.6 C 36 %
43 14-12-2019 07:01:17 5.6 C 36 %
44 14-12-2019 07:11:18 5.7 C 36 %
45 14-12-2019 07:21:17 5.8 C 36 %
46 14-12-2019 07:31:17 5.8 C 36 %
47 14-12-2019 07:41:17 6.3 C 37 %
48 14-12-2019 07:51:17 6.5 C 36 %
49 14-12-2019 08:01:17 6.8 C 35 %
50 14-12-2019 08:11:17 7 C 28 %
Sensor: Nr:Datum:Temp:Feuchte:
Aussen-T/F 51 14-12-2019 08:21:17 7.2 C 26 %
52 14-12-2019 08:31:18 7.1 C 25 %
53 14-12-2019 08:41:18 6.9 C 25 %
54 14-12-2019 08:51:17 6.7 C 25 %
55 14-12-2019 09:01:17 6.9 C 23 %
56 14-12-2019 09:11:17 6.7 C 23 %
57 14-12-2019 09:21:18 6.5 C 23 %
58 14-12-2019 09:31:18 6.7 C 20 %
59 14-12-2019 09:41:18 6.5 C 21 %
60 14-12-2019 09:51:17 6.7 C 21 %
61 14-12-2019 10:01:17 6.7 C 21 %
62 14-12-2019 10:11:17 6.6 C 23 %
63 14-12-2019 10:21:17 6.6 C 25 %
64 14-12-2019 10:31:17 6.7 C 25 %
65 14-12-2019 10:41:17 6.4 C 26 %
66 14-12-2019 10:51:17 5.9 C 29 %
67 14-12-2019 11:01:18 5.9 C 29 %
68 14-12-2019 11:11:18 6.4 C 27 %
69 14-12-2019 11:21:17 6.7 C 26 %
70 14-12-2019 11:31:17 6.3 C 26 %
71 14-12-2019 11:41:17 6.4 C 25 %
72 14-12-2019 11:51:17 6.9 C 20 %
73 14-12-2019 12:01:17 7 C 20 %
74 14-12-2019 12:11:17 7.2 C 20 %
75 14-12-2019 12:21:18 7 C 20 %
Sensor: Nr:Datum:Temp:Feuchte:
Aussen-T/F 76 14-12-2019 12:31:17 7.3 C 20 %
77 14-12-2019 12:41:17 7.6 C 20 %
78 14-12-2019 12:51:17 7.8 C 20 %
79 14-12-2019 13:01:17 7.9 C 20 %
80 14-12-2019 13:11:17 8 C 20 %
81 14-12-2019 13:21:17 8.4 C 20 %
82 14-12-2019 13:31:17 8.4 C 20 %
83 14-12-2019 13:41:17 8.3 C 20 %
84 14-12-2019 13:51:17 8.4 C 20 %
85 14-12-2019 14:01:18 8.5 C 20 %
86 14-12-2019 14:11:18 8.4 C 20 %
87 14-12-2019 14:21:17 8.4 C 20 %
88 14-12-2019 14:31:18 8.7 C 20 %
89 14-12-2019 14:41:18 8.8 C 20 %
90 14-12-2019 14:51:18 8.6 C 20 %
91 14-12-2019 15:01:17 7.3 C 23 %
92 14-12-2019 15:11:17 6.8 C 28 %
93 14-12-2019 15:21:17 6.6 C 30 %
94 14-12-2019 15:31:17 6.7 C 28 %
95 14-12-2019 15:41:18 6.8 C 28 %
96 14-12-2019 15:51:17 7.1 C 26 %
97 14-12-2019 16:01:17 7 C 26 %
98 14-12-2019 16:11:17 6.9 C 26 %
99 14-12-2019 16:21:17 6.9 C 27 %
100 14-12-2019 16:31:18 7.2 C 25 %
Sensor: Nr:Datum:Temp:Feuchte:
Aussen-T/F 101 14-12-2019 16:41:18 7.6 C 25 %
102 14-12-2019 16:51:17 7.5 C 25 %
103 14-12-2019 17:01:17 7.6 C 25 %
104 14-12-2019 17:11:17 7.6 C 25 %
105 14-12-2019 17:21:17 7.4 C 25 %
106 14-12-2019 17:31:18 7.2 C 26 %
107 14-12-2019 17:41:18 6.9 C 27 %
108 14-12-2019 17:51:17 7.1 C 26 %
109 14-12-2019 18:01:17 7.1 C 26 %
110 14-12-2019 18:11:17 7.3 C 26 %
111 14-12-2019 18:22:17 7.6 C 25 %
112 14-12-2019 18:31:17 7.8 C 25 %
113 14-12-2019 18:41:17 7.4 C 25 %
114 14-12-2019 18:52:17 7 C 26 %
115 14-12-2019 19:01:18 6.7 C 27 %
116 14-12-2019 19:11:18 6.2 C 28 %
117 14-12-2019 19:21:17 6.4 C 26 %
118 14-12-2019 19:31:17 6.1 C 26 %
119 14-12-2019 19:41:17 6.4 C 25 %
120 14-12-2019 19:52:17 6.4 C 25 %
121 14-12-2019 20:01:18 6.6 C 25 %
122 14-12-2019 20:11:18 6.7 C 25 %
123 14-12-2019 20:21:17 6.9 C 25 %
124 14-12-2019 20:31:17 5.8 C 27 %
125 14-12-2019 20:41:17 5.9 C 27 %
Sensor: Nr:Datum:Temp:Feuchte:
Aussen-T/F 126 14-12-2019 20:52:17 7 C 25 %
127 14-12-2019 21:01:17 7.2 C 25 %
128 14-12-2019 21:11:17 7 C 25 %
129 14-12-2019 21:22:17 7.1 C 25 %
130 14-12-2019 21:31:18 6.7 C 26 %
131 14-12-2019 21:41:18 6.8 C 26 %
132 14-12-2019 21:52:17 6.9 C 26 %
133 14-12-2019 22:02:17 7.1 C 25 %
134 14-12-2019 22:11:17 6.8 C 26 %
135 14-12-2019 22:22:17 6.9 C 26 %
136 14-12-2019 22:31:17 7.3 C 25 %
137 14-12-2019 22:41:17 7 C 26 %
138 14-12-2019 22:52:17 7.3 C 25 %
139 14-12-2019 23:02:17 7.1 C 25 %
140 14-12-2019 23:12:17 7.3 C 25 %
141 14-12-2019 23:22:17 7 C 26 %
142 14-12-2019 23:31:18 7 C 26 %
143 14-12-2019 23:41:18 7.4 C 25 %
144 14-12-2019 23:51:18 7 C 25 %
145 15-12-2019 00:02:17 6.4 C 27 %
146 15-12-2019 00:11:17 6 C 28 %
147 15-12-2019 00:22:17 5.6 C 30 %
148 15-12-2019 00:31:18 5.3 C 31 %
149 15-12-2019 00:41:18 5.1 C 32 %
150 15-12-2019 00:52:17 5.2 C 32 %
Sensor: Nr:Datum:Temp:Feuchte:
Aussen-T/F 151 15-12-2019 01:02:17 5.2 C 32 %
152 15-12-2019 01:12:17 5.3 C 33 %
153 15-12-2019 01:22:17 5.5 C 33 %
154 15-12-2019 01:31:18 5.7 C 31 %
155 15-12-2019 01:41:18 5.6 C 31 %
156 15-12-2019 01:52:17 5.6 C 31 %
157 15-12-2019 02:02:17 5.9 C 31 %
158 15-12-2019 02:12:17 5.8 C 32 %
159 15-12-2019 02:22:17 5.9 C 32 %
160 15-12-2019 02:32:18 5.7 C 35 %
161 15-12-2019 02:42:18 5.8 C 37 %
162 15-12-2019 02:52:17 5.9 C 39 %
163 15-12-2019 03:02:18 5.9 C 40 %
164 15-12-2019 03:12:18 5.9 C 41 %
165 15-12-2019 03:22:17 6 C 41 %
166 15-12-2019 03:32:17 6 C 42 %
167 15-12-2019 03:42:17 6.3 C 42 %
168 15-12-2019 03:52:17 6.4 C 42 %
169 15-12-2019 04:02:17 6.8 C 42 %
170 15-12-2019 04:12:17 7.3 C 41 %
171 15-12-2019 04:22:17 7.3 C 41 %
172 15-12-2019 04:32:17 7.5 C 41 %
173 15-12-2019 04:42:17 7.9 C 40 %
174 15-12-2019 04:52:17 8 C 39 %
175 15-12-2019 05:02:17 8.2 C 38 %
Sensor: Nr:Datum:Temp:Feuchte:
Aussen-T/F 176 15-12-2019 05:12:17 8.2 C 37 %
177 15-12-2019 05:22:17 8.4 C 37 %
178 15-12-2019 05:32:18 9 C 34 %
179 15-12-2019 05:42:18 10 C 30 %
180 15-12-2019 05:52:17 10.2 C 30 %
181 15-12-2019 06:02:17 10.3 C 29 %
182 15-12-2019 06:12:17 10.3 C 29 %
183 15-12-2019 06:22:17 10.1 C 29 %
184 15-12-2019 06:32:17 10.5 C 28 %
185 15-12-2019 06:42:17 10.8 C 27 %
186 15-12-2019 06:52:17 10.7 C 27 %
187 15-12-2019 07:02:17 10.5 C 27 %
188 15-12-2019 07:12:17 10.9 C 27 %
189 15-12-2019 07:22:17 10.3 C 27 %
190 15-12-2019 07:32:17 10.6 C 27 %
191 15-12-2019 07:42:17 10.5 C 27 %
192 15-12-2019 07:52:17 10.7 C 27 %
193 15-12-2019 08:02:17 10.7 C 27 %
194 15-12-2019 08:12:17 11 C 26 %
195 15-12-2019 08:22:17 10.9 C 27 %
196 15-12-2019 08:32:18 10.6 C 27 %
197 15-12-2019 08:42:18 10.2 C 28 %
198 15-12-2019 08:52:17 9.5 C 34 %
199 15-12-2019 09:02:17 9.2 C 34 %
200 15-12-2019 09:12:17 8.9 C 35 %
Sensor: Nr:Datum:Temp:Feuchte:
Aussen-T/F 201 15-12-2019 09:22:17 8.7 C 33 %
202 15-12-2019 09:32:17 8.5 C 34 %
203 15-12-2019 09:42:17 8.2 C 35 %
204 15-12-2019 09:52:18 8 C 36 %
205 15-12-2019 10:02:18 8.1 C 34 %
206 15-12-2019 10:12:18 8.2 C 32 %
207 15-12-2019 10:22:18 8.2 C 34 %
208 15-12-2019 10:32:17 8.1 C 33 %
209 15-12-2019 10:42:17 8.5 C 31 %
210 15-12-2019 10:52:17 8.7 C 30 %
211 15-12-2019 11:02:17 8.4 C 30 %
212 15-12-2019 11:12:17 8.5 C 30 %
213 15-12-2019 11:22:17 8.5 C 28 %
214 15-12-2019 11:32:17 8.6 C 28 %
215 15-12-2019 11:42:17 8.6 C 28 %
216 15-12-2019 11:52:17 8.3 C 27 %
217 15-12-2019 12:02:17 8.3 C 27 %
218 15-12-2019 12:12:17 8.1 C 27 %
219 15-12-2019 12:22:17 8.1 C 28 %
220 15-12-2019 12:32:17 7.9 C 29 %
221 15-12-2019 12:42:17 8.2 C 28 %
222 15-12-2019 12:52:18 8.4 C 28 %
223 15-12-2019 13:02:18 8.7 C 27 %
224 15-12-2019 13:12:18 9.1 C 25 %
225 15-12-2019 13:22:17 9.3 C 23 %
Sensor: Nr:Datum:Temp:Feuchte:
Aussen-T/F 226 15-12-2019 13:32:17 9.2 C 21 %
227 15-12-2019 13:42:17 9.2 C 20 %
228 15-12-2019 13:52:18 9.2 C 20 %
229 15-12-2019 14:02:17 9.2 C 20 %
230 15-12-2019 14:12:17 9.3 C 20 %
231 15-12-2019 14:22:17 9.3 C 20 %
232 15-12-2019 14:32:17 9.1 C 20 %
233 15-12-2019 14:42:17 9.1 C 20 %
234 15-12-2019 14:52:17 9 C 20 %
235 15-12-2019 15:02:17 9 C 20 %
236 15-12-2019 15:12:17 8.9 C 20 %
237 15-12-2019 15:22:17 8.9 C 20 %
238 15-12-2019 15:32:17 8.8 C 20 %
239 15-12-2019 15:42:17 8.7 C 20 %
240 15-12-2019 15:52:17 8.7 C 20 %
241 15-12-2019 16:02:17 8.4 C 20 %
242 15-12-2019 16:12:17 8.2 C 20 %
243 15-12-2019 16:22:18 8.4 C 20 %
244 15-12-2019 16:32:17 7.9 C 20 %
245 15-12-2019 16:42:17 7.6 C 20 %
246 15-12-2019 16:52:17 8 C 20 %
247 15-12-2019 17:02:17 7.4 C 20 %
248 15-12-2019 17:12:17 7.4 C 20 %
249 15-12-2019 17:22:17 7.8 C 20 %
250 15-12-2019 17:32:17 7.2 C 21 %
Sensor: Nr:Datum:Temp:Feuchte:
Aussen-T/F 251 15-12-2019 17:42:17 7.6 C 20 %
252 15-12-2019 17:52:17 7.7 C 20 %
253 15-12-2019 18:02:17 7.5 C 20 %
254 15-12-2019 18:12:17 8.2 C 20 %
255 15-12-2019 18:22:17 7.5 C 20 %
256 15-12-2019 18:32:17 6.9 C 25 %
257 15-12-2019 18:42:17 6.2 C 27 %
258 15-12-2019 18:52:18 5.9 C 29 %
259 15-12-2019 19:02:17 5.4 C 30 %
260 15-12-2019 19:12:17 5.3 C 31 %
261 15-12-2019 19:22:17 4.9 C 32 %
262 15-12-2019 19:32:18 5.3 C 32 %
263 15-12-2019 19:42:18 5 C 33 %
264 15-12-2019 19:52:17 5.4 C 33 %
265 15-12-2019 20:02:17 5.2 C 33 %
266 15-12-2019 20:12:17 4.7 C 35 %
267 15-12-2019 20:22:17 4.4 C 36 %
268 15-12-2019 20:32:17 4.3 C 37 %
269 15-12-2019 20:42:17 3.9 C 39 %
270 15-12-2019 20:52:17 3.7 C 40 %
271 15-12-2019 21:02:17 3.5 C 41 %
272 15-12-2019 21:12:17 3.3 C 41 %
273 15-12-2019 21:22:17 3.1 C 41 %
274 15-12-2019 21:32:18 2.8 C 42 %
275 15-12-2019 21:42:18 2.9 C 43 %
Sensor: Nr:Datum:Temp:Feuchte:
Aussen-T/F 276 15-12-2019 21:52:17 3.3 C 43 %
277 15-12-2019 22:02:17 3.3 C 44 %
278 15-12-2019 22:12:17 3.3 C 43 %
279 15-12-2019 22:22:17 3.5 C 43 %
280 15-12-2019 22:32:17 3.5 C 43 %
281 15-12-2019 22:42:17 3.4 C 43 %
282 15-12-2019 22:52:18 3.3 C 43 %
283 15-12-2019 23:02:17 3.5 C 43 %
284 15-12-2019 23:12:18 3.6 C 43 %
285 15-12-2019 23:22:17 3.7 C 43 %
286 15-12-2019 23:32:18 3.5 C 42 %
287 15-12-2019 23:42:18 3.3 C 42 %
288 15-12-2019 23:52:17 3.8 C 43 %
289 16-12-2019 00:02:17 4 C 42 %
290 16-12-2019 00:12:17 4.4 C 42 %
291 16-12-2019 00:22:17 4.4 C 42 %
292 16-12-2019 00:32:17 4.5 C 42 %
293 16-12-2019 00:42:17 4.5 C 42 %
294 16-12-2019 00:52:18 4.7 C 42 %
295 16-12-2019 01:02:17 5.1 C 41 %
296 16-12-2019 01:12:17 5 C 41 %
297 16-12-2019 01:22:17 5.2 C 42 %
298 16-12-2019 01:32:17 5.2 C 41 %
299 16-12-2019 01:42:18 5.3 C 42 %
300 16-12-2019 01:52:17 5.5 C 42 %
Sensor: Nr:Datum:Temp:Feuchte:
Aussen-T/F 301 16-12-2019 02:02:18 5.4 C 42 %
302 16-12-2019 02:12:18 5.5 C 42 %
303 16-12-2019 02:22:17 5.7 C 42 %
304 16-12-2019 02:32:17 5.7 C 42 %
305 16-12-2019 02:42:17 5.9 C 42 %
306 16-12-2019 02:52:18 5.8 C 41 %
307 16-12-2019 03:02:17 5.8 C 41 %
308 16-12-2019 03:12:17 5.9 C 41 %
309 16-12-2019 03:22:17 5.9 C 41 %
310 16-12-2019 03:32:18 5.9 C 41 %
311 16-12-2019 03:42:18 5.8 C 41 %
312 16-12-2019 03:52:17 6 C 41 %
313 16-12-2019 04:02:17 6 C 41 %
314 16-12-2019 04:12:17 6 C 41 %
315 16-12-2019 04:22:17 5.9 C 41 %
316 16-12-2019 04:32:17 6.1 C 41 %
317 16-12-2019 04:42:17 6.2 C 41 %
318 16-12-2019 04:52:17 6.3 C 41 %
319 16-12-2019 05:02:17 6.4 C 41 %
320 16-12-2019 05:12:17 6.4 C 41 %
321 16-12-2019 05:22:17 6.5 C 41 %
322 16-12-2019 05:32:17 6.6 C 41 %
323 16-12-2019 05:42:17 6.6 C 41 %
324 16-12-2019 05:52:17 6.8 C 41 %
325 16-12-2019 06:02:17 6.9 C 41 %
Sensor: Nr:Datum:Temp:Feuchte:
Aussen-T/F 326 16-12-2019 06:12:17 6.9 C 41 %
327 16-12-2019 06:22:17 6.8 C 40 %
328 16-12-2019 06:32:17 6.7 C 40 %
329 16-12-2019 06:42:17 6.8 C 40 %
330 16-12-2019 06:52:17 6.8 C 40 %
331 16-12-2019 07:02:17 6.8 C 40 %
332 16-12-2019 07:12:17 6.7 C 40 %
333 16-12-2019 07:22:17 6.8 C 40 %
334 16-12-2019 07:32:18 6.9 C 41 %
335 16-12-2019 07:42:18 6.9 C 41 %
336 16-12-2019 07:52:17 7 C 40 %
337 16-12-2019 08:02:17 7.1 C 40 %
338 16-12-2019 08:12:17 7 C 40 %
339 16-12-2019 08:22:17 7.1 C 40 %
340 16-12-2019 08:32:17 7.1 C 40 %
341 16-12-2019 08:42:17 7.1 C 40 %
342 16-12-2019 08:52:17 7.2 C 40 %
343 16-12-2019 09:02:17 7.3 C 40 %
344 16-12-2019 09:12:17 7.5 C 40 %
345 16-12-2019 09:22:18 7.4 C 40 %
346 16-12-2019 09:32:17 7.5 C 40 %
347 16-12-2019 09:42:17 7.5 C 40 %
348 16-12-2019 09:52:17 7.6 C 40 %
349 16-12-2019 10:02:18 7.6 C 40 %
350 16-12-2019 10:12:18 7.7 C 40 %
Sensor: Nr:Datum:Temp:Feuchte:
Aussen-T/F 351 16-12-2019 10:22:17 7.8 C 40 %
352 16-12-2019 10:32:17 7.9 C 40 %
353 16-12-2019 10:42:17 8.1 C 40 %
354 16-12-2019 10:52:17 8.2 C 40 %
355 16-12-2019 11:02:17 8.3 C 40 %
356 16-12-2019 11:12:17 8.5 C 40 %
357 16-12-2019 11:22:17 8.9 C 40 %
358 16-12-2019 11:32:18 8.8 C 39 %
359 16-12-2019 11:42:18 9.1 C 39 %
360 16-12-2019 11:52:17 9.4 C 39 %
361 16-12-2019 12:02:17 9.3 C 38 %
362 16-12-2019 12:12:17 9.3 C 37 %
363 16-12-2019 12:22:17 9.3 C 37 %
364 16-12-2019 12:32:17 9.4 C 37 %
365 16-12-2019 12:42:17 9.4 C 38 %
366 16-12-2019 12:52:17 9.8 C 38 %
367 16-12-2019 13:02:17 9.9 C 36 %
368 16-12-2019 13:12:17 9.9 C 36 %
369 16-12-2019 13:22:17 10 C 35 %
370 16-12-2019 13:32:17 10.2 C 34 %
371 16-12-2019 13:42:17 10.2 C 35 %
372 16-12-2019 13:52:18 10.3 C 34 %
373 16-12-2019 14:02:17 10.1 C 34 %
374 16-12-2019 14:12:17 10.2 C 34 %
375 16-12-2019 14:22:17 10.3 C 34 %
Sensor: Nr:Datum:Temp:Feuchte:
Aussen-T/F 376 16-12-2019 14:32:17 10.2 C 33 %
377 16-12-2019 14:42:17 10.1 C 34 %
378 16-12-2019 14:52:18 10.1 C 34 %
379 16-12-2019 15:02:17 9.9 C 35 %
380 16-12-2019 15:12:17 9.8 C 35 %
381 16-12-2019 15:22:17 9.6 C 36 %
382 16-12-2019 15:32:18 9.3 C 37 %
383 16-12-2019 15:42:18 9.1 C 39 %
384 16-12-2019 15:52:17 9 C 40 %
385 16-12-2019 16:02:17 8.7 C 40 %
386 16-12-2019 16:12:17 8.5 C 40 %
387 16-12-2019 16:22:17 8.4 C 40 %
388 16-12-2019 16:32:18 8.2 C 41 %
389 16-12-2019 16:42:18 8 C 40 %
390 16-12-2019 16:52:17 7.7 C 41 %
391 16-12-2019 17:02:17 7.4 C 41 %
392 16-12-2019 17:12:17 7.3 C 41 %
393 16-12-2019 17:22:17 7.5 C 41 %
394 16-12-2019 17:32:17 7.3 C 41 %
395 16-12-2019 17:42:17 7.2 C 41 %
396 16-12-2019 17:52:17 7 C 41 %
397 16-12-2019 18:02:17 7.1 C 41 %
398 16-12-2019 18:12:17 7.4 C 41 %
399 16-12-2019 18:22:17 7.5 C 41 %
400 16-12-2019 18:32:17 8.2 C 40 %
Sensor: Nr:Datum:Temp:Feuchte:
Aussen-T/F 401 16-12-2019 18:42:17 8.1 C 38 %
402 16-12-2019 18:52:17 8.7 C 37 %
403 16-12-2019 19:02:18 8.5 C 35 %
404 16-12-2019 19:12:18 7.9 C 36 %
405 16-12-2019 19:22:17 7.7 C 37 %
406 16-12-2019 19:32:17 8.5 C 40 %
407 16-12-2019 19:42:17 7.9 C 37 %
408 16-12-2019 19:52:18 8 C 37 %
409 16-12-2019 20:02:17 7.9 C 37 %
410 16-12-2019 20:12:17 8.1 C 36 %
411 16-12-2019 20:22:17 7.7 C 37 %
412 16-12-2019 20:32:17 8 C 39 %
413 16-12-2019 20:42:17 7.9 C 36 %
414 16-12-2019 20:52:17 7.8 C 36 %
415 16-12-2019 21:02:17 7.3 C 37 %
416 16-12-2019 21:12:17 7.2 C 40 %
417 16-12-2019 21:22:17 7.5 C 39 %
418 16-12-2019 21:32:17 7.2 C 38 %
419 16-12-2019 21:42:17 7 C 40 %
420 16-12-2019 21:52:17 6.7 C 41 %
421 16-12-2019 22:02:17 6.9 C 41 %
422 16-12-2019 22:12:17 7.5 C 40 %
423 16-12-2019 22:22:17 7.4 C 38 %
424 16-12-2019 22:32:17 7.9 C 37 %
425 16-12-2019 22:42:17 7.8 C 36 %
Sensor: Nr:Datum:Temp:Feuchte:
Aussen-T/F 426 16-12-2019 22:52:18 7.3 C 37 %
427 16-12-2019 23:02:17 7.3 C 39 %
428 16-12-2019 23:12:17 7.3 C 39 %
429 16-12-2019 23:22:17 7.5 C 40 %
430 16-12-2019 23:32:17 7.6 C 39 %
431 16-12-2019 23:42:17 7.6 C 39 %
432 16-12-2019 23:52:18 7.8 C 39 %
433 17-12-2019 00:02:17 7.6 C 37 %
434 17-12-2019 00:12:17 7.5 C 38 %
435 17-12-2019 00:22:17 7.6 C 38 %
436 17-12-2019 00:32:18 7.3 C 39 %
437 17-12-2019 00:42:18 7.2 C 40 %
438 17-12-2019 00:52:17 7.4 C 39 %
439 17-12-2019 01:02:17 7.2 C 39 %
440 17-12-2019 01:12:17 7.4 C 40 %
441 17-12-2019 01:22:17 7.8 C 39 %
442 17-12-2019 01:32:17 7.3 C 37 %
443 17-12-2019 01:42:17 7.4 C 38 %
444 17-12-2019 01:52:17 7.4 C 37 %
445 17-12-2019 02:02:18 7.4 C 37 %
446 17-12-2019 02:12:18 7.6 C 37 %
447 17-12-2019 02:22:17 7.3 C 37 %
448 17-12-2019 02:32:17 7.1 C 37 %
449 17-12-2019 02:42:17 7.5 C 36 %
450 17-12-2019 02:52:18 7.6 C 36 %
Sensor: Nr:Datum:Temp:Feuchte:
Aussen-T/F 451 17-12-2019 03:02:17 8 C 35 %
452 17-12-2019 03:12:17 8.1 C 35 %
453 17-12-2019 03:22:17 8.4 C 35 %
454 17-12-2019 03:32:17 8.8 C 32 %
455 17-12-2019 03:42:17 8.9 C 32 %
456 17-12-2019 03:52:18 8.8 C 32 %
457 17-12-2019 04:02:17 8.5 C 32 %
458 17-12-2019 04:12:17 8.5 C 32 %
459 17-12-2019 04:22:17 8.4 C 32 %
460 17-12-2019 04:32:17 8.4 C 32 %
461 17-12-2019 04:42:17 8 C 32 %
462 17-12-2019 04:52:18 8.3 C 33 %
463 17-12-2019 05:02:17 8.5 C 33 %
464 17-12-2019 05:12:17 8.5 C 33 %
465 17-12-2019 05:22:17 8.2 C 33 %
466 17-12-2019 05:32:17 8.1 C 34 %
467 17-12-2019 05:42:17 7.9 C 35 %
468 17-12-2019 05:52:17 7.9 C 36 %
469 17-12-2019 06:02:17 7.8 C 36 %
470 17-12-2019 06:12:17 7.3 C 36 %
471 17-12-2019 06:22:18 7.3 C 38 %
472 17-12-2019 06:32:17 7.5 C 38 %
473 17-12-2019 06:42:17 7.6 C 36 %
474 17-12-2019 06:52:17 7.6 C 38 %
475 17-12-2019 07:02:17 7.7 C 36 %
Sensor: Nr:Datum:Temp:Feuchte:
Aussen-T/F 476 17-12-2019 07:12:17 7.6 C 37 %
477 17-12-2019 07:22:17 7.5 C 36 %
478 17-12-2019 07:32:18 7 C 37 %
479 17-12-2019 07:42:18 7.4 C 38 %
480 17-12-2019 07:52:17 7.2 C 36 %
481 17-12-2019 08:02:17 7.2 C 36 %
482 17-12-2019 08:12:17 6.9 C 37 %
483 17-12-2019 08:22:17 6.9 C 38 %
484 17-12-2019 08:32:17 7 C 38 %
485 17-12-2019 08:42:18 6.9 C 37 %
486 17-12-2019 08:52:17 6.9 C 37 %
487 17-12-2019 09:02:17 6.5 C 38 %
488 17-12-2019 09:12:17 6.4 C 39 %
489 17-12-2019 09:22:18 6.5 C 40 %
490 17-12-2019 09:32:17 6.4 C 40 %
491 17-12-2019 09:42:17 6.6 C 40 %
492 17-12-2019 09:52:17 6.3 C 39 %
493 17-12-2019 10:02:18 6.4 C 40 %
494 17-12-2019 10:12:18 6.4 C 40 %
495 17-12-2019 10:22:17 6.4 C 39 %
496 17-12-2019 10:32:17 6.8 C 40 %
497 17-12-2019 10:42:17 7.2 C 37 %
498 17-12-2019 10:52:17 8 C 36 %
499 17-12-2019 11:02:17 8.6 C 34 %
500 17-12-2019 11:12:17 8.5 C 32 %
Sensor: Nr:Datum:Temp:Feuchte:
Aussen-T/F 501 17-12-2019 11:22:17 8.7 C 32 %
502 17-12-2019 11:32:17 9 C 32 %
503 17-12-2019 11:42:17 9.1 C 32 %
504 17-12-2019 11:52:17 9 C 32 %
505 17-12-2019 12:02:17 9 C 34 %
506 17-12-2019 12:12:17 9.2 C 34 %
507 17-12-2019 12:22:17 9.5 C 33 %
508 17-12-2019 12:32:17 9.7 C 32 %
509 17-12-2019 12:42:17 9.8 C 32 %
510 17-12-2019 12:52:17 9.6 C 32 %
511 17-12-2019 13:02:17 10.1 C 31 %
512 17-12-2019 13:12:17 10.4 C 30 %
513 17-12-2019 13:22:17 10.6 C 30 %
514 17-12-2019 13:32:17 11 C 29 %
515 17-12-2019 13:42:17 11.6 C 28 %
516 17-12-2019 13:52:18 12.3 C 26 %
517 17-12-2019 14:02:17 12.5 C 26 %
518 17-12-2019 14:12:17 12.4 C 26 %
519 17-12-2019 14:22:17 11.6 C 27 %
520 17-12-2019 14:32:17 11.4 C 27 %
521 17-12-2019 14:42:17 11.5 C 27 %
522 17-12-2019 14:52:17 11.8 C 27 %
523 17-12-2019 15:02:17 12 C 26 %
524 17-12-2019 15:12:17 12 C 26 %
525 17-12-2019 15:22:17 11.8 C 27 %
Sensor: Nr:Datum:Temp:Feuchte:
Aussen-T/F 526 17-12-2019 15:32:17 11.8 C 27 %
527 17-12-2019 15:42:17 12.3 C 25 %
528 17-12-2019 15:52:18 12.2 C 25 %
529 17-12-2019 16:02:17 12.4 C 25 %
530 17-12-2019 16:12:17 12.4 C 25 %
531 17-12-2019 16:22:17 12.5 C 25 %
532 17-12-2019 16:32:18 12.6 C 25 %
533 17-12-2019 16:42:18 12.2 C 25 %
534 17-12-2019 16:52:17 11.8 C 25 %
535 17-12-2019 17:02:17 11.2 C 26 %
536 17-12-2019 17:12:18 11.5 C 25 %
537 17-12-2019 17:22:17 12 C 24 %
538 17-12-2019 17:32:18 13.1 C 20 %
539 17-12-2019 17:42:18 13.4 C 20 %
540 17-12-2019 17:52:17 13.8 C 20 %
541 17-12-2019 18:02:17 13.4 C 20 %
542 17-12-2019 18:12:17 13.2 C 20 %
543 17-12-2019 18:22:17 13.6 C 20 %
544 17-12-2019 18:32:17 13.7 C 20 %
545 17-12-2019 18:42:17 13.1 C 21 %
546 17-12-2019 18:52:17 12.7 C 25 %
547 17-12-2019 19:02:17 12.8 C 25 %
548 17-12-2019 19:12:17 13.1 C 22 %
549 17-12-2019 19:22:17 12.8 C 25 %
550 17-12-2019 19:32:18 11.7 C 29 %
Sensor: Nr:Datum:Temp:Feuchte:
Aussen-T/F 551 17-12-2019 19:42:18 11.6 C 29 %
552 17-12-2019 19:52:17 11.6 C 30 %
553 17-12-2019 20:02:18 11.6 C 30 %
554 17-12-2019 20:12:18 11.5 C 31 %
555 17-12-2019 20:22:17 11.6 C 31 %
556 17-12-2019 20:32:17 11.3 C 33 %
557 17-12-2019 20:42:17 11.2 C 35 %
558 17-12-2019 20:52:17 11 C 36 %
559 17-12-2019 21:02:17 10.9 C 36 %
560 17-12-2019 21:12:17 10.5 C 38 %
561 17-12-2019 21:22:17 10.3 C 39 %
562 17-12-2019 21:32:17 10.4 C 38 %
563 17-12-2019 21:42:17 11.5 C 31 %
564 17-12-2019 21:52:17 11.3 C 31 %
565 17-12-2019 22:02:17 13 C 25 %
566 17-12-2019 22:12:17 12.5 C 26 %
567 17-12-2019 22:22:17 13.1 C 25 %
568 17-12-2019 22:32:17 13.4 C 25 %
569 17-12-2019 22:42:17 13.2 C 25 %
570 17-12-2019 22:52:17 13.1 C 25 %
571 17-12-2019 23:02:17 12.4 C 26 %
572 17-12-2019 23:12:17 11.9 C 29 %
573 17-12-2019 23:22:17 11.3 C 30 %
574 17-12-2019 23:32:17 11.1 C 31 %
575 17-12-2019 23:42:17 11 C 30 %
Sensor: Nr:Datum:Temp:Feuchte:
Aussen-T/F 576 17-12-2019 23:52:17 10.8 C 33 %
577 18-12-2019 00:02:17 10.4 C 35 %
578 18-12-2019 00:12:17 10.4 C 34 %
579 18-12-2019 00:22:17 10.5 C 34 %
580 18-12-2019 00:32:18 10.9 C 31 %
581 18-12-2019 00:42:18 11 C 30 %
582 18-12-2019 00:52:17 11 C 30 %
583 18-12-2019 01:02:17 10.8 C 30 %
584 18-12-2019 01:12:17 11 C 29 %
585 18-12-2019 01:22:17 11.1 C 29 %
586 18-12-2019 01:32:18 10.9 C 30 %
587 18-12-2019 01:42:18 10.4 C 30 %
588 18-12-2019 01:52:17 10.8 C 30 %
589 18-12-2019 02:02:17 11.1 C 30 %
590 18-12-2019 02:12:17 11.1 C 29 %
591 18-12-2019 02:22:17 11.2 C 30 %
592 18-12-2019 02:32:17 11.3 C 29 %
593 18-12-2019 02:42:18 10.9 C 30 %
594 18-12-2019 02:52:17 10.9 C 31 %
595 18-12-2019 03:02:17 10.6 C 33 %
596 18-12-2019 03:12:17 10.3 C 35 %
597 18-12-2019 03:22:18 10.3 C 37 %
598 18-12-2019 03:32:17 10.1 C 37 %
599 18-12-2019 03:42:17 10 C 38 %
600 18-12-2019 03:52:18 10.1 C 38 %
Sensor: Nr:Datum:Temp:Feuchte:
Aussen-T/F 601 18-12-2019 04:02:18 10 C 38 %
602 18-12-2019 04:12:18 9.9 C 38 %
603 18-12-2019 04:22:17 9.8 C 35 %
604 18-12-2019 04:32:18 9.6 C 34 %
605 18-12-2019 04:42:18 9.5 C 33 %
606 18-12-2019 04:52:17 9.3 C 33 %
607 18-12-2019 05:02:18 9.2 C 33 %
608 18-12-2019 05:12:18 9.1 C 33 %
609 18-12-2019 05:22:17 8.8 C 35 %
610 18-12-2019 05:32:17 8.7 C 36 %
611 18-12-2019 05:42:17 8.2 C 36 %
612 18-12-2019 05:52:17 8.2 C 39 %
613 18-12-2019 06:02:18 8.1 C 39 %
614 18-12-2019 06:12:18 8 C 37 %
615 18-12-2019 06:22:17 8 C 37 %
616 18-12-2019 06:32:18 7.9 C 37 %
617 18-12-2019 06:42:18 7.5 C 37 %
618 18-12-2019 06:52:17 7.4 C 39 %
619 18-12-2019 07:02:17 7.2 C 40 %
620 18-12-2019 07:12:17 7.3 C 40 %
621 18-12-2019 07:22:17 7.3 C 40 %
622 18-12-2019 07:32:17 7.1 C 39 %
623 18-12-2019 07:42:17 6.8 C 40 %
624 18-12-2019 07:52:17 6.9 C 41 %
625 18-12-2019 08:02:17 6.7 C 41 %
Sensor: Nr:Datum:Temp:Feuchte:
Aussen-T/F 626 18-12-2019 08:12:17 6.5 C 41 %
627 18-12-2019 08:22:17 6.5 C 41 %
628 18-12-2019 08:32:17 6.3 C 41 %
629 18-12-2019 08:42:17 6.4 C 42 %
630 18-12-2019 08:52:17 6.6 C 42 %
631 18-12-2019 09:02:17 6.5 C 41 %
632 18-12-2019 09:12:17 6.1 C 40 %
633 18-12-2019 09:22:17 6 C 41 %
634 18-12-2019 09:32:17 6.5 C 42 %
635 18-12-2019 09:42:17 6.7 C 42 %
636 18-12-2019 09:52:17 6.9 C 41 %
637 18-12-2019 10:02:17 7 C 40 %
638 18-12-2019 10:12:18 7.1 C 40 %
639 18-12-2019 10:22:17 7.5 C 38 %
640 18-12-2019 10:32:17 7.5 C 36 %
641 18-12-2019 10:42:17 7.4 C 36 %
642 18-12-2019 10:52:17 6.9 C 38 %
643 18-12-2019 11:02:17 6.8 C 38 %
644 18-12-2019 11:12:17 6.8 C 38 %
645 18-12-2019 11:22:17 6.6 C 38 %
646 18-12-2019 11:32:18 6.7 C 39 %
647 18-12-2019 11:42:18 6.9 C 38 %
648 18-12-2019 11:52:17 7.6 C 35 %
649 18-12-2019 12:02:17 8.1 C 33 %
650 18-12-2019 12:12:17 8 C 32 %
Sensor: Nr:Datum:Temp:Feuchte:
Aussen-T/F 651 18-12-2019 12:22:17 8.3 C 31 %
652 18-12-2019 12:32:17 8.6 C 30 %
653 18-12-2019 12:42:17 8.8 C 29 %
654 18-12-2019 12:52:17 8.7 C 29 %
655 18-12-2019 13:02:17 8.4 C 30 %
656 18-12-2019 13:12:17 8.2 C 30 %
657 18-12-2019 13:22:17 7.9 C 31 %
658 18-12-2019 13:32:18 7.8 C 32 %
659 18-12-2019 13:42:18 7.7 C 33 %
660 18-12-2019 13:52:17 7.8 C 32 %
661 18-12-2019 14:02:18 7.8 C 33 %
662 18-12-2019 14:12:18 7.7 C 33 %
663 18-12-2019 14:22:17 7.5 C 34 %
664 18-12-2019 14:32:17 7.3 C 35 %
665 18-12-2019 14:42:17 7.2 C 35 %
666 18-12-2019 14:52:17 7.2 C 35 %
667 18-12-2019 15:02:17 7.2 C 35 %
668 18-12-2019 15:12:17 7 C 36 %
669 18-12-2019 15:22:17 7 C 36 %
670 18-12-2019 15:32:17 6.7 C 37 %
671 18-12-2019 15:42:17 6.8 C 37 %
672 18-12-2019 15:52:17 6.7 C 36 %
673 18-12-2019 16:02:17 6.6 C 36 %
674 18-12-2019 16:12:17 6.5 C 36 %
675 18-12-2019 16:22:17 6.4 C 36 %
Sensor: Nr:Datum:Temp:Feuchte:
Aussen-T/F 676 18-12-2019 16:32:17 6 C 36 %
677 18-12-2019 16:42:17 5.8 C 37 %
678 18-12-2019 16:52:17 5.7 C 39 %
679 18-12-2019 17:02:17 5.3 C 38 %
680 18-12-2019 17:12:17 4.9 C 40 %
681 18-12-2019 17:22:17 5 C 42 %
682 18-12-2019 17:32:17 4.4 C 41 %
683 18-12-2019 17:42:17 4.2 C 42 %
684 18-12-2019 17:52:18 4.1 C 42 %
685 18-12-2019 18:02:17 4.1 C 43 %
686 18-12-2019 18:12:17 4.1 C 43 %
687 18-12-2019 18:22:17 4.4 C 43 %
688 18-12-2019 18:32:17 4.5 C 43 %
689 18-12-2019 18:42:17 4.3 C 42 %
690 18-12-2019 18:52:17 4.6 C 43 %
691 18-12-2019 19:02:17 5 C 42 %
692 18-12-2019 19:12:17 4.7 C 42 %
693 18-12-2019 19:22:17 4.3 C 42 %
694 18-12-2019 19:32:18 4.9 C 43 %
695 18-12-2019 19:42:18 4.7 C 42 %
696 18-12-2019 19:52:17 4.6 C 42 %
697 18-12-2019 20:02:17 5 C 42 %
698 18-12-2019 20:12:17 5 C 41 %
699 18-12-2019 20:22:17 4.5 C 41 %
700 18-12-2019 20:32:17 4.5 C 41 %
Sensor: Nr:Datum:Temp:Feuchte:
Aussen-T/F 701 18-12-2019 20:42:18 4.1 C 41 %
702 18-12-2019 20:52:17 3.9 C 42 %
703 18-12-2019 21:02:17 3.7 C 43 %
704 18-12-2019 21:12:17 3.6 C 42 %
705 18-12-2019 21:22:17 3.6 C 43 %
706 18-12-2019 21:32:17 3.7 C 43 %
707 18-12-2019 21:42:17 3.6 C 43 %
708 18-12-2019 21:52:17 3.4 C 43 %
709 18-12-2019 22:02:17 3.1 C 43 %
710 18-12-2019 22:12:17 3.1 C 43 %
711 18-12-2019 22:22:17 2.7 C 43 %
712 18-12-2019 22:32:17 2.6 C 43 %
713 18-12-2019 22:42:17 2.5 C 43 %
714 18-12-2019 22:52:17 2.4 C 43 %
715 18-12-2019 23:02:17 2.4 C 43 %
716 18-12-2019 23:12:17 2.3 C 43 %
717 18-12-2019 23:22:18 2.3 C 43 %
718 18-12-2019 23:32:17 2 C 43 %
719 18-12-2019 23:42:17 2 C 43 %
720 18-12-2019 23:52:17 2 C 43 %
721 19-12-2019 00:02:18 2.3 C 44 %
722 19-12-2019 00:12:18 2 C 43 %
723 19-12-2019 00:22:17 2 C 43 %
724 19-12-2019 00:32:17 2.1 C 43 %
725 19-12-2019 00:42:17 2.4 C 44 %
Sensor: Nr:Datum:Temp:Feuchte:
Aussen-T/F 726 19-12-2019 00:52:18 2.3 C 43 %
727 19-12-2019 01:02:17 2.1 C 43 %
728 19-12-2019 01:12:17 2 C 43 %
729 19-12-2019 01:22:17 2 C 43 %
730 19-12-2019 01:32:18 1.6 C 44 %
731 19-12-2019 01:42:18 1.9 C 44 %
732 19-12-2019 01:52:17 2.3 C 43 %
733 19-12-2019 02:02:17 2.2 C 43 %
734 19-12-2019 02:12:17 2 C 43 %
735 19-12-2019 02:22:17 2 C 43 %
736 19-12-2019 02:32:18 2 C 43 %
737 19-12-2019 02:42:18 1.8 C 44 %
738 19-12-2019 02:52:17 2.1 C 43 %
739 19-12-2019 03:02:18 1.5 C 44 %
740 19-12-2019 03:12:18 1.6 C 44 %
741 19-12-2019 03:22:17 1.6 C 44 %
742 19-12-2019 03:32:17 1.8 C 44 %
743 19-12-2019 03:42:17 1.7 C 44 %
744 19-12-2019 03:52:17 1.7 C 44 %
745 19-12-2019 04:02:17 1.6 C 44 %
746 19-12-2019 04:12:17 1.5 C 44 %
747 19-12-2019 04:22:18 1.5 C 44 %
748 19-12-2019 04:32:17 1.5 C 44 %
749 19-12-2019 04:42:17 1.4 C 44 %
750 19-12-2019 04:52:18 1.6 C 44 %
Sensor: Nr:Datum:Temp:Feuchte:
Aussen-T/F 751 19-12-2019 05:02:17 1.4 C 44 %
752 19-12-2019 05:12:17 1.5 C 44 %
753 19-12-2019 05:22:17 1.4 C 44 %
754 19-12-2019 05:32:17 1.3 C 44 %
755 19-12-2019 05:42:17 1.3 C 44 %
756 19-12-2019 05:52:17 1.1 C 44 %
757 19-12-2019 06:02:17 1.1 C 44 %
758 19-12-2019 06:12:17 1.2 C 44 %
759 19-12-2019 06:22:17 1 C 44 %
760 19-12-2019 06:32:17 1.1 C 44 %
761 19-12-2019 06:42:18 1 C 43 %
762 19-12-2019 06:52:17 0.7 C 45 %
763 19-12-2019 07:02:17 1 C 44 %
764 19-12-2019 07:12:17 0.9 C 45 %
765 19-12-2019 07:22:17 1.7 C 44 %
766 19-12-2019 07:32:17 3.5 C 43 %
767 19-12-2019 07:42:18 3.2 C 42 %
768 19-12-2019 07:52:17 3.1 C 42 %
769 19-12-2019 08:02:18 4.6 C 42 %
770 19-12-2019 08:12:18 3.8 C 42 %
771 19-12-2019 08:22:17 3.7 C 42 %
772 19-12-2019 08:32:18 4.6 C 41 %
773 19-12-2019 08:42:18 4 C 41 %
774 19-12-2019 08:52:17 3.3 C 41 %
775 19-12-2019 09:02:17 4 C 41 %
Sensor: Nr:Datum:Temp:Feuchte:
Aussen-T/F 776 19-12-2019 09:12:17 4.4 C 41 %
777 19-12-2019 09:22:17 4.1 C 41 %
778 19-12-2019 09:32:17 4.6 C 41 %
779 19-12-2019 09:42:17 4.4 C 41 %
780 19-12-2019 09:52:17 4.5 C 41 %
781 19-12-2019 10:02:17 4.7 C 41 %
782 19-12-2019 10:12:17 4.9 C 41 %
783 19-12-2019 10:22:17 5.2 C 41 %
784 19-12-2019 10:32:17 7 C 40 %
785 19-12-2019 10:42:17 7.2 C 40 %
786 19-12-2019 10:52:18 6.7 C 40 %
787 19-12-2019 11:02:17 6.4 C 39 %
788 19-12-2019 11:12:17 6.3 C 39 %
789 19-12-2019 11:22:17 6.3 C 40 %
790 19-12-2019 11:32:17 6.4 C 40 %
791 19-12-2019 11:42:17 6.6 C 40 %
792 19-12-2019 11:52:18 6.7 C 40 %
793 19-12-2019 12:02:17 6.6 C 40 %
794 19-12-2019 12:12:17 6.7 C 40 %
795 19-12-2019 12:22:17 6.7 C 40 %
796 19-12-2019 12:32:17 7 C 39 %
797 19-12-2019 12:42:17 7 C 39 %
798 19-12-2019 12:52:17 7.1 C 39 %
799 19-12-2019 13:02:17 7.3 C 39 %
800 19-12-2019 13:12:17 7.1 C 38 %
Sensor: Nr:Datum:Temp:Feuchte:
Aussen-T/F 801 19-12-2019 13:22:17 7.2 C 39 %
802 19-12-2019 13:32:17 7.2 C 39 %
803 19-12-2019 13:42:17 7.3 C 38 %
804 19-12-2019 13:52:17 7.3 C 38 %
805 19-12-2019 14:02:17 7.3 C 38 %
806 19-12-2019 14:12:17 7.1 C 38 %
807 19-12-2019 14:22:17 7.1 C 38 %
808 19-12-2019 14:32:17 7.2 C 38 %
809 19-12-2019 14:42:17 7.3 C 37 %
810 19-12-2019 14:52:17 7.9 C 36 %
811 19-12-2019 15:02:17 8.1 C 34 %
812 19-12-2019 15:12:17 8.1 C 33 %
813 19-12-2019 15:22:17 8.4 C 32 %
814 19-12-2019 15:32:18 8.6 C 32 %
815 19-12-2019 15:42:18 8.7 C 31 %
816 19-12-2019 15:52:17 8.8 C 31 %
817 19-12-2019 16:02:17 8.7 C 30 %
818 19-12-2019 16:12:17 8.3 C 31 %
819 19-12-2019 16:22:18 8.1 C 31 %
820 19-12-2019 16:32:17 7.9 C 32 %
821 19-12-2019 16:42:17 7.9 C 31 %
822 19-12-2019 16:52:17 7.6 C 32 %
823 19-12-2019 17:02:17 7.4 C 32 %
824 19-12-2019 17:12:17 6 C 35 %
825 19-12-2019 17:22:17 5.7 C 37 %
Sensor: Nr:Datum:Temp:Feuchte:
Aussen-T/F 826 19-12-2019 17:32:17 5.5 C 39 %
827 19-12-2019 17:42:17 5 C 39 %
828 19-12-2019 17:52:17 4.9 C 41 %
829 19-12-2019 18:02:17 5.2 C 42 %
830 19-12-2019 18:12:18 4.9 C 42 %
831 19-12-2019 18:22:17 5.2 C 42 %
832 19-12-2019 18:32:17 5 C 41 %
833 19-12-2019 18:42:17 5 C 41 %
834 19-12-2019 18:52:18 5.8 C 42 %
835 19-12-2019 19:02:17 5.7 C 41 %
836 19-12-2019 19:12:17 5.2 C 39 %
837 19-12-2019 19:22:18 4.7 C 40 %
838 19-12-2019 19:32:17 4.9 C 42 %
839 19-12-2019 19:42:17 4.7 C 42 %
840 19-12-2019 19:52:17 4.8 C 42 %
841 19-12-2019 20:02:17 5 C 42 %
842 19-12-2019 20:12:17 5 C 41 %
843 19-12-2019 20:22:17 4.8 C 42 %
844 19-12-2019 20:32:17 5.1 C 42 %
845 19-12-2019 20:42:17 6 C 41 %
846 19-12-2019 20:52:17 6 C 38 %
847 19-12-2019 21:02:17 5.8 C 38 %
848 19-12-2019 21:12:18 5.8 C 39 %
849 19-12-2019 21:22:17 5.7 C 39 %
850 19-12-2019 21:32:17 5.8 C 40 %
Sensor: Nr:Datum:Temp:Feuchte:
Aussen-T/F 851 19-12-2019 21:42:17 6 C 40 %
852 19-12-2019 21:52:17 5.7 C 40 %
853 19-12-2019 22:02:17 5.6 C 40 %
854 19-12-2019 22:12:17 5.8 C 41 %
855 19-12-2019 22:22:18 6.2 C 41 %
856 19-12-2019 22:32:18 5.9 C 40 %
857 19-12-2019 22:42:18 5.1 C 38 %
858 19-12-2019 22:52:17 5 C 41 %
859 19-12-2019 23:02:17 5.4 C 43 %
860 19-12-2019 23:12:17 5.5 C 42 %
861 19-12-2019 23:22:17 5.5 C 42 %
862 19-12-2019 23:32:17 5.4 C 42 %
863 19-12-2019 23:42:17 5.4 C 42 %
864 19-12-2019 23:52:17 5.1 C 41 %
865 20-12-2019 00:02:17 4.8 C 42 %
866 20-12-2019 00:12:17 4.3 C 41 %
867 20-12-2019 00:22:17 4 C 41 %
868 20-12-2019 00:32:17 3.9 C 43 %
869 20-12-2019 00:42:17 3.7 C 42 %
870 20-12-2019 00:52:17 3.4 C 43 %
871 20-12-2019 01:02:17 3.1 C 42 %
872 20-12-2019 01:12:17 3 C 43 %
873 20-12-2019 01:22:17 3.3 C 44 %
874 20-12-2019 01:32:17 3.1 C 43 %
875 20-12-2019 01:42:17 3.1 C 43 %
Sensor: Nr:Datum:Temp:Feuchte:
Aussen-T/F 876 20-12-2019 01:52:17 2.8 C 44 %
877 20-12-2019 02:02:17 2.8 C 44 %
878 20-12-2019 02:12:17 2.6 C 44 %
879 20-12-2019 02:22:17 2.5 C 44 %
880 20-12-2019 02:32:18 3.2 C 44 %
881 20-12-2019 02:42:18 3.4 C 44 %
882 20-12-2019 02:52:17 3.8 C 44 %
883 20-12-2019 03:02:17 4.7 C 42 %
884 20-12-2019 03:12:17 4.2 C 41 %
885 20-12-2019 03:22:17 4.6 C 41 %
886 20-12-2019 03:32:17 4.4 C 40 %
887 20-12-2019 03:42:17 4.4 C 40 %
888 20-12-2019 03:52:17 4.6 C 41 %
889 20-12-2019 04:02:17 4.4 C 40 %
890 20-12-2019 04:12:17 4.2 C 40 %
891 20-12-2019 04:22:17 4 C 41 %
892 20-12-2019 04:32:18 4.8 C 42 %
893 20-12-2019 04:42:18 4.5 C 41 %
894 20-12-2019 04:52:17 4.7 C 40 %
895 20-12-2019 05:02:17 4.7 C 40 %
896 20-12-2019 05:12:17 5.3 C 38 %
897 20-12-2019 05:22:17 5.2 C 36 %
898 20-12-2019 05:32:17 5.3 C 36 %
899 20-12-2019 05:42:17 5.4 C 35 %
900 20-12-2019 05:52:18 5.5 C 35 %
Sensor: Nr:Datum:Temp:Feuchte:
Aussen-T/F 901 20-12-2019 06:02:18 5.2 C 35 %
902 20-12-2019 06:12:18 5.3 C 35 %
903 20-12-2019 06:22:17 5.6 C 35 %
904 20-12-2019 06:32:17 6 C 32 %
905 20-12-2019 06:42:17 6 C 31 %
906 20-12-2019 06:52:17 5.7 C 32 %
907 20-12-2019 07:02:17 5.8 C 31 %
908 20-12-2019 07:12:17 5.9 C 31 %
909 20-12-2019 07:22:17 6.1 C 31 %
910 20-12-2019 07:32:17 5.9 C 33 %
911 20-12-2019 07:42:17 6.4 C 31 %
912 20-12-2019 07:52:17 6.8 C 30 %
913 20-12-2019 08:02:17 7.1 C 27 %
914 20-12-2019 08:12:17 6.4 C 31 %
915 20-12-2019 08:22:17 6.4 C 32 %
916 20-12-2019 08:32:18 6.5 C 32 %
917 20-12-2019 08:42:18 6.3 C 32 %
918 20-12-2019 08:52:17 6.3 C 33 %
919 20-12-2019 09:02:17 6.5 C 33 %
920 20-12-2019 09:12:17 6.7 C 31 %
921 20-12-2019 09:22:17 6.5 C 33 %
922 20-12-2019 09:32:17 6.4 C 35 %
923 20-12-2019 09:42:17 6.5 C 35 %
924 20-12-2019 09:52:17 6.5 C 34 %
925 20-12-2019 10:02:17 6.2 C 31 %
Sensor: Nr:Datum:Temp:Feuchte:
Aussen-T/F 926 20-12-2019 10:12:17 6 C 33 %
927 20-12-2019 10:22:17 5.7 C 35 %
928 20-12-2019 10:32:17 5.8 C 40 %
929 20-12-2019 10:42:17 5.9 C 42 %
930 20-12-2019 10:52:17 6 C 42 %
931 20-12-2019 11:02:17 6.1 C 42 %
932 20-12-2019 11:12:17 6 C 42 %
933 20-12-2019 11:22:17 6.3 C 42 %
934 20-12-2019 11:32:17 6.5 C 42 %
935 20-12-2019 11:42:17 6.7 C 41 %
936 20-12-2019 11:52:17 6.8 C 40 %
937 20-12-2019 12:02:18 7 C 39 %
938 20-12-2019 12:12:18 7.3 C 39 %
939 20-12-2019 12:22:18 7.5 C 39 %
940 20-12-2019 12:32:17 7.7 C 39 %
941 20-12-2019 12:42:18 8 C 39 %
942 20-12-2019 12:52:17 8.1 C 38 %
943 20-12-2019 13:02:18 8.1 C 39 %
944 20-12-2019 13:12:18 8.2 C 39 %
945 20-12-2019 13:22:17 8.3 C 37 %
946 20-12-2019 13:32:17 8.4 C 36 %
947 20-12-2019 13:42:17 8.6 C 37 %
948 20-12-2019 13:52:17 8.5 C 36 %
949 20-12-2019 14:02:17 8.6 C 36 %
950 20-12-2019 14:12:17 8.6 C 35 %
Sensor: Nr:Datum:Temp:Feuchte:
Aussen-T/F 951 20-12-2019 14:22:17 8.7 C 36 %
952 20-12-2019 14:32:17 8.7 C 36 %
953 20-12-2019 14:42:17 8.5 C 35 %
954 20-12-2019 14:52:18 8.3 C 36 %
955 20-12-2019 15:02:17 8.2 C 37 %
956 20-12-2019 15:12:17 8.3 C 38 %
957 20-12-2019 15:22:17 8.3 C 39 %
958 20-12-2019 15:32:17 8.2 C 40 %
959 20-12-2019 15:42:17 8.3 C 41 %
960 20-12-2019 15:52:17 8.2 C 40 %
961 20-12-2019 16:02:17 8.2 C 40 %
962 20-12-2019 16:12:18 8.3 C 40 %
963 20-12-2019 16:22:17 8.3 C 41 %
964 20-12-2019 16:32:17 8.4 C 41 %
965 20-12-2019 16:42:17 8.4 C 41 %
966 20-12-2019 16:52:18 8.6 C 41 %
967 20-12-2019 17:02:17 9 C 41 %
968 20-12-2019 17:12:18 9 C 40 %
969 20-12-2019 17:22:17 9.1 C 36 %
970 20-12-2019 17:32:17 8.7 C 38 %
971 20-12-2019 17:42:17 8.8 C 37 %
972 20-12-2019 17:52:18 8.7 C 38 %
973 20-12-2019 18:02:17 8.9 C 37 %
974 20-12-2019 18:12:17 8.9 C 36 %
975 20-12-2019 18:22:17 8.9 C 37 %
Sensor: Nr:Datum:Temp:Feuchte:
Aussen-T/F 976 20-12-2019 18:32:17 8.9 C 37 %
977 20-12-2019 18:42:17 9.7 C 33 %
978 20-12-2019 18:52:18 9.5 C 31 %
979 20-12-2019 19:02:17 9.8 C 30 %
980 20-12-2019 19:12:17 10.1 C 28 %
981 20-12-2019 19:22:17 9.9 C 29 %
982 20-12-2019 19:32:17 9.8 C 29 %
983 20-12-2019 19:42:17 10 C 27 %
984 20-12-2019 19:52:18 9.7 C 29 %
985 20-12-2019 20:02:18 9.6 C 28 %
986 20-12-2019 20:12:18 9.5 C 28 %
987 20-12-2019 20:22:17 9.5 C 27 %
988 20-12-2019 20:32:18 9 C 28 %
989 20-12-2019 20:42:18 9 C 27 %
990 20-12-2019 20:52:17 8.9 C 28 %
991 20-12-2019 21:02:18 8.5 C 28 %
992 20-12-2019 21:12:18 8.6 C 28 %
993 20-12-2019 21:22:17 8.9 C 27 %
994 20-12-2019 21:32:17 8.7 C 27 %
995 20-12-2019 21:42:17 8.3 C 28 %
996 20-12-2019 21:52:17 8.3 C 28 %
997 20-12-2019 22:02:17 8.3 C 28 %
998 20-12-2019 22:12:17 8.1 C 28 %
999 20-12-2019 22:22:17 8.7 C 27 %
1000 20-12-2019 22:32:17 8.9 C 26 %
Sensor: Nr:Datum:Temp:Feuchte:
Aussen-T/F 1001 20-12-2019 22:42:17 8.7 C 27 %
1002 20-12-2019 22:52:17 8.7 C 27 %
1003 20-12-2019 23:02:17 8.5 C 27 %
1004 20-12-2019 23:12:17 8.4 C 27 %
1005 20-12-2019 23:22:17 8.2 C 28 %
1006 20-12-2019 23:32:17 8 C 28 %
1007 20-12-2019 23:42:17 8.3 C 27 %
1008 20-12-2019 23:52:18 8.1 C 27 %
1009 21-12-2019 00:02:17 7.9 C 28 %
1010 21-12-2019 00:12:17 7.7 C 28 %
1011 21-12-2019 00:22:17 7.5 C 30 %
1012 21-12-2019 00:32:17 7.5 C 30 %
1013 21-12-2019 00:42:17 7.2 C 30 %
1014 21-12-2019 00:52:18 7 C 30 %
1015 21-12-2019 01:02:17 6.9 C 32 %
1016 21-12-2019 01:12:17 7.3 C 31 %
1017 21-12-2019 01:22:17 7.4 C 31 %
1018 21-12-2019 01:32:17 7.3 C 32 %
1019 21-12-2019 01:42:17 7.5 C 31 %
1020 21-12-2019 01:52:17 7.5 C 32 %
1021 21-12-2019 02:02:17 7.9 C 30 %
1022 21-12-2019 02:12:17 8 C 29 %
1023 21-12-2019 02:22:17 8.2 C 28 %
1024 21-12-2019 02:32:18 7.8 C 30 %
1025 21-12-2019 02:42:18 7.8 C 30 %
Sensor: Nr:Datum:Temp:Feuchte:
Aussen-T/F 1026 21-12-2019 02:52:17 7.8 C 30 %
1027 21-12-2019 03:02:17 7.5 C 30 %
1028 21-12-2019 03:12:17 7.5 C 31 %
1029 21-12-2019 03:22:17 7.4 C 31 %
1030 21-12-2019 03:32:18 7.3 C 31 %
1031 21-12-2019 03:42:18 7.1 C 31 %
1032 21-12-2019 03:52:17 7.1 C 32 %
1033 21-12-2019 04:02:17 6.9 C 33 %
1034 21-12-2019 04:12:17 6.7 C 36 %
1035 21-12-2019 04:22:17 6.4 C 37 %
1036 21-12-2019 04:32:18 6 C 38 %
1037 21-12-2019 04:42:18 5.9 C 38 %
1038 21-12-2019 04:52:17 5.7 C 40 %
1039 21-12-2019 05:02:17 6 C 40 %
1040 21-12-2019 05:12:17 5.6 C 39 %
1041 21-12-2019 05:22:17 5.4 C 38 %
1042 21-12-2019 05:32:18 5.4 C 38 %
1043 21-12-2019 05:42:18 5.1 C 38 %
1044 21-12-2019 05:52:17 5.3 C 40 %
1045 21-12-2019 06:02:17 4.9 C 41 %
1046 21-12-2019 06:12:17 4.8 C 41 %
1047 21-12-2019 06:22:18 4.3 C 40 %
1048 21-12-2019 06:32:17 4.3 C 42 %
1049 21-12-2019 06:42:17 5 C 40 %
1050 21-12-2019 06:52:18 3.8 C 41 %
Sensor: Nr:Datum:Temp:Feuchte:
Aussen-T/F 1051 21-12-2019 07:02:17 3.8 C 43 %
1052 21-12-2019 07:12:18 3.5 C 42 %
1053 21-12-2019 07:22:17 3.4 C 43 %
1054 21-12-2019 07:32:17 3.3 C 43 %
1055 21-12-2019 07:42:17 3 C 42 %
1056 21-12-2019 07:52:17 3 C 43 %
1057 21-12-2019 08:02:17 3.1 C 44 %
1058 21-12-2019 08:12:17 3.6 C 44 %
1059 21-12-2019 08:22:17 3.7 C 44 %
1060 21-12-2019 08:32:17 3.9 C 43 %
1061 21-12-2019 08:42:17 4.6 C 43 %
1062 21-12-2019 08:52:17 4.9 C 42 %
1063 21-12-2019 09:02:17 5 C 39 %
1064 21-12-2019 09:12:17 4.5 C 38 %
1065 21-12-2019 09:22:17 4.4 C 38 %
1066 21-12-2019 09:32:17 4.4 C 39 %
1067 21-12-2019 09:42:17 4.6 C 40 %
1068 21-12-2019 09:52:17 4.6 C 38 %
1069 21-12-2019 10:02:17 4.8 C 38 %
1070 21-12-2019 10:12:17 4.8 C 37 %
1071 21-12-2019 10:22:17 5.1 C 37 %
1072 21-12-2019 10:32:17 5.2 C 36 %
1073 21-12-2019 10:42:17 5.1 C 37 %
1074 21-12-2019 10:52:17 5.2 C 37 %
1075 21-12-2019 11:02:17 5.3 C 37 %
Sensor: Nr:Datum:Temp:Feuchte:
Aussen-T/F 1076 21-12-2019 11:12:17 5.3 C 37 %
1077 21-12-2019 11:22:17 5.4 C 37 %
1078 21-12-2019 11:32:17 5.8 C 37 %
1079 21-12-2019 11:42:17 5.9 C 37 %
1080 21-12-2019 11:52:17 5.8 C 37 %
1081 21-12-2019 12:02:17 5.8 C 36 %
1082 21-12-2019 12:12:17 6.2 C 36 %
1083 21-12-2019 12:22:17 6.2 C 35 %
1084 21-12-2019 12:32:17 7 C 32 %
1085 21-12-2019 12:42:17 6.8 C 33 %
1086 21-12-2019 12:52:17 8 C 30 %
1087 21-12-2019 13:02:17 7.8 C 30 %
1088 21-12-2019 13:12:17 7.1 C 30 %
1089 21-12-2019 13:22:17 6.9 C 31 %
1090 21-12-2019 13:32:17 7.2 C 30 %
1091 21-12-2019 13:42:17 8 C 28 %
1092 21-12-2019 13:52:18 7.7 C 28 %
1093 21-12-2019 14:02:17 8.3 C 27 %
1094 21-12-2019 14:12:17 8.8 C 26 %
1095 21-12-2019 14:22:17 8.2 C 27 %
1096 21-12-2019 14:32:18 8.2 C 27 %
1097 21-12-2019 14:42:18 8.5 C 27 %
1098 21-12-2019 14:52:17 8.8 C 26 %
1099 21-12-2019 15:02:18 9 C 25 %
1100 21-12-2019 15:12:18 8.7 C 26 %
Sensor: Nr:Datum:Temp:Feuchte:
Aussen-T/F 1101 21-12-2019 15:22:18 8.8 C 25 %
1102 21-12-2019 15:32:17 8.7 C 25 %
1103 21-12-2019 15:42:17 8 C 26 %
1104 21-12-2019 15:52:17 7.5 C 28 %
1105 21-12-2019 16:02:17 7.7 C 27 %
1106 21-12-2019 16:12:17 7.6 C 29 %
1107 21-12-2019 16:22:17 7.4 C 30 %
1108 21-12-2019 16:32:17 7.4 C 30 %
1109 21-12-2019 16:42:17 7.7 C 28 %
1110 21-12-2019 16:52:17 7.9 C 27 %
1111 21-12-2019 17:02:17 7.6 C 29 %
1112 21-12-2019 17:12:17 7.3 C 30 %
1113 21-12-2019 17:22:17 7.2 C 30 %
1114 21-12-2019 17:32:17 7.3 C 30 %
1115 21-12-2019 17:42:17 7.3 C 29 %
1116 21-12-2019 17:52:17 7.2 C 29 %
1117 21-12-2019 18:02:17 7.6 C 27 %
1118 21-12-2019 18:12:17 7.6 C 27 %
1119 21-12-2019 18:22:17 7.6 C 26 %
1120 21-12-2019 18:32:18 7.9 C 25 %
1121 21-12-2019 18:42:18 7.7 C 26 %
1122 21-12-2019 18:52:17 7.5 C 26 %
1123 21-12-2019 19:02:17 7.3 C 27 %
1124 21-12-2019 19:12:17 7 C 27 %
1125 21-12-2019 19:22:17 7 C 27 %
Sensor: Nr:Datum:Temp:Feuchte:
Aussen-T/F 1126 21-12-2019 19:32:17 6.9 C 30 %
1127 21-12-2019 19:42:17 6.8 C 30 %
1128 21-12-2019 19:52:17 7 C 27 %
1129 21-12-2019 20:02:17 7.1 C 26 %
1130 21-12-2019 20:12:17 7.1 C 26 %
1131 21-12-2019 20:22:17 7.1 C 26 %
1132 21-12-2019 20:32:17 6.9 C 28 %
1133 21-12-2019 20:42:17 7 C 27 %
1134 21-12-2019 20:52:17 6.8 C 27 %
1135 21-12-2019 21:02:18 6.4 C 29 %
1136 21-12-2019 21:12:18 6.1 C 30 %
1137 21-12-2019 21:22:17 6.1 C 31 %
1138 21-12-2019 21:32:17 6.3 C 31 %
1139 21-12-2019 21:42:17 5.9 C 31 %
1140 21-12-2019 21:52:18 5.1 C 34 %
1141 21-12-2019 22:02:18 4.9 C 36 %
1142 21-12-2019 22:12:18 5.2 C 34 %
1143 21-12-2019 22:22:17 5.7 C 30 %
1144 21-12-2019 22:32:17 6.1 C 27 %
1145 21-12-2019 22:42:17 6.1 C 27 %
1146 21-12-2019 22:52:17 6 C 27 %
1147 21-12-2019 23:02:17 5.8 C 27 %
1148 21-12-2019 23:12:17 5.8 C 27 %
1149 21-12-2019 23:22:17 6.3 C 26 %
1150 21-12-2019 23:32:18 6.5 C 25 %
Sensor: Nr:Datum:Temp:Feuchte:
Aussen-T/F 1151 21-12-2019 23:42:18 6.7 C 25 %
1152 21-12-2019 23:52:17 6.3 C 26 %
1153 22-12-2019 00:02:17 6.8 C 26 %
1154 22-12-2019 00:12:17 6.9 C 26 %
1155 22-12-2019 00:22:17 6.8 C 26 %
1156 22-12-2019 00:32:17 6.8 C 26 %
1157 22-12-2019 00:42:17 6.7 C 27 %
1158 22-12-2019 00:52:17 6.3 C 30 %
1159 22-12-2019 01:02:17 6.2 C 30 %
1160 22-12-2019 01:12:18 5.8 C 35 %
1161 22-12-2019 01:22:17 5.8 C 36 %
1162 22-12-2019 01:32:17 5.8 C 39 %
1163 22-12-2019 01:42:17 5.7 C 40 %
1164 22-12-2019 01:52:17 5.7 C 40 %
1165 22-12-2019 02:02:17 5.7 C 38 %
1166 22-12-2019 02:12:18 5.7 C 38 %
1167 22-12-2019 02:22:17 5.8 C 38 %
1168 22-12-2019 02:32:17 5.9 C 37 %
1169 22-12-2019 02:42:17 5.9 C 36 %
1170 22-12-2019 02:52:18 6 C 35 %
1171 22-12-2019 03:02:17 6.1 C 35 %
1172 22-12-2019 03:12:17 6.2 C 34 %
1173 22-12-2019 03:22:17 6.2 C 35 %
1174 22-12-2019 03:32:17 6.2 C 34 %
1175 22-12-2019 03:42:17 6.1 C 35 %
Sensor: Nr:Datum:Temp:Feuchte:
Aussen-T/F 1176 22-12-2019 03:52:17 6.2 C 35 %
1177 22-12-2019 04:02:18 6.2 C 35 %
1178 22-12-2019 04:12:18 6 C 35 %
1179 22-12-2019 04:22:17 6.2 C 34 %
1180 22-12-2019 04:32:17 6.2 C 34 %
1181 22-12-2019 04:42:17 6.3 C 33 %
1182 22-12-2019 04:52:17 6.3 C 33 %
1183 22-12-2019 05:02:17 6.2 C 34 %
1184 22-12-2019 05:12:17 5.8 C 34 %
1185 22-12-2019 05:22:17 5.4 C 36 %
1186 22-12-2019 05:32:17 5.7 C 40 %
1187 22-12-2019 05:42:17 6.1 C 38 %
1188 22-12-2019 05:52:17 5.5 C 35 %
1189 22-12-2019 06:02:17 5.1 C 39 %
1190 22-12-2019 06:12:17 5.3 C 41 %
1191 22-12-2019 06:22:17 4.9 C 41 %
1192 22-12-2019 06:32:17 5.4 C 42 %
1193 22-12-2019 06:42:17 5.9 C 41 %
1194 22-12-2019 06:52:17 6.2 C 39 %
1195 22-12-2019 07:02:17 6.2 C 38 %
1196 22-12-2019 07:12:17 6 C 38 %
1197 22-12-2019 07:22:17 5.7 C 38 %
1198 22-12-2019 07:32:17 5.4 C 39 %
1199 22-12-2019 07:42:17 6 C 42 %
1200 22-12-2019 07:52:17 6.1 C 41 %
Sensor: Nr:Datum:Temp:Feuchte:
Aussen-T/F 1201 22-12-2019 08:02:18 6.3 C 41 %
1202 22-12-2019 08:12:18 6.2 C 40 %
1203 22-12-2019 08:22:17 5.9 C 40 %
1204 22-12-2019 08:32:17 5.8 C 41 %
1205 22-12-2019 08:42:17 6.3 C 41 %
1206 22-12-2019 08:52:18 6.2 C 39 %
1207 22-12-2019 09:02:17 6 C 39 %
1208 22-12-2019 09:12:17 6.2 C 40 %
1209 22-12-2019 09:22:17 6.4 C 39 %
1210 22-12-2019 09:32:17 6.3 C 39 %
1211 22-12-2019 09:42:17 6.8 C 39 %
1212 22-12-2019 09:52:17 7 C 37 %
1213 22-12-2019 10:02:17 7.1 C 37 %
1214 22-12-2019 10:12:17 7.9 C 33 %
1215 22-12-2019 10:22:17 8.1 C 33 %
1216 22-12-2019 10:32:17 8.8 C 30 %
1217 22-12-2019 10:42:17 9 C 29 %
1218 22-12-2019 10:52:17 9.3 C 28 %
1219 22-12-2019 11:02:17 9.5 C 28 %
1220 22-12-2019 11:12:17 10 C 26 %
1221 22-12-2019 11:22:17 10 C 26 %
1222 22-12-2019 11:32:18 10.4 C 26 %
1223 22-12-2019 11:42:18 10.2 C 26 %
1224 22-12-2019 11:52:17 10.4 C 26 %
1225 22-12-2019 12:02:17 10.5 C 25 %
Sensor: Nr:Datum:Temp:Feuchte:
Aussen-T/F 1226 22-12-2019 12:12:17 10.5 C 26 %
1227 22-12-2019 12:22:17 10.5 C 25 %
1228 22-12-2019 12:32:17 10.7 C 26 %
1229 22-12-2019 12:42:17 10.8 C 26 %
1230 22-12-2019 12:52:17 11.2 C 25 %
1231 22-12-2019 13:02:17 11.1 C 25 %
1232 22-12-2019 13:12:17 10.8 C 25 %
1233 22-12-2019 13:22:17 10.7 C 25 %
1234 22-12-2019 13:32:17 10.7 C 25 %
1235 22-12-2019 13:42:17 10.7 C 25 %
1236 22-12-2019 13:52:17 10.8 C 25 %
1237 22-12-2019 14:02:17 11.1 C 23 %
1238 22-12-2019 14:12:17 11 C 23 %
1239 22-12-2019 14:22:17 10.8 C 23 %
1240 22-12-2019 14:32:17 10.9 C 23 %
1241 22-12-2019 14:42:17 10.8 C 23 %
1242 22-12-2019 14:52:17 10.7 C 25 %
1243 22-12-2019 15:02:17 10.6 C 25 %
1244 22-12-2019 15:12:17 10.3 C 25 %
1245 22-12-2019 15:22:17 10.1 C 25 %
1246 22-12-2019 15:32:17 9.9 C 26 %
1247 22-12-2019 15:42:17 9.7 C 26 %
1248 22-12-2019 15:52:18 9.6 C 25 %
1249 22-12-2019 16:02:18 9.6 C 25 %
1250 22-12-2019 16:12:18 9.3 C 25 %
Sensor: Nr:Datum:Temp:Feuchte:
Aussen-T/F 1251 22-12-2019 16:22:17 8.9 C 26 %
1252 22-12-2019 16:32:17 8.3 C 26 %
1253 22-12-2019 16:42:17 8.4 C 27 %
1254 22-12-2019 16:52:17 7.9 C 28 %
1255 22-12-2019 17:02:18 7.5 C 30 %
1256 22-12-2019 17:12:18 7.5 C 30 %
1257 22-12-2019 17:22:17 7.4 C 30 %
1258 22-12-2019 17:32:17 7.5 C 29 %
1259 22-12-2019 17:42:17 7.5 C 28 %
1260 22-12-2019 17:52:17 7.2 C 28 %
1261 22-12-2019 18:02:17 7.2 C 30 %
1262 22-12-2019 18:12:17 7.1 C 30 %
1263 22-12-2019 18:22:17 7.3 C 30 %
1264 22-12-2019 18:32:17 7.4 C 29 %
1265 22-12-2019 18:42:17 7.5 C 29 %
1266 22-12-2019 18:52:17 7.2 C 29 %
1267 22-12-2019 19:02:17 7.1 C 30 %
1268 22-12-2019 19:12:17 7 C 31 %
1269 22-12-2019 19:22:17 7 C 32 %
1270 22-12-2019 19:32:17 7.1 C 31 %
1271 22-12-2019 19:42:17 7.5 C 30 %
1272 22-12-2019 19:52:17 8 C 27 %
1273 22-12-2019 20:02:17 7.9 C 27 %
1274 22-12-2019 20:12:17 8.1 C 26 %
1275 22-12-2019 20:22:17 8.3 C 25 %
Sensor: Nr:Datum:Temp:Feuchte:
Aussen-T/F 1276 22-12-2019 20:32:17 8.2 C 25 %
1277 22-12-2019 20:42:17 8 C 25 %
1278 22-12-2019 20:52:17 8 C 25 %
1279 22-12-2019 21:02:17 8.1 C 25 %
1280 22-12-2019 21:12:17 8.1 C 25 %
1281 22-12-2019 21:22:17 7.8 C 25 %
1282 22-12-2019 21:32:17 8.1 C 25 %
1283 22-12-2019 21:42:17 7.8 C 26 %
1284 22-12-2019 21:52:17 7.7 C 26 %
1285 22-12-2019 22:02:17 7.9 C 26 %
1286 22-12-2019 22:12:17 7.6 C 26 %
1287 22-12-2019 22:22:17 7.5 C 26 %
1288 22-12-2019 22:32:17 7.1 C 27 %
1289 22-12-2019 22:42:17 6.9 C 28 %
1290 22-12-2019 22:52:17 6.7 C 29 %
1291 22-12-2019 23:02:17 6.2 C 31 %
1292 22-12-2019 23:12:17 6.4 C 31 %
1293 22-12-2019 23:22:17 6.6 C 31 %
1294 22-12-2019 23:32:17 6.6 C 31 %
1295 22-12-2019 23:42:17 6.7 C 31 %
1296 22-12-2019 23:52:17 6.7 C 31 %
1297 23-12-2019 00:02:17 6.6 C 32 %
1298 23-12-2019 00:12:17 6.5 C 31 %
1299 23-12-2019 00:22:17 6.4 C 32 %
1300 23-12-2019 00:32:17 6.6 C 31 %
Sensor: Nr:Datum:Temp:Feuchte:
Aussen-T/F 1301 23-12-2019 00:42:17 7 C 30 %
1302 23-12-2019 00:52:17 6.9 C 30 %
1303 23-12-2019 01:02:17 6.8 C 30 %
1304 23-12-2019 01:12:17 7.1 C 28 %
1305 23-12-2019 01:22:17 7 C 28 %
1306 23-12-2019 01:32:17 7.1 C 28 %
1307 23-12-2019 01:42:17 7.4 C 27 %
1308 23-12-2019 01:52:17 7.4 C 27 %
1309 23-12-2019 02:02:17 6.8 C 29 %
1310 23-12-2019 02:12:17 6.5 C 30 %
1311 23-12-2019 02:22:17 6.8 C 29 %
1312 23-12-2019 02:32:17 6.9 C 29 %
1313 23-12-2019 02:42:17 7.3 C 28 %
1314 23-12-2019 02:52:17 6.9 C 30 %
1315 23-12-2019 03:02:17 6.8 C 31 %
1316 23-12-2019 03:12:17 6.4 C 31 %
1317 23-12-2019 03:22:17 6.5 C 30 %
1318 23-12-2019 03:32:17 7 C 28 %
1319 23-12-2019 03:42:17 6.6 C 29 %
1320 23-12-2019 03:52:17 7 C 28 %
1321 23-12-2019 04:02:17 6.9 C 30 %
1322 23-12-2019 04:12:17 7.1 C 28 %
1323 23-12-2019 04:22:17 6.8 C 30 %
1324 23-12-2019 04:32:17 6.9 C 31 %
1325 23-12-2019 04:42:17 6.5 C 31 %
Sensor: Nr:Datum:Temp:Feuchte:
Aussen-T/F 1326 23-12-2019 04:52:17 6.1 C 31 %
1327 23-12-2019 05:02:17 6.4 C 32 %
1328 23-12-2019 05:12:17 7 C 30 %
1329 23-12-2019 05:22:17 7.1 C 30 %
1330 23-12-2019 05:32:17 7 C 30 %
1331 23-12-2019 05:42:17 6.8 C 31 %
1332 23-12-2019 05:52:17 6.3 C 32 %
1333 23-12-2019 06:02:18 6.3 C 34 %
1334 23-12-2019 06:12:18 6.6 C 33 %
1335 23-12-2019 06:22:17 6.9 C 31 %
1336 23-12-2019 06:32:18 7.1 C 30 %
1337 23-12-2019 06:42:18 6.9 C 31 %
1338 23-12-2019 06:52:17 6.9 C 31 %
1339 23-12-2019 07:02:17 6.8 C 32 %
1340 23-12-2019 07:12:17 6.8 C 34 %
1341 23-12-2019 07:22:17 6.8 C 32 %
1342 23-12-2019 07:32:17 7.1 C 30 %
1343 23-12-2019 07:42:17 7.4 C 29 %
1344 23-12-2019 07:52:17 7.1 C 30 %
1345 23-12-2019 08:02:17 7.3 C 30 %
1346 23-12-2019 08:12:17 7.4 C 28 %
1347 23-12-2019 08:22:17 7.5 C 28 %
1348 23-12-2019 08:32:18 7.5 C 28 %
1349 23-12-2019 08:42:18 7.6 C 28 %
1350 23-12-2019 08:52:17 7.6 C 27 %
Sensor: Nr:Datum:Temp:Feuchte:
Aussen-T/F 1351 23-12-2019 09:02:17 7.6 C 27 %
1352 23-12-2019 09:12:18 7.7 C 27 %
1353 23-12-2019 09:22:17 7.8 C 27 %
1354 23-12-2019 09:32:18 7.8 C 27 %
1355 23-12-2019 09:42:18 7.8 C 27 %
1356 23-12-2019 09:52:18 7.9 C 26 %
1357 23-12-2019 10:02:17 7.3 C 30 %
1358 23-12-2019 10:12:18 7 C 33 %
1359 23-12-2019 10:22:17 7 C 35 %
1360 23-12-2019 10:32:18 6.8 C 35 %
1361 23-12-2019 10:42:18 6.9 C 34 %
1362 23-12-2019 10:52:17 7.4 C 30 %
1363 23-12-2019 11:02:18 7.8 C 28 %
1364 23-12-2019 11:12:18 8.1 C 28 %
1365 23-12-2019 11:22:17 8.4 C 26 %
1366 23-12-2019 11:32:18 8.3 C 26 %
1367 23-12-2019 11:42:18 8.6 C 26 %
1368 23-12-2019 11:52:17 8.9 C 25 %
1369 23-12-2019 12:02:18 9.1 C 25 %
1370 23-12-2019 12:12:18 9.1 C 25 %
1371 23-12-2019 12:22:17 8.9 C 25 %
1372 23-12-2019 12:32:17 9 C 25 %
1373 23-12-2019 12:42:17 9.3 C 25 %
1374 23-12-2019 12:52:17 8.4 C 26 %
1375 23-12-2019 13:02:17 8.4 C 26 %
Sensor: Nr:Datum:Temp:Feuchte:
Aussen-T/F 1376 23-12-2019 13:12:17 8.3 C 27 %
1377 23-12-2019 13:22:17 8.2 C 27 %
1378 23-12-2019 13:32:18 8.1 C 29 %
1379 23-12-2019 13:42:18 8.2 C 28 %
1380 23-12-2019 13:52:17 8.5 C 28 %
1381 23-12-2019 14:02:17 8.9 C 27 %
1382 23-12-2019 14:12:17 8.9 C 26 %
1383 23-12-2019 14:22:18 9 C 25 %
1384 23-12-2019 14:32:17 9.1 C 25 %
1385 23-12-2019 14:42:17 9.1 C 25 %
1386 23-12-2019 14:52:17 8.9 C 25 %
1387 23-12-2019 15:02:18 8.7 C 26 %
1388 23-12-2019 15:12:18 9.1 C 25 %
1389 23-12-2019 15:22:17 9.1 C 25 %
1390 23-12-2019 15:32:17 9 C 25 %
1391 23-12-2019 15:42:17 9 C 25 %
1392 23-12-2019 15:52:17 8.8 C 25 %
1393 23-12-2019 16:02:17 8.8 C 25 %
1394 23-12-2019 16:12:17 8.6 C 26 %
1395 23-12-2019 16:22:18 8.5 C 25 %
1396 23-12-2019 16:32:17 8.4 C 25 %
1397 23-12-2019 16:42:17 8.5 C 25 %
1398 23-12-2019 16:52:18 8.5 C 25 %
1399 23-12-2019 17:02:17 8.2 C 25 %
1400 23-12-2019 17:12:17 8.4 C 25 %
Sensor: Nr:Datum:Temp:Feuchte:
Aussen-T/F 1401 23-12-2019 17:22:17 8 C 25 %
1402 23-12-2019 17:32:17 7.9 C 25 %
1403 23-12-2019 17:42:18 7.8 C 25 %
1404 23-12-2019 17:52:17 7.8 C 25 %
1405 23-12-2019 18:02:17 7.9 C 25 %
1406 23-12-2019 18:12:17 8 C 23 %
1407 23-12-2019 18:22:17 7.9 C 23 %
1408 23-12-2019 18:32:17 7.9 C 25 %
1409 23-12-2019 18:42:17 7.6 C 25 %
1410 23-12-2019 18:52:17 7.5 C 26 %
1411 23-12-2019 19:02:17 7.3 C 26 %
1412 23-12-2019 19:12:17 6.7 C 29 %
1413 23-12-2019 19:22:17 6.4 C 30 %
1414 23-12-2019 19:32:17 7.4 C 26 %
1415 23-12-2019 19:42:17 7 C 26 %
1416 23-12-2019 19:52:17 7 C 27 %
1417 23-12-2019 20:02:17 7 C 28 %
1418 23-12-2019 20:12:17 6.5 C 30 %
1419 23-12-2019 20:22:17 6.8 C 30 %
1420 23-12-2019 20:32:18 6.8 C 30 %
1421 23-12-2019 20:42:18 6.9 C 30 %
1422 23-12-2019 20:52:17 6.9 C 30 %
1423 23-12-2019 21:02:18 6.7 C 30 %
1424 23-12-2019 21:12:18 7.1 C 28 %
1425 23-12-2019 21:22:17 7 C 28 %
Sensor: Nr:Datum:Temp:Feuchte:
Aussen-T/F 1426 23-12-2019 21:32:17 6.7 C 31 %
1427 23-12-2019 21:42:17 6.5 C 31 %
1428 23-12-2019 21:52:17 6.5 C 32 %
1429 23-12-2019 22:02:18 6.4 C 31 %
1430 23-12-2019 22:12:18 5.8 C 32 %
1431 23-12-2019 22:22:17 5.4 C 37 %
1432 23-12-2019 22:32:17 5.7 C 33 %
1433 23-12-2019 22:42:17 5.3 C 34 %
1434 23-12-2019 22:52:17 5.5 C 34 %
1435 23-12-2019 23:02:17 5.4 C 33 %
1436 23-12-2019 23:12:17 5.5 C 32 %
1437 23-12-2019 23:22:18 5.4 C 30 %
1438 23-12-2019 23:32:17 5.8 C 30 %
1439 23-12-2019 23:42:17 4.8 C 33 %
1440 23-12-2019 23:52:17 4.8 C 36 %
1441 24-12-2019 00:02:17 5.6 C 35 %
1442 24-12-2019 00:12:17 5.8 C 32 %
1443 24-12-2019 00:22:17 5.7 C 32 %
1444 24-12-2019 00:32:18 6 C 32 %
1445 24-12-2019 00:42:18 6.1 C 31 %
1446 24-12-2019 00:52:17 6.3 C 31 %
1447 24-12-2019 01:02:17 5.6 C 32 %
1448 24-12-2019 01:12:17 5.9 C 32 %
1449 24-12-2019 01:22:17 6.1 C 30 %
1450 24-12-2019 01:32:17 6.3 C 30 %
Sensor: Nr:Datum:Temp:Feuchte:
Aussen-T/F 1451 24-12-2019 01:42:17 5.9 C 31 %
1452 24-12-2019 01:52:17 5.7 C 33 %
1453 24-12-2019 02:02:17 5.7 C 35 %
1454 24-12-2019 02:12:17 5.8 C 35 %
1455 24-12-2019 02:22:17 5.6 C 35 %
1456 24-12-2019 02:32:18 5.5 C 36 %
1457 24-12-2019 02:42:18 5.5 C 36 %
1458 24-12-2019 02:52:17 6.6 C 30 %
1459 24-12-2019 03:02:18 6.7 C 29 %
1460 24-12-2019 03:12:18 6.3 C 30 %
1461 24-12-2019 03:22:17 5.7 C 31 %
1462 24-12-2019 03:32:17 5.5 C 31 %
1463 24-12-2019 03:42:17 5.7 C 31 %
1464 24-12-2019 03:52:17 5 C 32 %
1465 24-12-2019 04:02:17 5 C 38 %
1466 24-12-2019 04:12:17 5.2 C 37 %
1467 24-12-2019 04:22:17 5.2 C 36 %
1468 24-12-2019 04:32:17 4.8 C 37 %
1469 24-12-2019 04:42:17 4.8 C 39 %
1470 24-12-2019 04:52:17 5.3 C 38 %
1471 24-12-2019 05:02:18 5.4 C 35 %
1472 24-12-2019 05:12:18 5.2 C 35 %
1473 24-12-2019 05:22:17 4.7 C 37 %
1474 24-12-2019 05:32:18 5 C 37 %
1475 24-12-2019 05:42:18 4.6 C 36 %
Sensor: Nr:Datum:Temp:Feuchte:
Aussen-T/F 1476 24-12-2019 05:52:17 4.9 C 37 %
1477 24-12-2019 06:02:18 4.3 C 36 %
1478 24-12-2019 06:12:18 4.6 C 39 %
1479 24-12-2019 06:22:17 4.6 C 38 %
1480 24-12-2019 06:32:17 4.6 C 39 %
1481 24-12-2019 06:42:17 4.5 C 38 %
1482 24-12-2019 06:52:17 4.5 C 39 %
1483 24-12-2019 07:02:17 4.8 C 37 %
1484 24-12-2019 07:12:17 5 C 36 %
1485 24-12-2019 07:22:17 5.4 C 34 %
1486 24-12-2019 07:32:17 5.6 C 33 %
1487 24-12-2019 07:42:17 5.6 C 32 %
1488 24-12-2019 07:52:17 5.8 C 32 %
1489 24-12-2019 08:02:17 5.8 C 31 %
1490 24-12-2019 08:12:17 6 C 30 %
1491 24-12-2019 08:22:17 6.2 C 29 %
1492 24-12-2019 08:32:17 6.2 C 30 %
1493 24-12-2019 08:42:17 6.3 C 30 %
1494 24-12-2019 08:52:18 6.4 C 30 %
1495 24-12-2019 09:02:17 6.5 C 29 %
1496 24-12-2019 09:12:17 6.8 C 29 %
1497 24-12-2019 09:22:17 6.8 C 28 %
1498 24-12-2019 09:32:17 6.8 C 29 %
1499 24-12-2019 09:42:17 6.8 C 28 %
1500 24-12-2019 09:52:17 6.5 C 30 %
Sensor: Nr:Datum:Temp:Feuchte:
Aussen-T/F 1501 24-12-2019 10:02:17 6.4 C 30 %
1502 24-12-2019 10:12:17 6.2 C 31 %
1503 24-12-2019 10:22:17 6.2 C 33 %
1504 24-12-2019 10:32:17 6.3 C 37 %
1505 24-12-2019 10:42:17 6.8 C 37 %
1506 24-12-2019 10:52:17 6.7 C 33 %
1507 24-12-2019 11:02:17 6.8 C 35 %
1508 24-12-2019 11:12:17 6.9 C 34 %
1509 24-12-2019 11:22:17 7.5 C 32 %
1510 24-12-2019 11:32:17 8 C 30 %
1511 24-12-2019 11:42:17 8.2 C 29 %
1512 24-12-2019 11:52:18 8 C 29 %
1513 24-12-2019 12:02:17 7.8 C 30 %
1514 24-12-2019 12:12:17 7.6 C 30 %
1515 24-12-2019 12:22:17 8 C 28 %
1516 24-12-2019 12:32:17 8.2 C 27 %
1517 24-12-2019 12:42:17 8.4 C 27 %
1518 24-12-2019 12:52:18 8.9 C 27 %
1519 24-12-2019 13:02:17 9.2 C 25 %
1520 24-12-2019 13:12:17 9.3 C 25 %
1521 24-12-2019 13:22:17 9.3 C 25 %
1522 24-12-2019 13:32:17 9.2 C 26 %
1523 24-12-2019 13:42:17 9.3 C 26 %
1524 24-12-2019 13:52:17 9.3 C 26 %
1525 24-12-2019 14:02:18 9.4 C 25 %
Sensor: Nr:Datum:Temp:Feuchte:
Aussen-T/F 1526 24-12-2019 14:12:18 9.5 C 25 %
1527 24-12-2019 14:22:17 9.6 C 25 %
1528 24-12-2019 14:32:18 9.7 C 25 %
1529 24-12-2019 14:42:18 9.3 C 26 %
1530 24-12-2019 14:52:17 9.2 C 27 %
1531 24-12-2019 15:02:18 9.1 C 27 %
1532 24-12-2019 15:12:18 9.5 C 26 %
1533 24-12-2019 15:22:17 9.8 C 25 %
1534 24-12-2019 15:32:17 10 C 22 %
1535 24-12-2019 15:42:17 10.1 C 20 %
1536 24-12-2019 15:52:17 10.5 C 20 %
1537 24-12-2019 16:02:17 10.1 C 20 %
1538 24-12-2019 16:12:17 10 C 20 %
1539 24-12-2019 16:22:17 10.2 C 20 %
1540 24-12-2019 16:32:17 9.8 C 20 %
1541 24-12-2019 16:42:17 9.7 C 21 %
1542 24-12-2019 16:52:17 10.1 C 20 %
1543 24-12-2019 17:02:17 9.8 C 20 %
1544 24-12-2019 17:12:17 9.4 C 20 %
1545 24-12-2019 17:22:18 9.6 C 20 %
1546 24-12-2019 17:32:17 8.8 C 20 %
1547 24-12-2019 17:42:17 9.1 C 20 %
1548 24-12-2019 17:52:17 9.3 C 20 %
1549 24-12-2019 18:02:17 9 C 20 %
1550 24-12-2019 18:12:17 8.5 C 26 %
Sensor: Nr:Datum:Temp:Feuchte:
Aussen-T/F 1551 24-12-2019 18:22:17 8.9 C 25 %
1552 24-12-2019 18:32:17 8.2 C 28 %
1553 24-12-2019 18:42:17 7.8 C 31 %
1554 24-12-2019 18:52:17 7.5 C 35 %
1555 24-12-2019 19:02:17 7.6 C 31 %
1556 24-12-2019 19:12:17 7.3 C 31 %
1557 24-12-2019 19:22:17 6.7 C 35 %
1558 24-12-2019 19:32:17 6.5 C 40 %
1559 24-12-2019 19:42:17 6.5 C 36 %
1560 24-12-2019 19:52:17 6.2 C 36 %
1561 24-12-2019 20:02:17 6.7 C 35 %
1562 24-12-2019 20:12:17 7.3 C 30 %
1563 24-12-2019 20:22:17 7.2 C 32 %
1564 24-12-2019 20:32:18 7.1 C 30 %
1565 24-12-2019 20:42:18 7.3 C 31 %
1566 24-12-2019 20:52:17 7.3 C 30 %
1567 24-12-2019 21:02:17 7.1 C 31 %
1568 24-12-2019 21:12:17 7.7 C 30 %
1569 24-12-2019 21:22:17 7.4 C 30 %
1570 24-12-2019 21:32:17 7.6 C 30 %
1571 24-12-2019 21:42:17 7.9 C 29 %
1572 24-12-2019 21:52:17 8.1 C 28 %
1573 24-12-2019 22:02:17 8.6 C 26 %
1574 24-12-2019 22:12:17 8.5 C 26 %
1575 24-12-2019 22:22:17 8.3 C 26 %
Sensor: Nr:Datum:Temp:Feuchte:
Aussen-T/F 1576 24-12-2019 22:32:17 8.4 C 26 %
1577 24-12-2019 22:42:17 8.2 C 27 %
1578 24-12-2019 22:52:17 8 C 28 %
1579 24-12-2019 23:02:17 8.4 C 27 %
1580 24-12-2019 23:12:17 8.4 C 27 %
1581 24-12-2019 23:22:17 8.4 C 27 %
1582 24-12-2019 23:32:17 8.5 C 27 %
1583 24-12-2019 23:42:17 8.5 C 27 %
1584 24-12-2019 23:52:17 8.4 C 27 %
1585 25-12-2019 00:02:17 8.4 C 27 %
1586 25-12-2019 00:12:17 8.4 C 27 %
1587 25-12-2019 00:22:17 8.4 C 28 %
1588 25-12-2019 00:32:17 8.3 C 28 %
1589 25-12-2019 00:42:18 8.2 C 29 %
1590 25-12-2019 00:52:17 8.2 C 29 %
1591 25-12-2019 01:02:17 7.8 C 32 %
1592 25-12-2019 01:12:17 7.7 C 33 %
1593 25-12-2019 01:22:17 7.5 C 35 %
1594 25-12-2019 01:32:18 7.3 C 35 %
1595 25-12-2019 01:42:18 7.5 C 35 %
1596 25-12-2019 01:52:17 7.6 C 33 %
1597 25-12-2019 02:02:17 7.7 C 32 %
1598 25-12-2019 02:12:17 8 C 31 %
1599 25-12-2019 02:22:17 7.9 C 31 %
1600 25-12-2019 02:32:18 7.9 C 31 %
Sensor: Nr:Datum:Temp:Feuchte:
Aussen-T/F 1601 25-12-2019 02:42:18 7.9 C 31 %
1602 25-12-2019 02:52:17 7.9 C 31 %
1603 25-12-2019 03:02:17 7.8 C 31 %
1604 25-12-2019 03:12:17 7.9 C 32 %
1605 25-12-2019 03:22:17 8.1 C 31 %
1606 25-12-2019 03:32:17 8.3 C 30 %
1607 25-12-2019 03:42:17 8.2 C 30 %
1608 25-12-2019 03:52:18 8.2 C 30 %
1609 25-12-2019 04:02:17 7.9 C 34 %
1610 25-12-2019 04:12:17 8 C 34 %
1611 25-12-2019 04:22:18 7.9 C 35 %
1612 25-12-2019 04:32:17 7.9 C 36 %
1613 25-12-2019 04:42:17 7.9 C 38 %
1614 25-12-2019 04:52:17 7.9 C 36 %
1615 25-12-2019 05:02:17 7.9 C 37 %
1616 25-12-2019 05:12:17 7.8 C 37 %
1617 25-12-2019 05:22:18 7.6 C 38 %
1618 25-12-2019 05:32:17 8 C 36 %
1619 25-12-2019 05:42:17 7.9 C 35 %
1620 25-12-2019 05:52:17 7.5 C 35 %
1621 25-12-2019 06:02:18 7.5 C 35 %
1622 25-12-2019 06:12:18 7.2 C 36 %
1623 25-12-2019 06:22:17 7.2 C 37 %
1624 25-12-2019 06:32:18 7.3 C 37 %
1625 25-12-2019 06:42:18 7.3 C 36 %
Sensor: Nr:Datum:Temp:Feuchte:
Aussen-T/F 1626 25-12-2019 06:52:17 7.1 C 39 %
1627 25-12-2019 07:02:18 7.3 C 33 %
1628 25-12-2019 07:12:18 7.1 C 32 %
1629 25-12-2019 07:22:17 6.9 C 35 %
1630 25-12-2019 07:32:18 6.8 C 38 %
1631 25-12-2019 07:42:18 6.9 C 38 %
1632 25-12-2019 07:52:17 7 C 35 %
1633 25-12-2019 08:02:18 6.8 C 32 %
1634 25-12-2019 08:12:18 6.4 C 32 %
1635 25-12-2019 08:22:17 6.2 C 33 %
1636 25-12-2019 08:32:17 6.2 C 32 %
1637 25-12-2019 08:42:17 6.5 C 32 %
1638 25-12-2019 08:52:17 6.7 C 31 %
1639 25-12-2019 09:02:17 6.9 C 30 %
1640 25-12-2019 09:12:17 6.9 C 30 %
1641 25-12-2019 09:22:18 6.8 C 30 %
1642 25-12-2019 09:32:17 7.3 C 28 %
1643 25-12-2019 09:42:17 7.3 C 27 %
1644 25-12-2019 09:52:17 7.3 C 27 %
1645 25-12-2019 10:02:17 7.1 C 29 %
1646 25-12-2019 10:12:17 7.3 C 27 %
1647 25-12-2019 10:22:18 7.6 C 26 %
1648 25-12-2019 10:32:17 7.7 C 26 %
1649 25-12-2019 10:42:17 7.8 C 25 %
1650 25-12-2019 10:52:17 7.5 C 26 %
Sensor: Nr:Datum:Temp:Feuchte:
Aussen-T/F 1651 25-12-2019 11:02:17 7.5 C 26 %
1652 25-12-2019 11:12:17 7.5 C 26 %
1653 25-12-2019 11:22:17 7.7 C 26 %
1654 25-12-2019 11:32:17 7.4 C 26 %
1655 25-12-2019 11:42:17 7.4 C 27 %
1656 25-12-2019 11:52:18 7.1 C 28 %
1657 25-12-2019 12:02:17 7.1 C 29 %
1658 25-12-2019 12:12:17 7.6 C 27 %
1659 25-12-2019 12:22:17 7.6 C 27 %
1660 25-12-2019 12:32:17 7.7 C 27 %
1661 25-12-2019 12:42:17 7.8 C 27 %
1662 25-12-2019 12:52:18 7.6 C 27 %
1663 25-12-2019 13:02:17 7.1 C 29 %
1664 25-12-2019 13:12:17 7 C 31 %
1665 25-12-2019 13:22:18 6.9 C 31 %
1666 25-12-2019 13:32:17 7.1 C 30 %
1667 25-12-2019 13:42:17 7 C 30 %
1668 25-12-2019 13:52:17 6.9 C 30 %
1669 25-12-2019 14:02:17 7.1 C 30 %
1670 25-12-2019 14:12:17 7.4 C 29 %
1671 25-12-2019 14:22:18 7.6 C 28 %
1672 25-12-2019 14:32:17 7.7 C 29 %
1673 25-12-2019 14:42:17 7.6 C 29 %
1674 25-12-2019 14:52:17 7.1 C 31 %
1675 25-12-2019 15:02:17 7.1 C 32 %
Sensor: Nr:Datum:Temp:Feuchte:
Aussen-T/F 1676 25-12-2019 15:12:17 7.1 C 30 %
1677 25-12-2019 15:22:18 7.1 C 31 %
1678 25-12-2019 15:32:17 7.4 C 30 %
1679 25-12-2019 15:42:17 7.3 C 31 %
1680 25-12-2019 15:52:17 7.2 C 30 %
1681 25-12-2019 16:02:17 7.2 C 30 %
1682 25-12-2019 16:12:17 6.9 C 31 %
1683 25-12-2019 16:22:17 6.8 C 32 %
1684 25-12-2019 16:32:17 6.7 C 35 %
1685 25-12-2019 16:42:17 6.9 C 32 %
1686 25-12-2019 16:52:17 6.9 C 31 %
1687 25-12-2019 17:02:17 6.8 C 30 %
1688 25-12-2019 17:12:17 6.7 C 30 %
1689 25-12-2019 17:22:18 6.6 C 31 %
1690 25-12-2019 17:32:17 6.2 C 31 %
1691 25-12-2019 17:42:17 5.7 C 35 %
1692 25-12-2019 17:52:18 5.9 C 35 %
1693 25-12-2019 18:02:17 6 C 33 %
1694 25-12-2019 18:12:17 6.1 C 32 %
1695 25-12-2019 18:22:17 6.2 C 33 %
1696 25-12-2019 18:32:17 6.2 C 33 %
1697 25-12-2019 18:42:17 6.2 C 32 %
1698 25-12-2019 18:52:17 6.2 C 32 %
1699 25-12-2019 19:02:17 6 C 33 %
1700 25-12-2019 19:12:17 5.9 C 33 %
Sensor: Nr:Datum:Temp:Feuchte:
Aussen-T/F 1701 25-12-2019 19:22:17 6.1 C 32 %
1702 25-12-2019 19:32:18 6.1 C 32 %
1703 25-12-2019 19:42:18 6 C 33 %
1704 25-12-2019 19:52:17 5.9 C 33 %
1705 25-12-2019 20:02:17 5.8 C 35 %
1706 25-12-2019 20:12:17 5.9 C 35 %
1707 25-12-2019 20:22:18 5.9 C 34 %
1708 25-12-2019 20:32:17 5.8 C 34 %
1709 25-12-2019 20:42:17 5.6 C 37 %
1710 25-12-2019 20:52:17 5.5 C 38 %
1711 25-12-2019 21:02:18 5.5 C 38 %
1712 25-12-2019 21:12:18 5.4 C 40 %
1713 25-12-2019 21:22:17 5.3 C 41 %
1714 25-12-2019 21:32:17 5.3 C 43 %
1715 25-12-2019 21:42:17 5.3 C 42 %
1716 25-12-2019 21:52:17 5.2 C 42 %
1717 25-12-2019 22:02:18 5.2 C 42 %
1718 25-12-2019 22:12:18 5.1 C 43 %
1719 25-12-2019 22:22:17 5.2 C 42 %
1720 25-12-2019 22:32:18 5.1 C 41 %
1721 25-12-2019 22:42:18 5.1 C 42 %
1722 25-12-2019 22:52:17 5.2 C 42 %
1723 25-12-2019 23:02:18 5.2 C 42 %
1724 25-12-2019 23:12:18 5.2 C 42 %
1725 25-12-2019 23:22:17 5.2 C 42 %
Sensor: Nr:Datum:Temp:Feuchte:
Aussen-T/F 1726 25-12-2019 23:32:17 5.1 C 42 %
1727 25-12-2019 23:42:17 4.7 C 42 %
1728 25-12-2019 23:52:17 4.5 C 42 %
1729 26-12-2019 00:02:17 4.6 C 43 %
1730 26-12-2019 00:12:18 4 C 42 %
1731 26-12-2019 00:22:17 3.6 C 42 %
1732 26-12-2019 00:32:18 3.9 C 44 %
1733 26-12-2019 00:42:18 3.9 C 44 %
1734 26-12-2019 00:52:17 4.1 C 43 %
1735 26-12-2019 01:02:18 4.4 C 43 %
1736 26-12-2019 01:12:18 4.3 C 43 %
1737 26-12-2019 01:22:17 4.3 C 43 %
1738 26-12-2019 01:32:17 4.4 C 43 %
1739 26-12-2019 01:42:17 4.4 C 43 %
1740 26-12-2019 01:52:17 4.3 C 42 %
1741 26-12-2019 02:02:18 4.3 C 42 %
1742 26-12-2019 02:12:18 4.4 C 42 %
1743 26-12-2019 02:22:17 4.2 C 42 %
1744 26-12-2019 02:32:17 4 C 42 %
1745 26-12-2019 02:42:17 4 C 42 %
1746 26-12-2019 02:52:17 4.2 C 42 %
1747 26-12-2019 03:02:18 4.2 C 42 %
1748 26-12-2019 03:12:18 4.1 C 42 %
1749 26-12-2019 03:22:17 4.1 C 42 %
1750 26-12-2019 03:32:17 4.1 C 42 %
Sensor: Nr:Datum:Temp:Feuchte:
Aussen-T/F 1751 26-12-2019 03:42:17 4.1 C 42 %
1752 26-12-2019 03:52:17 3.9 C 43 %
1753 26-12-2019 04:02:17 3.6 C 42 %
1754 26-12-2019 04:12:17 3.6 C 42 %
1755 26-12-2019 04:22:18 3.4 C 42 %
1756 26-12-2019 04:32:17 3 C 42 %
1757 26-12-2019 04:42:17 3.1 C 42 %
1758 26-12-2019 04:52:17 3.1 C 43 %
1759 26-12-2019 05:02:17 3.3 C 43 %
1760 26-12-2019 05:12:17 3.5 C 43 %
1761 26-12-2019 05:22:17 3.4 C 43 %
1762 26-12-2019 05:32:18 3.5 C 43 %
1763 26-12-2019 05:42:18 3.4 C 43 %
1764 26-12-2019 05:52:17 3.5 C 43 %
1765 26-12-2019 06:02:17 3.6 C 43 %
1766 26-12-2019 06:12:18 3.6 C 43 %
1767 26-12-2019 06:22:17 3.5 C 43 %
1768 26-12-2019 06:32:18 3.6 C 43 %
1769 26-12-2019 06:42:18 3.5 C 43 %
1770 26-12-2019 06:52:17 3.5 C 43 %
1771 26-12-2019 07:02:18 3.5 C 43 %
1772 26-12-2019 07:12:18 3.5 C 43 %
1773 26-12-2019 07:22:17 3.4 C 43 %
1774 26-12-2019 07:32:17 3.4 C 43 %
1775 26-12-2019 07:42:17 3.4 C 43 %
Sensor: Nr:Datum:Temp:Feuchte:
Aussen-T/F 1776 26-12-2019 07:52:17 3.4 C 43 %
1777 26-12-2019 08:02:18 3.4 C 43 %
1778 26-12-2019 08:12:18 3.4 C 43 %
1779 26-12-2019 08:22:17 3.5 C 43 %
1780 26-12-2019 08:32:17 3.4 C 43 %
1781 26-12-2019 08:42:17 3.4 C 43 %
1782 26-12-2019 08:52:17 3.5 C 43 %
1783 26-12-2019 09:02:17 3.5 C 43 %
1784 26-12-2019 09:12:17 3.5 C 43 %
1785 26-12-2019 09:22:17 3.4 C 42 %
1786 26-12-2019 09:32:17 3.5 C 43 %
1787 26-12-2019 09:42:17 3.6 C 42 %
1788 26-12-2019 09:52:18 3.6 C 42 %
1789 26-12-2019 10:02:17 3.6 C 42 %
1790 26-12-2019 10:12:17 3.6 C 42 %
1791 26-12-2019 10:22:18 3.8 C 42 %
1792 26-12-2019 10:32:17 4 C 41 %
1793 26-12-2019 10:42:17 4.3 C 41 %
1794 26-12-2019 10:52:18 4.5 C 41 %
1795 26-12-2019 11:02:17 4.7 C 41 %
1796 26-12-2019 11:12:17 4.8 C 41 %
1797 26-12-2019 11:22:17 5 C 40 %
1798 26-12-2019 11:32:17 5.4 C 40 %
1799 26-12-2019 11:42:17 5.5 C 39 %
1800 26-12-2019 11:52:17 5.6 C 37 %
Sensor: Nr:Datum:Temp:Feuchte:
Aussen-T/F 1801 26-12-2019 12:02:17 5.7 C 36 %
1802 26-12-2019 12:12:17 5.7 C 36 %
1803 26-12-2019 12:22:17 5.7 C 35 %
1804 26-12-2019 12:32:18 5.9 C 35 %
1805 26-12-2019 12:42:18 6 C 35 %
1806 26-12-2019 12:52:17 6 C 36 %
1807 26-12-2019 13:02:18 5.9 C 36 %
1808 26-12-2019 13:12:18 5.9 C 37 %
1809 26-12-2019 13:22:17 5.8 C 36 %
1810 26-12-2019 13:32:18 5.8 C 36 %
1811 26-12-2019 13:42:18 5.7 C 36 %
1812 26-12-2019 13:52:17 5.7 C 36 %
1813 26-12-2019 14:02:18 5.7 C 36 %
1814 26-12-2019 14:12:18 5.8 C 35 %
1815 26-12-2019 14:22:17 6 C 35 %
1816 26-12-2019 14:32:17 6 C 35 %
1817 26-12-2019 14:42:17 5.7 C 35 %
1818 26-12-2019 14:52:17 5.6 C 36 %
1819 26-12-2019 15:02:17 5.5 C 36 %
1820 26-12-2019 15:12:17 5.4 C 36 %
1821 26-12-2019 15:22:17 5.1 C 38 %
1822 26-12-2019 15:32:17 5 C 37 %
1823 26-12-2019 15:42:17 4.8 C 39 %
1824 26-12-2019 15:52:18 4.8 C 39 %
1825 26-12-2019 16:02:17 4.7 C 38 %
Sensor: Nr:Datum:Temp:Feuchte:
Aussen-T/F 1826 26-12-2019 16:12:17 4.6 C 39 %
1827 26-12-2019 16:22:17 4.5 C 40 %
1828 26-12-2019 16:32:17 4.4 C 41 %
1829 26-12-2019 16:42:18 4.4 C 40 %
1830 26-12-2019 16:53:17 4.3 C 41 %
1831 26-12-2019 17:02:17 4.4 C 40 %
1832 26-12-2019 17:12:17 4.3 C 40 %
1833 26-12-2019 17:22:17 4.3 C 40 %
1834 26-12-2019 17:32:17 4.4 C 40 %
1835 26-12-2019 17:42:17 4.1 C 40 %
1836 26-12-2019 17:52:17 4.1 C 40 %
1837 26-12-2019 18:02:17 4 C 40 %
1838 26-12-2019 18:12:17 4 C 41 %
1839 26-12-2019 18:22:17 4.1 C 41 %
1840 26-12-2019 18:32:17 4.1 C 41 %
1841 26-12-2019 18:42:18 4.1 C 40 %
1842 26-12-2019 18:53:17 4.1 C 40 %
1843 26-12-2019 19:02:17 4 C 40 %
1844 26-12-2019 19:12:17 4 C 41 %
1845 26-12-2019 19:23:17 4 C 41 %
1846 26-12-2019 19:32:17 3.8 C 41 %
1847 26-12-2019 19:42:17 4 C 41 %
1848 26-12-2019 19:53:17 3.8 C 41 %
1849 26-12-2019 20:02:17 3.8 C 42 %
1850 26-12-2019 20:12:17 3.9 C 42 %
Sensor: Nr:Datum:Temp:Feuchte:
Aussen-T/F 1851 26-12-2019 20:23:17 4 C 41 %
1852 26-12-2019 20:32:17 4.1 C 40 %
1853 26-12-2019 20:42:17 4.2 C 39 %
1854 26-12-2019 20:53:17 4.1 C 38 %
1855 26-12-2019 21:02:17 4.3 C 37 %
1856 26-12-2019 21:12:17 4.2 C 38 %
1857 26-12-2019 21:23:17 4.1 C 38 %
1858 26-12-2019 21:32:18 4.1 C 38 %
1859 26-12-2019 21:42:18 4.2 C 37 %
1860 26-12-2019 21:52:17 4.3 C 37 %
1861 26-12-2019 22:02:18 4.1 C 39 %
1862 26-12-2019 22:12:18 4.1 C 41 %
1863 26-12-2019 22:22:17 4.1 C 41 %
1864 26-12-2019 22:33:17 4.1 C 41 %
1865 26-12-2019 22:43:17 4.1 C 42 %
1866 26-12-2019 22:52:17 4.1 C 42 %
1867 26-12-2019 23:03:17 4.1 C 43 %
1868 26-12-2019 23:13:17 4.1 C 43 %
1869 26-12-2019 23:23:17 4 C 43 %
1870 26-12-2019 23:32:17 4 C 43 %
1871 26-12-2019 23:42:17 4 C 42 %
1872 26-12-2019 23:53:17 4 C 42 %
1873 27-12-2019 00:02:17 4 C 42 %
1874 27-12-2019 00:12:17 4 C 42 %
1875 27-12-2019 00:23:17 4 C 42 %
Sensor: Nr:Datum:Temp:Feuchte:
Aussen-T/F 1876 27-12-2019 00:32:17 4 C 42 %
1877 27-12-2019 00:42:18 4.1 C 42 %
1878 27-12-2019 00:53:17 4.1 C 42 %
1879 27-12-2019 01:03:18 4.1 C 42 %
1880 27-12-2019 01:13:18 4.1 C 42 %
1881 27-12-2019 01:23:17 4.1 C 42 %
1882 27-12-2019 01:33:17 4.1 C 42 %
1883 27-12-2019 01:43:17 4.1 C 42 %
1884 27-12-2019 01:53:18 4.1 C 42 %
1885 27-12-2019 02:03:17 4.1 C 42 %
1886 27-12-2019 02:13:17 4.1 C 42 %
1887 27-12-2019 02:23:17 4.1 C 42 %
1888 27-12-2019 02:33:18 4.1 C 42 %
1889 27-12-2019 02:43:19 4.1 C 42 %
1890 27-12-2019 02:53:17 4.2 C 42 %
1891 27-12-2019 03:03:17 4.3 C 42 %
1892 27-12-2019 03:13:17 4.2 C 42 %
1893 27-12-2019 03:23:17 4.3 C 42 %
1894 27-12-2019 03:33:17 4.3 C 42 %
1895 27-12-2019 03:43:18 4.3 C 42 %
1896 27-12-2019 03:53:17 4.3 C 42 %
1897 27-12-2019 04:03:17 4.3 C 42 %
1898 27-12-2019 04:13:17 4.3 C 42 %
1899 27-12-2019 04:23:17 4.3 C 42 %
1900 27-12-2019 04:33:17 4.3 C 42 %
Sensor: Nr:Datum:Temp:Feuchte:
Aussen-T/F 1901 27-12-2019 04:43:17 4.3 C 42 %
1902 27-12-2019 04:53:18 4.4 C 42 %
1903 27-12-2019 05:03:17 4.4 C 42 %
1904 27-12-2019 05:13:17 4.4 C 42 %
1905 27-12-2019 05:23:17 4.4 C 42 %
1906 27-12-2019 05:33:17 4.3 C 42 %
1907 27-12-2019 05:43:17 4.4 C 42 %
1908 27-12-2019 05:53:17 4.4 C 42 %
1909 27-12-2019 06:03:17 4.4 C 42 %
1910 27-12-2019 06:13:17 4.4 C 42 %
1911 27-12-2019 06:23:17 4.4 C 42 %
1912 27-12-2019 06:33:17 4.4 C 42 %
1913 27-12-2019 06:43:17 4.4 C 42 %
1914 27-12-2019 06:53:17 4.4 C 42 %
1915 27-12-2019 07:03:17 4.5 C 42 %
1916 27-12-2019 07:13:17 4.4 C 42 %
1917 27-12-2019 07:23:18 4.4 C 42 %
1918 27-12-2019 07:33:17 4.4 C 42 %
1919 27-12-2019 07:43:17 4.4 C 42 %
1920 27-12-2019 07:53:17 4.3 C 42 %
1921 27-12-2019 08:03:17 4.3 C 42 %
1922 27-12-2019 08:13:17 4.3 C 42 %
1923 27-12-2019 08:23:17 4.3 C 42 %
1924 27-12-2019 08:33:17 4.3 C 42 %
1925 27-12-2019 08:43:17 4.3 C 42 %
Sensor: Nr:Datum:Temp:Feuchte:
Aussen-T/F 1926 27-12-2019 08:53:18 4.3 C 42 %
1927 27-12-2019 09:03:17 4.4 C 42 %
1928 27-12-2019 09:13:17 4.4 C 42 %
1929 27-12-2019 09:23:17 4.3 C 42 %
1930 27-12-2019 09:33:17 4.5 C 42 %
1931 27-12-2019 09:43:17 4.6 C 42 %
1932 27-12-2019 09:53:17 4.8 C 41 %
1933 27-12-2019 10:03:17 4.9 C 41 %
1934 27-12-2019 10:13:17 4.8 C 40 %
1935 27-12-2019 10:23:17 4.8 C 40 %
1936 27-12-2019 10:33:18 4.9 C 40 %
1937 27-12-2019 10:43:18 4.9 C 40 %
1938 27-12-2019 10:53:17 5 C 38 %
1939 27-12-2019 11:03:18 5 C 38 %
1940 27-12-2019 11:13:18 5.1 C 37 %
1941 27-12-2019 11:23:17 5.1 C 37 %
1942 27-12-2019 11:33:17 5.2 C 36 %
1943 27-12-2019 11:43:17 5.7 C 33 %
1944 27-12-2019 11:53:17 6 C 31 %
1945 27-12-2019 12:03:17 6.1 C 31 %
1946 27-12-2019 12:13:17 5.9 C 31 %
1947 27-12-2019 12:23:17 5.9 C 31 %
1948 27-12-2019 12:33:17 6 C 31 %
1949 27-12-2019 12:43:17 6 C 31 %
1950 27-12-2019 12:53:17 5.9 C 31 %
Sensor: Nr:Datum:Temp:Feuchte:
Aussen-T/F 1951 27-12-2019 13:03:17 5.7 C 31 %
1952 27-12-2019 13:13:17 5.7 C 31 %
1953 27-12-2019 13:23:17 5.6 C 31 %
1954 27-12-2019 13:33:17 5.7 C 31 %
1955 27-12-2019 13:43:17 5.7 C 30 %
1956 27-12-2019 13:53:17 5.8 C 30 %
1957 27-12-2019 14:03:18 5.9 C 30 %
1958 27-12-2019 14:13:18 6.1 C 29 %
1959 27-12-2019 14:23:18 5.9 C 29 %
1960 27-12-2019 14:33:17 6 C 30 %
1961 27-12-2019 14:43:17 5.9 C 28 %
1962 27-12-2019 14:53:18 5.8 C 26 %
1963 27-12-2019 15:03:17 5.7 C 27 %
1964 27-12-2019 15:13:17 5.7 C 28 %
1965 27-12-2019 15:23:18 5.6 C 29 %
1966 27-12-2019 15:33:17 5.6 C 29 %
1967 27-12-2019 15:43:17 5.4 C 30 %
1968 27-12-2019 15:53:17 5.3 C 31 %
1969 27-12-2019 16:03:17 5.1 C 33 %
1970 27-12-2019 16:13:17 4.9 C 33 %
1971 27-12-2019 16:23:17 4.9 C 33 %
1972 27-12-2019 16:33:17 4.8 C 34 %
1973 27-12-2019 16:43:17 4.7 C 33 %
1974 27-12-2019 16:53:17 4.6 C 34 %
1975 27-12-2019 17:03:17 4.5 C 34 %
Sensor: Nr:Datum:Temp:Feuchte:
Aussen-T/F 1976 27-12-2019 17:13:17 4.5 C 35 %
1977 27-12-2019 17:23:17 4.5 C 33 %
1978 27-12-2019 17:33:18 4.5 C 34 %
1979 27-12-2019 17:43:18 4.5 C 34 %
1980 27-12-2019 17:53:17 4.4 C 34 %
1981 27-12-2019 18:03:18 4.4 C 33 %
1982 27-12-2019 18:13:18 4.4 C 33 %
1983 27-12-2019 18:23:17 4.4 C 32 %
1984 27-12-2019 18:33:18 4.4 C 34 %
1985 27-12-2019 18:43:18 4.3 C 34 %
1986 27-12-2019 18:53:17 4.2 C 33 %
1987 27-12-2019 19:03:17 4.2 C 33 %
1988 27-12-2019 19:13:17 4.2 C 33 %
1989 27-12-2019 19:23:17 4.3 C 32 %
1990 27-12-2019 19:33:17 4.2 C 33 %
1991 27-12-2019 19:43:17 4.1 C 34 %
1992 27-12-2019 19:53:18 3.9 C 35 %
1993 27-12-2019 20:03:17 3.8 C 34 %
1994 27-12-2019 20:13:17 4 C 32 %
1995 27-12-2019 20:23:17 4 C 32 %
1996 27-12-2019 20:33:18 4 C 32 %
1997 27-12-2019 20:43:18 4 C 31 %
1998 27-12-2019 20:53:17 4.1 C 31 %
1999 27-12-2019 21:03:18 4.1 C 31 %
2000 27-12-2019 21:13:18 4 C 31 %
Sensor: Nr:Datum:Temp:Feuchte:
Aussen-T/F 2001 27-12-2019 21:23:17 4 C 31 %
2002 27-12-2019 21:33:18 3.9 C 33 %
2003 27-12-2019 21:43:18 3.9 C 32 %
2004 27-12-2019 21:53:17 3.7 C 32 %
2005 27-12-2019 22:03:17 3.6 C 32 %
2006 27-12-2019 22:13:17 3.3 C 32 %
2007 27-12-2019 22:23:17 3.2 C 32 %
2008 27-12-2019 22:33:17 2.7 C 33 %
2009 27-12-2019 22:43:17 2.2 C 34 %
2010 27-12-2019 22:53:17 2 C 35 %
2011 27-12-2019 23:03:18 1.7 C 38 %
2012 27-12-2019 23:13:18 1.3 C 39 %
2013 27-12-2019 23:23:17 1.2 C 41 %
2014 27-12-2019 23:33:17 0.9 C 42 %
2015 27-12-2019 23:43:17 0.8 C 41 %
2016 27-12-2019 23:53:17 0.7 C 41 %
2017 28-12-2019 00:03:17 0.5 C 40 %
2018 28-12-2019 00:13:17 0.4 C 41 %
2019 28-12-2019 00:23:18 0.4 C 41 %
2020 28-12-2019 00:33:17 0.3 C 41 %
2021 28-12-2019 00:43:17 0.3 C 41 %
2022 28-12-2019 00:53:17 0.2 C 40 %
2023 28-12-2019 01:03:17 0.1 C 40 %
2024 28-12-2019 01:13:17 -0.2 C 43 %
2025 28-12-2019 01:23:17 -0.5 C 43 %
Sensor: Nr:Datum:Temp:Feuchte:
Aussen-T/F 2026 28-12-2019 01:33:17 -0.3 C 44 %
2027 28-12-2019 01:43:17 -0.7 C 42 %
2028 28-12-2019 01:53:17 -1.1 C 43 %
2029 28-12-2019 02:03:17 -1.3 C 45 %
2030 28-12-2019 02:13:17 -1.5 C 44 %
2031 28-12-2019 02:23:17 -1.7 C 44 %
2032 28-12-2019 02:33:18 -1.5 C 45 %
2033 28-12-2019 02:43:18 -1.5 C 45 %
2034 28-12-2019 02:53:17 -1.6 C 45 %
2035 28-12-2019 03:03:17 -1.9 C 45 %
2036 28-12-2019 03:13:18 -1.7 C 45 %
2037 28-12-2019 03:23:17 -2.1 C 45 %
2038 28-12-2019 03:33:17 -2.1 C 45 %
2039 28-12-2019 03:43:17 -2.1 C 45 %
2040 28-12-2019 03:53:18 -2.4 C 45 %
2041 28-12-2019 04:03:17 -2.4 C 45 %
2042 28-12-2019 04:13:17 -2.4 C 45 %
2043 28-12-2019 04:23:17 -2.3 C 45 %
2044 28-12-2019 04:33:17 -2.4 C 45 %
2045 28-12-2019 04:43:18 -2.3 C 45 %
2046 28-12-2019 04:53:17 -2.4 C 45 %
2047 28-12-2019 05:03:18 -2.6 C 44 %
2048 28-12-2019 05:13:18 -2.7 C 44 %
2049 28-12-2019 05:23:17 -2.5 C 45 %
2050 28-12-2019 05:33:18 -2.5 C 45 %
Sensor: Nr:Datum:Temp:Feuchte:
Aussen-T/F 2051 28-12-2019 05:43:18 -2.1 C 45 %
2052 28-12-2019 05:53:17 -2.3 C 45 %
2053 28-12-2019 06:03:17 -1.8 C 45 %
2054 28-12-2019 06:13:18 -2.1 C 44 %
2055 28-12-2019 06:23:17 -2.2 C 43 %
2056 28-12-2019 06:33:17 -2 C 44 %
2057 28-12-2019 06:43:18 -1.9 C 44 %
2058 28-12-2019 06:53:17 -2.1 C 43 %
2059 28-12-2019 07:03:18 -2 C 43 %
2060 28-12-2019 07:13:18 -2.3 C 43 %
2061 28-12-2019 07:23:17 -2.8 C 42 %
2062 28-12-2019 07:33:17 -2.3 C 43 %
2063 28-12-2019 07:43:17 -2.4 C 43 %
2064 28-12-2019 07:53:17 -2.2 C 44 %
2065 28-12-2019 08:03:17 -2.6 C 43 %
2066 28-12-2019 08:13:17 -3 C 42 %
2067 28-12-2019 08:23:18 -3.1 C 42 %
2068 28-12-2019 08:33:17 -3.2 C 42 %
2069 28-12-2019 08:43:17 -3.2 C 42 %
2070 28-12-2019 08:53:17 -2.9 C 43 %
2071 28-12-2019 09:03:18 -2.9 C 43 %
2072 28-12-2019 09:13:18 -2.8 C 43 %
2073 28-12-2019 09:23:17 -2.7 C 43 %
2074 28-12-2019 09:33:17 -2.5 C 43 %
2075 28-12-2019 09:43:17 -1.9 C 45 %
Sensor: Nr:Datum:Temp:Feuchte:
Aussen-T/F 2076 28-12-2019 09:53:17 -1.7 C 45 %
2077 28-12-2019 10:03:17 -1.6 C 45 %
2078 28-12-2019 10:13:17 -1.4 C 45 %
2079 28-12-2019 10:23:17 -1.5 C 45 %
2080 28-12-2019 10:33:18 -1.3 C 45 %
2081 28-12-2019 10:43:18 -1.3 C 45 %
2082 28-12-2019 10:53:17 -1.1 C 45 %
2083 28-12-2019 11:03:18 -1 C 44 %
2084 28-12-2019 11:13:18 -0.9 C 44 %
2085 28-12-2019 11:23:17 -0.6 C 44 %
2086 28-12-2019 11:33:17 -0.5 C 43 %
2087 28-12-2019 11:43:18 -0.3 C 42 %
2088 28-12-2019 11:53:17 -0.2 C 42 %
2089 28-12-2019 12:03:17 -0.2 C 41 %
2090 28-12-2019 12:13:17 0 C 41 %
2091 28-12-2019 12:23:17 0.2 C 41 %
2092 28-12-2019 12:33:17 0.3 C 41 %
2093 28-12-2019 12:43:18 0.4 C 40 %
2094 28-12-2019 12:53:17 0.5 C 40 %
2095 28-12-2019 13:03:18 0.7 C 40 %
2096 28-12-2019 13:13:18 0.8 C 40 %
2097 28-12-2019 13:23:17 0.8 C 40 %
2098 28-12-2019 13:33:17 0.9 C 40 %
2099 28-12-2019 13:43:17 0.8 C 40 %
2100 28-12-2019 13:53:17 0.6 C 40 %
Sensor: Nr:Datum:Temp:Feuchte:
Aussen-T/F 2101 28-12-2019 14:03:17 0.6 C 41 %
2102 28-12-2019 14:13:17 0.7 C 41 %
2103 28-12-2019 14:23:17 0.8 C 40 %
2104 28-12-2019 14:33:17 0.7 C 40 %
2105 28-12-2019 14:43:17 0.6 C 40 %
2106 28-12-2019 14:53:17 0.5 C 40 %
2107 28-12-2019 15:03:17 0.5 C 40 %
2108 28-12-2019 15:13:18 0.5 C 40 %
2109 28-12-2019 15:23:17 0.2 C 40 %
2110 28-12-2019 15:33:17 0.4 C 40 %
2111 28-12-2019 15:43:17 0.3 C 39 %
2112 28-12-2019 15:53:18 0.4 C 39 %
2113 28-12-2019 16:03:17 0.3 C 38 %
2114 28-12-2019 16:13:17 0.2 C 38 %
2115 28-12-2019 16:23:17 0 C 39 %
2116 28-12-2019 16:33:17 0 C 39 %
2117 28-12-2019 16:43:17 -0.1 C 38 %
2118 28-12-2019 16:53:17 -0.3 C 39 %
2119 28-12-2019 17:03:17 -0.4 C 39 %
2120 28-12-2019 17:13:17 -0.4 C 40 %
2121 28-12-2019 17:23:17 -0.5 C 40 %
2122 28-12-2019 17:33:18 -0.6 C 40 %
2123 28-12-2019 17:43:18 -0.7 C 41 %
2124 28-12-2019 17:53:17 -1.3 C 41 %
2125 28-12-2019 18:03:17 -1.2 C 44 %
Sensor: Nr:Datum:Temp:Feuchte:
Aussen-T/F 2126 28-12-2019 18:13:17 -1.1 C 43 %
2127 28-12-2019 18:23:17 -1.1 C 43 %
2128 28-12-2019 18:33:17 -0.9 C 43 %
2129 28-12-2019 18:43:17 -1.2 C 43 %
2130 28-12-2019 18:53:17 -0.9 C 43 %
2131 28-12-2019 19:03:17 -1.2 C 42 %
2132 28-12-2019 19:13:18 -1.7 C 42 %
2133 28-12-2019 19:23:17 -1.9 C 43 %
2134 28-12-2019 19:33:18 -1.9 C 44 %
2135 28-12-2019 19:43:18 -1.9 C 44 %
2136 28-12-2019 19:53:17 -1.8 C 44 %
2137 28-12-2019 20:03:17 -1.9 C 44 %
2138 28-12-2019 20:13:17 -1.7 C 45 %
2139 28-12-2019 20:23:17 -1.2 C 45 %
2140 28-12-2019 20:33:18 -1.2 C 43 %
2141 28-12-2019 20:43:18 -1.4 C 43 %
2142 28-12-2019 20:53:18 -1.2 C 44 %
2143 28-12-2019 21:03:17 -1.6 C 43 %
2144 28-12-2019 21:13:17 -1.3 C 44 %
2145 28-12-2019 21:23:17 -1.4 C 41 %
2146 28-12-2019 21:33:17 -1.8 C 41 %
2147 28-12-2019 21:43:18 -1.6 C 43 %
2148 28-12-2019 21:53:17 -1.7 C 42 %
2149 28-12-2019 22:03:18 -1.7 C 42 %
2150 28-12-2019 22:13:18 -2.2 C 41 %
Sensor: Nr:Datum:Temp:Feuchte:
Aussen-T/F 2151 28-12-2019 22:23:17 -2.3 C 42 %
2152 28-12-2019 22:33:17 -2.3 C 42 %
2153 28-12-2019 22:43:17 -2.5 C 42 %
2154 28-12-2019 22:53:17 -2.2 C 43 %
2155 28-12-2019 23:03:17 -2.5 C 42 %
2156 28-12-2019 23:13:17 -2.3 C 43 %
2157 28-12-2019 23:23:17 -2.3 C 43 %
2158 28-12-2019 23:33:17 -2.7 C 42 %
2159 28-12-2019 23:43:17 -2.6 C 43 %
2160 28-12-2019 23:53:17 -2.9 C 42 %
2161 29-12-2019 00:03:18 -2.6 C 43 %
2162 29-12-2019 00:13:18 -2.9 C 43 %
2163 29-12-2019 00:23:17 -3.1 C 42 %
2164 29-12-2019 00:33:17 -3.2 C 43 %
2165 29-12-2019 00:43:17 -3.1 C 43 %
2166 29-12-2019 00:53:17 -3.1 C 43 %
2167 29-12-2019 01:03:17 -3.3 C 42 %
2168 29-12-2019 01:13:17 -3.3 C 43 %
2169 29-12-2019 01:23:17 -3.5 C 42 %
2170 29-12-2019 01:33:17 -3.7 C 42 %
2171 29-12-2019 01:43:17 -3 C 44 %
2172 29-12-2019 01:53:17 -3.5 C 42 %
2173 29-12-2019 02:03:17 -3.7 C 41 %
2174 29-12-2019 02:13:17 -3.8 C 42 %
2175 29-12-2019 02:23:17 -3.3 C 43 %
Sensor: Nr:Datum:Temp:Feuchte:
Aussen-T/F 2176 29-12-2019 02:33:17 -3.7 C 41 %
2177 29-12-2019 02:43:17 -3.7 C 42 %
2178 29-12-2019 02:53:18 -3.8 C 41 %
2179 29-12-2019 03:03:17 -4 C 41 %
2180 29-12-2019 03:13:17 -4 C 42 %
2181 29-12-2019 03:23:17 -4 C 41 %
2182 29-12-2019 03:33:17 -4.1 C 41 %
2183 29-12-2019 03:43:17 -4.1 C 41 %
2184 29-12-2019 03:53:18 -4 C 42 %
2185 29-12-2019 04:03:17 -4.2 C 41 %
2186 29-12-2019 04:13:17 -3.9 C 42 %
2187 29-12-2019 04:23:17 -4.1 C 41 %
2188 29-12-2019 04:33:17 -4.1 C 41 %
2189 29-12-2019 04:43:17 -4.4 C 41 %
2190 29-12-2019 04:53:17 -4.2 C 41 %
2191 29-12-2019 05:03:17 -4.3 C 41 %
2192 29-12-2019 05:13:17 -4.5 C 41 %
2193 29-12-2019 05:23:17 -4.5 C 41 %
2194 29-12-2019 05:33:18 -4.4 C 41 %
2195 29-12-2019 05:43:18 -4.5 C 41 %
2196 29-12-2019 05:53:17 -4.7 C 41 %
2197 29-12-2019 06:03:17 -4.6 C 41 %
2198 29-12-2019 06:13:17 -4.7 C 41 %
2199 29-12-2019 06:23:17 -4.8 C 41 %
2200 29-12-2019 06:33:17 -4.8 C 41 %
Sensor: Nr:Datum:Temp:Feuchte:
Aussen-T/F 2201 29-12-2019 06:43:17 -4.8 C 41 %
2202 29-12-2019 06:53:17 -4.8 C 41 %
2203 29-12-2019 07:03:17 -4.9 C 41 %
2204 29-12-2019 07:13:17 -4.9 C 41 %
2205 29-12-2019 07:23:17 -5 C 41 %
2206 29-12-2019 07:33:17 -4.5 C 42 %
2207 29-12-2019 07:43:17 -4.7 C 41 %
2208 29-12-2019 07:53:17 -4.7 C 41 %
2209 29-12-2019 08:03:17 -4.4 C 42 %
2210 29-12-2019 08:13:17 -4.3 C 42 %
2211 29-12-2019 08:23:18 -3.9 C 43 %
2212 29-12-2019 08:33:17 -4.1 C 41 %
2213 29-12-2019 08:43:17 -4.3 C 41 %
2214 29-12-2019 08:53:17 -4.5 C 40 %
2215 29-12-2019 09:03:17 -4.1 C 42 %
2216 29-12-2019 09:13:17 -3.9 C 42 %
2217 29-12-2019 09:23:18 -4 C 41 %
2218 29-12-2019 09:33:17 -4.1 C 41 %
2219 29-12-2019 09:43:17 -4 C 41 %
2220 29-12-2019 09:53:17 -4 C 41 %
2221 29-12-2019 10:03:18 -4 C 40 %
2222 29-12-2019 10:13:18 -3.9 C 41 %
2223 29-12-2019 10:23:17 -3.5 C 42 %
2224 29-12-2019 10:33:17 -3.3 C 42 %
2225 29-12-2019 10:43:17 -3.1 C 42 %
Sensor: Nr:Datum:Temp:Feuchte:
Aussen-T/F 2226 29-12-2019 10:53:17 -2.6 C 43 %
2227 29-12-2019 11:03:17 -2.1 C 43 %
2228 29-12-2019 11:13:17 -1.8 C 42 %
2229 29-12-2019 11:23:17 -1.4 C 43 %
2230 29-12-2019 11:33:17 -1.3 C 42 %
2231 29-12-2019 11:43:18 -0.8 C 43 %
2232 29-12-2019 11:53:17 -0.4 C 42 %
2233 29-12-2019 12:03:18 -0.5 C 41 %
2234 29-12-2019 12:13:18 -0.3 C 41 %
2235 29-12-2019 12:23:17 0.1 C 40 %
2236 29-12-2019 12:33:17 0.3 C 40 %
2237 29-12-2019 12:43:17 0.5 C 40 %
2238 29-12-2019 12:53:17 0.4 C 40 %
2239 29-12-2019 13:03:17 0.7 C 38 %
2240 29-12-2019 13:13:17 1 C 37 %
2241 29-12-2019 13:23:17 1 C 37 %
2242 29-12-2019 13:33:18 1.4 C 36 %
2243 29-12-2019 13:43:18 1.4 C 38 %
2244 29-12-2019 13:53:17 1.5 C 37 %
2245 29-12-2019 14:03:17 1.5 C 36 %
2246 29-12-2019 14:13:17 1.4 C 37 %
2247 29-12-2019 14:23:17 1.7 C 36 %
2248 29-12-2019 14:33:18 1.9 C 36 %
2249 29-12-2019 14:43:18 2.2 C 34 %
2250 29-12-2019 14:53:17 2.1 C 33 %
Sensor: Nr:Datum:Temp:Feuchte:
Aussen-T/F 2251 29-12-2019 15:03:17 1.9 C 34 %
2252 29-12-2019 15:13:18 2 C 31 %
2253 29-12-2019 15:23:17 2 C 27 %
2254 29-12-2019 15:33:17 1.9 C 30 %
2255 29-12-2019 15:43:17 1.5 C 32 %
2256 29-12-2019 15:53:18 1.1 C 32 %
2257 29-12-2019 16:03:17 0.5 C 35 %
2258 29-12-2019 16:13:17 0.2 C 38 %
2259 29-12-2019 16:23:17 0.2 C 39 %
2260 29-12-2019 16:33:18 -0.3 C 39 %
2261 29-12-2019 16:43:18 -0.1 C 40 %
2262 29-12-2019 16:53:17 -0.2 C 40 %
2263 29-12-2019 17:03:17 -0.2 C 40 %
2264 29-12-2019 17:13:17 -0.3 C 39 %
2265 29-12-2019 17:23:17 -0.3 C 37 %
2266 29-12-2019 17:33:17 -0.3 C 37 %
2267 29-12-2019 17:43:17 -0.1 C 36 %
2268 29-12-2019 17:53:17 -0.2 C 38 %
2269 29-12-2019 18:03:17 -0.1 C 37 %
2270 29-12-2019 18:13:17 0.1 C 37 %
2271 29-12-2019 18:23:17 0.2 C 36 %
2272 29-12-2019 18:33:17 -0.2 C 38 %
2273 29-12-2019 18:43:17 -0.5 C 40 %
2274 29-12-2019 18:53:17 -0.8 C 40 %
2275 29-12-2019 19:03:17 -0.5 C 41 %
Sensor: Nr:Datum:Temp:Feuchte:
Aussen-T/F 2276 29-12-2019 19:13:17 -0.7 C 38 %
2277 29-12-2019 19:23:18 -0.6 C 37 %
2278 29-12-2019 19:33:18 -0.6 C 35 %
2279 29-12-2019 19:43:18 -1 C 35 %
2280 29-12-2019 19:53:17 -1.1 C 36 %
2281 29-12-2019 20:03:18 -0.9 C 34 %
2282 29-12-2019 20:13:18 -1.2 C 36 %
2283 29-12-2019 20:23:17 -0.7 C 35 %
2284 29-12-2019 20:33:17 -1.3 C 37 %
2285 29-12-2019 20:43:17 -0.9 C 39 %
2286 29-12-2019 20:53:17 -1.5 C 39 %
2287 29-12-2019 21:03:17 -1.2 C 38 %
2288 29-12-2019 21:13:17 -1.8 C 37 %
2289 29-12-2019 21:23:17 -1.8 C 40 %
2290 29-12-2019 21:33:18 -1.8 C 41 %
2291 29-12-2019 21:43:18 -2.1 C 42 %
2292 29-12-2019 21:53:17 -2.3 C 42 %
2293 29-12-2019 22:03:17 -2.2 C 43 %
2294 29-12-2019 22:13:17 -2.1 C 43 %
2295 29-12-2019 22:23:17 -2.4 C 42 %
2296 29-12-2019 22:33:17 -2.7 C 42 %
2297 29-12-2019 22:43:18 -2.7 C 43 %
2298 29-12-2019 22:53:17 -2.7 C 43 %
2299 29-12-2019 23:03:17 -2.8 C 43 %
2300 29-12-2019 23:13:17 -2.7 C 44 %
Sensor: Nr:Datum:Temp:Feuchte:
Aussen-T/F 2301 29-12-2019 23:23:17 -2.8 C 43 %
2302 29-12-2019 23:33:18 -3 C 43 %
2303 29-12-2019 23:43:18 -3 C 43 %
2304 29-12-2019 23:53:17 -3 C 42 %
2305 30-12-2019 00:03:17 -3 C 42 %
2306 30-12-2019 00:13:17 -3.1 C 41 %
2307 30-12-2019 00:23:17 -3.1 C 41 %
2308 30-12-2019 00:33:17 -3 C 42 %
2309 30-12-2019 00:43:17 -3.2 C 42 %
2310 30-12-2019 00:53:17 -3.2 C 42 %
2311 30-12-2019 01:03:17 -3.2 C 42 %
2312 30-12-2019 01:13:18 -3.1 C 44 %
2313 30-12-2019 01:23:17 -3.1 C 43 %
2314 30-12-2019 01:33:18 -3.2 C 42 %
2315 30-12-2019 01:43:18 -3.4 C 42 %
2316 30-12-2019 01:53:17 -3.5 C 42 %
2317 30-12-2019 02:03:17 -3.2 C 43 %
2318 30-12-2019 02:13:17 -3.4 C 43 %
2319 30-12-2019 02:23:17 -3.4 C 43 %
2320 30-12-2019 02:33:18 -3.4 C 43 %
2321 30-12-2019 02:43:18 -3.4 C 43 %
2322 30-12-2019 02:53:17 -3.4 C 43 %
2323 30-12-2019 03:03:17 -3.3 C 43 %
2324 30-12-2019 03:13:17 -3.4 C 43 %
2325 30-12-2019 03:23:17 -3.1 C 43 %
Sensor: Nr:Datum:Temp:Feuchte:
Aussen-T/F 2326 30-12-2019 03:33:18 -3.2 C 43 %
2327 30-12-2019 03:43:18 -3.3 C 43 %
2328 30-12-2019 03:53:17 -3.5 C 43 %
2329 30-12-2019 04:03:17 -3.7 C 42 %
2330 30-12-2019 04:13:17 -3.8 C 42 %
2331 30-12-2019 04:23:17 -3.8 C 42 %
2332 30-12-2019 04:33:17 -3.9 C 42 %
2333 30-12-2019 04:43:17 -3.9 C 42 %
2334 30-12-2019 04:53:17 -4 C 42 %
2335 30-12-2019 05:03:17 -3.9 C 42 %
2336 30-12-2019 05:13:17 -3.8 C 42 %
2337 30-12-2019 05:23:17 -3.9 C 42 %
2338 30-12-2019 05:33:17 -3.7 C 43 %
2339 30-12-2019 05:43:17 -3.8 C 43 %
2340 30-12-2019 05:53:18 -4 C 42 %
2341 30-12-2019 06:03:17 -4 C 42 %
2342 30-12-2019 06:13:17 -4 C 42 %
2343 30-12-2019 06:23:17 -3.9 C 42 %
2344 30-12-2019 06:33:17 -3.7 C 43 %
2345 30-12-2019 06:43:17 -3.9 C 42 %
2346 30-12-2019 06:53:17 -4 C 42 %
2347 30-12-2019 07:03:17 -4 C 42 %
2348 30-12-2019 07:13:17 -4.2 C 41 %
2349 30-12-2019 07:23:17 -4.4 C 42 %
2350 30-12-2019 07:33:18 -4.4 C 41 %
Sensor: Nr:Datum:Temp:Feuchte:
Aussen-T/F 2351 30-12-2019 07:43:18 -4.4 C 42 %
2352 30-12-2019 07:53:17 -4.2 C 42 %
2353 30-12-2019 08:03:17 -4.4 C 41 %
2354 30-12-2019 08:13:17 -4.3 C 42 %
2355 30-12-2019 08:23:17 -4.4 C 42 %
2356 30-12-2019 08:33:17 -4.5 C 41 %
2357 30-12-2019 08:43:17 -4 C 43 %
2358 30-12-2019 08:53:17 -4.2 C 41 %
2359 30-12-2019 09:03:18 -4.1 C 42 %
2360 30-12-2019 09:13:18 -3.9 C 42 %
2361 30-12-2019 09:23:17 -3.8 C 42 %
2362 30-12-2019 09:33:17 -3.6 C 43 %
2363 30-12-2019 09:43:17 -3.7 C 42 %
2364 30-12-2019 09:53:17 -3.7 C 42 %
2365 30-12-2019 10:03:17 -3.5 C 42 %
2366 30-12-2019 10:13:17 -3.3 C 43 %
2367 30-12-2019 10:23:17 -3.3 C 42 %
2368 30-12-2019 10:33:17 -3.3 C 42 %
2369 30-12-2019 10:43:17 -3 C 43 %
2370 30-12-2019 10:53:17 -2.9 C 42 %
2371 30-12-2019 11:03:17 -2.9 C 42 %
2372 30-12-2019 11:13:17 -2.8 C 42 %
2373 30-12-2019 11:23:17 -2.4 C 43 %
2374 30-12-2019 11:33:17 -2.1 C 42 %
2375 30-12-2019 11:43:17 -2 C 41 %
Sensor: Nr:Datum:Temp:Feuchte:
Aussen-T/F 2376 30-12-2019 11:53:18 -2.1 C 40 %
2377 30-12-2019 12:03:17 -1.7 C 41 %
2378 30-12-2019 12:13:17 -1.5 C 40 %
2379 30-12-2019 12:23:17 -1.6 C 40 %
2380 30-12-2019 12:33:17 -1.4 C 41 %
2381 30-12-2019 12:43:17 -0.7 C 39 %
2382 30-12-2019 12:53:17 -0.8 C 39 %
2383 30-12-2019 13:03:17 -0.8 C 38 %
2384 30-12-2019 13:13:17 -1 C 40 %
2385 30-12-2019 13:23:17 -1 C 41 %
2386 30-12-2019 13:33:17 -1 C 42 %
2387 30-12-2019 13:43:17 -0.6 C 42 %
2388 30-12-2019 13:53:17 -0.2 C 41 %
2389 30-12-2019 14:03:17 0.3 C 37 %
2390 30-12-2019 14:13:17 0.1 C 35 %
2391 30-12-2019 14:23:17 0.6 C 35 %
2392 30-12-2019 14:33:17 0.5 C 35 %
2393 30-12-2019 14:43:17 1 C 32 %
2394 30-12-2019 14:53:17 0.6 C 35 %
2395 30-12-2019 15:03:17 0.9 C 36 %
2396 30-12-2019 15:13:17 1.1 C 33 %
2397 30-12-2019 15:23:17 0.6 C 35 %
2398 30-12-2019 15:33:18 0.6 C 36 %
2399 30-12-2019 15:43:18 0.7 C 35 %
2400 30-12-2019 15:53:17 1.6 C 32 %
Sensor: Nr:Datum:Temp:Feuchte:
Aussen-T/F 2401 30-12-2019 16:03:18 1.7 C 32 %
2402 30-12-2019 16:13:18 1.9 C 31 %
2403 30-12-2019 16:23:18 1.6 C 33 %
2404 30-12-2019 16:33:17 1.1 C 35 %
2405 30-12-2019 16:43:17 0.8 C 37 %
2406 30-12-2019 16:53:17 0.6 C 40 %
2407 30-12-2019 17:03:17 0.7 C 40 %
2408 30-12-2019 17:13:17 0.7 C 40 %
2409 30-12-2019 17:23:18 0.6 C 40 %
2410 30-12-2019 17:33:17 0.5 C 40 %
2411 30-12-2019 17:43:17 0.5 C 40 %
2412 30-12-2019 17:53:17 0.5 C 37 %
2413 30-12-2019 18:03:17 0.3 C 36 %
2414 30-12-2019 18:13:17 -0.3 C 36 %
2415 30-12-2019 18:23:18 -0.7 C 37 %
2416 30-12-2019 18:33:18 -0.4 C 36 %
2417 30-12-2019 18:43:18 -0.2 C 36 %
2418 30-12-2019 18:53:17 -0.6 C 34 %
2419 30-12-2019 19:03:17 -1.3 C 36 %
2420 30-12-2019 19:13:17 -1 C 36 %
2421 30-12-2019 19:23:18 -1.4 C 36 %
2422 30-12-2019 19:33:17 -1.4 C 39 %
2423 30-12-2019 19:43:17 -0.4 C 33 %
2424 30-12-2019 19:53:18 0 C 32 %
2425 30-12-2019 20:03:17 -0.3 C 31 %
Sensor: Nr:Datum:Temp:Feuchte:
Aussen-T/F 2426 30-12-2019 20:13:17 -1.2 C 32 %
2427 30-12-2019 20:23:17 -1.6 C 35 %
2428 30-12-2019 20:33:17 -1.6 C 36 %
2429 30-12-2019 20:43:17 -1.7 C 36 %
2430 30-12-2019 20:53:17 -1.5 C 37 %
2431 30-12-2019 21:03:17 -1.9 C 37 %
2432 30-12-2019 21:13:17 -0.8 C 35 %
2433 30-12-2019 21:23:17 -1.1 C 35 %
2434 30-12-2019 21:33:17 -0.9 C 35 %
2435 30-12-2019 21:43:17 -0.8 C 36 %
2436 30-12-2019 21:53:17 -1.1 C 33 %
2437 30-12-2019 22:03:17 -1.5 C 35 %
2438 30-12-2019 22:13:17 -1.7 C 35 %
2439 30-12-2019 22:23:17 -1.7 C 35 %
2440 30-12-2019 22:33:17 -2.3 C 35 %
2441 30-12-2019 22:43:17 -1.8 C 35 %
2442 30-12-2019 22:53:17 -2 C 36 %
2443 30-12-2019 23:03:17 -2.3 C 36 %
2444 30-12-2019 23:13:17 -1.5 C 36 %
2445 30-12-2019 23:23:17 -0.9 C 32 %
2446 30-12-2019 23:33:17 -0.3 C 31 %
2447 30-12-2019 23:43:17 -0.9 C 31 %
2448 30-12-2019 23:53:17 -1 C 31 %
2449 31-12-2019 00:03:17 -1.2 C 32 %
2450 31-12-2019 00:13:18 -1.4 C 34 %
Sensor: Nr:Datum:Temp:Feuchte:
Aussen-T/F 2451 31-12-2019 00:23:17 -1.6 C 36 %
2452 31-12-2019 00:33:18 -1.2 C 35 %
2453 31-12-2019 00:43:18 -1.5 C 35 %
2454 31-12-2019 00:53:17 -1.5 C 36 %
2455 31-12-2019 01:03:17 -1.5 C 36 %
2456 31-12-2019 01:13:17 -0.8 C 34 %
2457 31-12-2019 01:23:18 -1.3 C 34 %
2458 31-12-2019 01:33:17 -1.6 C 37 %
2459 31-12-2019 01:43:17 -2 C 37 %
2460 31-12-2019 01:53:17 -2.3 C 38 %
2461 31-12-2019 02:03:17 -2.5 C 40 %
2462 31-12-2019 02:13:17 -2.7 C 40 %
2463 31-12-2019 02:23:18 -2.8 C 41 %
2464 31-12-2019 02:33:17 -3 C 41 %
2465 31-12-2019 02:43:17 -2.9 C 43 %
2466 31-12-2019 02:53:17 -2 C 45 %
2467 31-12-2019 03:03:17 -1.7 C 42 %
2468 31-12-2019 03:13:18 -2 C 40 %
2469 31-12-2019 03:23:17 -2.4 C 40 %
2470 31-12-2019 03:33:18 -2.5 C 41 %
2471 31-12-2019 03:43:18 -2.9 C 41 %
2472 31-12-2019 03:53:17 -2.8 C 42 %
2473 31-12-2019 04:03:17 -2.6 C 43 %
2474 31-12-2019 04:13:17 -3.1 C 42 %
2475 31-12-2019 04:23:17 -3.2 C 42 %
Sensor: Nr:Datum:Temp:Feuchte:
Aussen-T/F 2476 31-12-2019 04:33:17 -3.3 C 42 %
2477 31-12-2019 04:43:18 -3.3 C 42 %
2478 31-12-2019 04:53:17 -3.2 C 43 %
2479 31-12-2019 05:03:17 -3.3 C 42 %
2480 31-12-2019 05:13:17 -3.6 C 42 %
2481 31-12-2019 05:23:17 -3.4 C 43 %
2482 31-12-2019 05:33:17 -3.1 C 44 %
2483 31-12-2019 05:43:17 -3 C 44 %
2484 31-12-2019 05:53:17 -2.9 C 44 %
2485 31-12-2019 06:03:17 -3.1 C 43 %
2486 31-12-2019 06:13:17 -3.3 C 43 %
2487 31-12-2019 06:23:17 -3.2 C 43 %
2488 31-12-2019 06:33:17 -3.3 C 43 %
2489 31-12-2019 06:43:17 -3.4 C 43 %
2490 31-12-2019 06:53:18 -3.2 C 44 %
2491 31-12-2019 07:03:17 -3.2 C 44 %
2492 31-12-2019 07:13:17 -3 C 44 %
2493 31-12-2019 07:23:17 -3.1 C 44 %
2494 31-12-2019 07:33:17 -3 C 44 %
2495 31-12-2019 07:43:17 -2.6 C 45 %
2496 31-12-2019 07:53:18 -2.1 C 45 %
2497 31-12-2019 08:03:17 -2 C 45 %
2498 31-12-2019 08:13:17 -2 C 45 %
2499 31-12-2019 08:23:17 -1.3 C 45 %
2500 31-12-2019 08:33:17 -1 C 44 %
Sensor: Nr:Datum:Temp:Feuchte:
Aussen-T/F 2501 31-12-2019 08:43:17 -1 C 43 %
2502 31-12-2019 08:53:17 -1.1 C 42 %
2503 31-12-2019 09:03:17 -1 C 43 %
2504 31-12-2019 09:13:17 -0.9 C 44 %
2505 31-12-2019 09:23:17 -1.1 C 42 %
2506 31-12-2019 09:33:17 -1.1 C 42 %
2507 31-12-2019 09:43:17 -1.1 C 42 %
2508 31-12-2019 09:53:17 -0.9 C 43 %
2509 31-12-2019 10:03:17 -0.6 C 44 %
2510 31-12-2019 10:13:17 -0.2 C 43 %
2511 31-12-2019 10:23:17 0.1 C 41 %
2512 31-12-2019 10:33:17 0.3 C 40 %
2513 31-12-2019 10:43:17 0.3 C 38 %
2514 31-12-2019 10:53:18 0.5 C 40 %
2515 31-12-2019 11:03:17 0.8 C 41 %
2516 31-12-2019 11:13:17 0.7 C 41 %
2517 31-12-2019 11:23:17 1.2 C 40 %
2518 31-12-2019 11:33:17 1.1 C 38 %
2519 31-12-2019 11:43:17 1.5 C 40 %
2520 31-12-2019 11:53:17 1.5 C 40 %
2521 31-12-2019 12:03:18 1.8 C 31 %
2522 31-12-2019 12:13:18 2.4 C 35 %
2523 31-12-2019 12:23:17 2.6 C 33 %
2524 31-12-2019 12:33:18 2.4 C 32 %
2525 31-12-2019 12:43:18 2.8 C 30 %
Sensor: Nr:Datum:Temp:Feuchte:
Aussen-T/F 2526 31-12-2019 12:53:17 2.3 C 29 %
2527 31-12-2019 13:03:18 2.4 C 28 %
2528 31-12-2019 13:13:18 2.4 C 27 %
2529 31-12-2019 13:23:17 2.8 C 27 %
2530 31-12-2019 13:33:17 2.8 C 26 %
2531 31-12-2019 13:43:17 3.3 C 26 %
2532 31-12-2019 13:53:17 2.9 C 26 %
2533 31-12-2019 14:03:18 2.7 C 27 %
2534 31-12-2019 14:13:18 2.9 C 27 %
2535 31-12-2019 14:23:17 3.1 C 26 %
2536 31-12-2019 14:33:17 3.4 C 26 %
2537 31-12-2019 14:43:17 3.2 C 26 %
2538 31-12-2019 14:53:17 3 C 26 %
2539 31-12-2019 15:03:17 2.8 C 27 %
2540 31-12-2019 15:13:17 2.9 C 27 %
2541 31-12-2019 15:23:18 3 C 27 %
2542 31-12-2019 15:33:17 3 C 27 %
2543 31-12-2019 15:43:17 2.9 C 28 %
2544 31-12-2019 15:53:17 2.7 C 29 %
2545 31-12-2019 16:03:17 2.1 C 30 %
2546 31-12-2019 16:13:17 0.9 C 35 %
2547 31-12-2019 16:23:18 0.6 C 38 %
2548 31-12-2019 16:33:17 0.3 C 40 %
2549 31-12-2019 16:43:17 0.2 C 39 %
2550 31-12-2019 16:53:18 0.2 C 40 %
Sensor: Nr:Datum:Temp:Feuchte:
Aussen-T/F 2551 31-12-2019 17:03:17 -0.1 C 41 %
2552 31-12-2019 17:13:17 -0.4 C 41 %
2553 31-12-2019 17:23:17 -0.3 C 40 %
2554 31-12-2019 17:33:17 -0.3 C 41 %
2555 31-12-2019 17:43:17 -0.6 C 43 %
2556 31-12-2019 17:53:18 -0.7 C 43 %
2557 31-12-2019 18:03:17 -1.1 C 43 %
2558 31-12-2019 18:13:17 -1.2 C 45 %
2559 31-12-2019 18:23:17 -0.9 C 45 %
2560 31-12-2019 18:33:17 -0.8 C 45 %
2561 31-12-2019 18:43:17 -0.4 C 46 %
2562 31-12-2019 18:53:18 -0.4 C 46 %
2563 31-12-2019 19:03:17 -0.3 C 45 %
2564 31-12-2019 19:13:17 -0.1 C 46 %
2565 31-12-2019 19:23:18 0 C 45 %
2566 31-12-2019 19:33:17 0.1 C 45 %
2567 31-12-2019 19:43:17 0.2 C 45 %
2568 31-12-2019 19:53:17 0.4 C 45 %
2569 31-12-2019 20:03:18 0.5 C 45 %
2570 31-12-2019 20:13:18 0.5 C 45 %
2571 31-12-2019 20:23:17 0.4 C 45 %
2572 31-12-2019 20:33:17 0.4 C 45 %
2573 31-12-2019 20:43:17 0.3 C 43 %
2574 31-12-2019 20:53:17 0.2 C 43 %
2575 31-12-2019 21:03:17 0.2 C 43 %
Sensor: Nr:Datum:Temp:Feuchte:
Aussen-T/F 2576 31-12-2019 21:13:17 0.4 C 44 %
2577 31-12-2019 21:23:18 0.4 C 44 %
2578 31-12-2019 21:33:17 0.5 C 44 %
2579 31-12-2019 21:43:17 0.6 C 43 %
2580 31-12-2019 21:53:17 0.5 C 43 %
2581 31-12-2019 22:03:17 0.6 C 42 %
2582 31-12-2019 22:13:17 0.5 C 42 %
2583 31-12-2019 22:23:18 0.2 C 41 %
2584 31-12-2019 22:33:17 0 C 41 %
2585 31-12-2019 22:43:17 -0.2 C 42 %
2586 31-12-2019 22:53:17 -0.4 C 43 %
2587 31-12-2019 23:03:17 -0.3 C 44 %
2588 31-12-2019 23:13:17 -0.1 C 45 %
2589 31-12-2019 23:23:18 0 C 45 %
2590 31-12-2019 23:33:17 0 C 45 %
2591 31-12-2019 23:43:17 0.4 C 45 %
2592 31-12-2019 23:53:18 0.3 C 45 %
2593 01-01-2020 00:03:17 0.4 C 45 %
2594 01-01-2020 00:13:17 0.4 C 45 %
2595 01-01-2020 00:23:17 0.3 C 45 %
2596 01-01-2020 00:33:17 -0.9 C 41 %
2597 01-01-2020 00:43:17 -0.3 C 45 %
2598 01-01-2020 00:53:18 -0.5 C 44 %
2599 01-01-2020 01:03:17 -0.5 C 44 %
2600 01-01-2020 01:13:17 -0.6 C 44 %
Sensor: Nr:Datum:Temp:Feuchte:
Aussen-T/F 2601 01-01-2020 01:23:17 -0.6 C 45 %
2602 01-01-2020 01:33:17 -0.7 C 45 %
2603 01-01-2020 01:43:17 -1.1 C 44 %
2604 01-01-2020 01:53:18 -0.9 C 45 %
2605 01-01-2020 02:03:17 -0.9 C 45 %
2606 01-01-2020 02:13:17 -0.5 C 46 %
2607 01-01-2020 02:23:17 -0.2 C 45 %
2608 01-01-2020 02:33:18 -0.1 C 45 %
2609 01-01-2020 02:43:18 0 C 45 %
2610 01-01-2020 02:53:17 0.1 C 45 %
2611 01-01-2020 03:03:17 0.1 C 45 %
2612 01-01-2020 03:13:18 0.1 C 45 %
2613 01-01-2020 03:23:17 0.2 C 45 %
2614 01-01-2020 03:33:18 0.1 C 45 %
2615 01-01-2020 03:43:18 0.1 C 45 %
2616 01-01-2020 03:53:17 0.1 C 45 %
2617 01-01-2020 04:03:18 0.2 C 45 %
2618 01-01-2020 04:13:18 0.2 C 45 %
2619 01-01-2020 04:23:17 0.3 C 45 %
2620 01-01-2020 04:33:18 0.3 C 45 %
2621 01-01-2020 04:43:18 0.3 C 44 %
2622 01-01-2020 04:53:17 0.3 C 44 %
2623 01-01-2020 05:03:18 0.4 C 44 %
2624 01-01-2020 05:13:18 0.5 C 44 %
2625 01-01-2020 05:23:17 0.4 C 44 %
Sensor: Nr:Datum:Temp:Feuchte:
Aussen-T/F 2626 01-01-2020 05:33:18 0.4 C 44 %
2627 01-01-2020 05:43:18 0.4 C 44 %
2628 01-01-2020 05:53:17 0.4 C 43 %
2629 01-01-2020 06:03:17 0.4 C 43 %
2630 01-01-2020 06:13:17 0.5 C 43 %
2631 01-01-2020 06:23:17 0.4 C 42 %
2632 01-01-2020 06:33:17 0.6 C 42 %
2633 01-01-2020 06:43:17 0.6 C 42 %
2634 01-01-2020 06:53:17 0.6 C 42 %
2635 01-01-2020 07:03:18 0.6 C 41 %
2636 01-01-2020 07:13:18 0.6 C 41 %
2637 01-01-2020 07:23:17 0.6 C 41 %
2638 01-01-2020 07:33:17 0.6 C 41 %
2639 01-01-2020 07:43:17 0.6 C 41 %
2640 01-01-2020 07:53:17 0.6 C 41 %
2641 01-01-2020 08:03:17 0.6 C 41 %
2642 01-01-2020 08:13:17 0.6 C 41 %
2643 01-01-2020 08:23:18 0.7 C 40 %
2644 01-01-2020 08:33:17 0.7 C 40 %
2645 01-01-2020 08:43:17 0.7 C 40 %
2646 01-01-2020 08:53:17 0.8 C 40 %
2647 01-01-2020 09:03:17 0.8 C 40 %
2648 01-01-2020 09:13:17 1.1 C 38 %
2649 01-01-2020 09:23:17 1.3 C 38 %
2650 01-01-2020 09:33:17 1.4 C 37 %
Sensor: Nr:Datum:Temp:Feuchte:
Aussen-T/F 2651 01-01-2020 09:43:17 1.5 C 37 %
2652 01-01-2020 09:53:17 1.7 C 36 %
2653 01-01-2020 10:03:18 1.9 C 36 %
2654 01-01-2020 10:13:18 2 C 34 %
2655 01-01-2020 10:23:17 2.1 C 33 %
2656 01-01-2020 10:33:17 2.2 C 32 %
2657 01-01-2020 10:43:17 2.3 C 32 %
2658 01-01-2020 10:53:17 2.4 C 32 %
2659 01-01-2020 11:03:17 2.4 C 31 %
2660 01-01-2020 11:13:17 2.7 C 31 %
2661 01-01-2020 11:23:18 2.7 C 30 %
2662 01-01-2020 11:33:17 2.7 C 30 %
2663 01-01-2020 11:43:17 2.8 C 30 %
2664 01-01-2020 11:53:18 2.9 C 30 %
2665 01-01-2020 12:03:17 3.2 C 28 %
2666 01-01-2020 12:13:17 3 C 29 %
2667 01-01-2020 12:23:18 2.7 C 30 %
2668 01-01-2020 12:33:17 2.7 C 30 %
2669 01-01-2020 12:43:17 2.5 C 30 %
2670 01-01-2020 12:53:18 2.1 C 32 %
2671 01-01-2020 13:03:17 1.6 C 36 %
2672 01-01-2020 13:13:17 1.6 C 37 %
2673 01-01-2020 13:23:18 1.4 C 37 %
2674 01-01-2020 13:33:17 1.5 C 38 %
2675 01-01-2020 13:43:17 1.5 C 38 %
Sensor: Nr:Datum:Temp:Feuchte:
Aussen-T/F 2676 01-01-2020 13:53:17 1.6 C 39 %
2677 01-01-2020 14:03:17 1.6 C 39 %
2678 01-01-2020 14:13:17 1.6 C 39 %
2679 01-01-2020 14:23:17 1.6 C 40 %
2680 01-01-2020 14:33:17 1.4 C 40 %
2681 01-01-2020 14:43:17 1.3 C 41 %
2682 01-01-2020 14:53:17 1.2 C 41 %
2683 01-01-2020 15:03:17 1.3 C 41 %
2684 01-01-2020 15:13:17 1.2 C 41 %
2685 01-01-2020 15:23:17 1.6 C 41 %
2686 01-01-2020 15:33:17 1.7 C 38 %
2687 01-01-2020 15:43:17 1.1 C 38 %
2688 01-01-2020 15:53:17 0.7 C 40 %
2689 01-01-2020 16:03:17 0.5 C 43 %
2690 01-01-2020 16:13:17 -0.1 C 43 %
2691 01-01-2020 16:23:17 -0.3 C 44 %
2692 01-01-2020 16:33:18 -0.7 C 44 %
2693 01-01-2020 16:43:18 -0.7 C 45 %
2694 01-01-2020 16:53:17 -0.8 C 45 %
2695 01-01-2020 17:03:17 -1 C 45 %
2696 01-01-2020 17:13:17 -1.3 C 45 %
2697 01-01-2020 17:23:18 -1.5 C 45 %
2698 01-01-2020 17:33:17 -1.8 C 45 %
2699 01-01-2020 17:43:17 -1.9 C 45 %
2700 01-01-2020 17:53:18 -1.8 C 45 %
Sensor: Nr:Datum:Temp:Feuchte:
Aussen-T/F 2701 01-01-2020 18:03:17 -1.9 C 45 %
2702 01-01-2020 18:13:17 -1.9 C 45 %
2703 01-01-2020 18:23:17 -2.1 C 45 %
2704 01-01-2020 18:33:17 -2.1 C 45 %
2705 01-01-2020 18:43:18 -2.1 C 45 %
2706 01-01-2020 18:53:17 -2.2 C 45 %
2707 01-01-2020 19:03:17 -2.4 C 45 %
2708 01-01-2020 19:13:18 -2.5 C 45 %
2709 01-01-2020 19:23:17 -2.4 C 45 %
2710 01-01-2020 19:33:17 -2.3 C 45 %
2711 01-01-2020 19:43:17 -2.2 C 45 %
2712 01-01-2020 19:53:17 -2.4 C 45 %
2713 01-01-2020 20:03:17 -2.2 C 45 %
2714 01-01-2020 20:13:17 -2.1 C 45 %
2715 01-01-2020 20:23:18 -2.3 C 45 %
2716 01-01-2020 20:33:17 -2.1 C 45 %
2717 01-01-2020 20:43:17 -2.6 C 43 %
2718 01-01-2020 20:53:17 -2.8 C 43 %
2719 01-01-2020 21:03:17 -2.8 C 43 %
2720 01-01-2020 21:13:17 -3 C 43 %
2721 01-01-2020 21:23:18 -3.1 C 43 %
2722 01-01-2020 21:33:17 -3.1 C 43 %
2723 01-01-2020 21:43:17 -3.2 C 42 %
2724 01-01-2020 21:53:17 -2.8 C 43 %
2725 01-01-2020 22:03:17 -3.1 C 42 %
Sensor: Nr:Datum:Temp:Feuchte:
Aussen-T/F 2726 01-01-2020 22:13:17 -3.2 C 42 %
2727 01-01-2020 22:23:17 -3 C 43 %
2728 01-01-2020 22:33:17 -2.8 C 43 %
2729 01-01-2020 22:43:17 -2.8 C 43 %
2730 01-01-2020 22:53:17 -3.2 C 42 %
2731 01-01-2020 23:03:17 -3.2 C 42 %
2732 01-01-2020 23:13:17 -2.7 C 44 %
2733 01-01-2020 23:23:17 -2.3 C 45 %
2734 01-01-2020 23:33:17 -2.4 C 44 %
2735 01-01-2020 23:43:17 -2.2 C 45 %
2736 01-01-2020 23:53:17 -2.2 C 45 %
2737 02-01-2020 00:03:17 -2.3 C 44 %
2738 02-01-2020 00:13:17 -2.4 C 44 %
2739 02-01-2020 00:23:17 -2.6 C 43 %
2740 02-01-2020 00:33:17 -2.4 C 43 %
2741 02-01-2020 00:43:17 -2.4 C 44 %
2742 02-01-2020 00:53:17 -2.6 C 43 %
2743 02-01-2020 01:03:17 -2.3 C 44 %
2744 02-01-2020 01:13:17 -2.1 C 45 %
2745 02-01-2020 01:23:17 -1.9 C 45 %
2746 02-01-2020 01:33:17 -1.9 C 45 %
2747 02-01-2020 01:43:17 -1.8 C 45 %
2748 02-01-2020 01:53:17 -1.7 C 45 %
2749 02-01-2020 02:03:17 -1.6 C 45 %
2750 02-01-2020 02:13:17 -1.5 C 45 %
Sensor: Nr:Datum:Temp:Feuchte:
Aussen-T/F 2751 02-01-2020 02:23:17 -1.4 C 45 %
2752 02-01-2020 02:33:17 -1.3 C 45 %
2753 02-01-2020 02:43:17 -1.3 C 45 %
2754 02-01-2020 02:53:17 -1.3 C 45 %
2755 02-01-2020 03:03:17 -1.2 C 45 %
2756 02-01-2020 03:13:18 -1.1 C 45 %
2757 02-01-2020 03:23:17 -1.1 C 45 %
2758 02-01-2020 03:33:18 -1 C 45 %
2759 02-01-2020 03:43:18 -0.9 C 45 %
2760 02-01-2020 03:53:17 -0.9 C 45 %
2761 02-01-2020 04:03:18 -0.8 C 45 %
2762 02-01-2020 04:13:18 -0.7 C 45 %
2763 02-01-2020 04:23:17 -0.7 C 45 %
2764 02-01-2020 04:33:17 -0.7 C 45 %
2765 02-01-2020 04:43:17 -0.7 C 45 %
2766 02-01-2020 04:53:17 -0.8 C 45 %
2767 02-01-2020 05:03:17 -0.9 C 45 %
2768 02-01-2020 05:13:17 -0.9 C 45 %
2769 02-01-2020 05:23:18 -0.9 C 45 %
2770 02-01-2020 05:33:17 -0.9 C 45 %
2771 02-01-2020 05:43:17 -0.8 C 44 %
2772 02-01-2020 05:53:18 -0.8 C 44 %
2773 02-01-2020 06:03:17 -0.9 C 44 %
2774 02-01-2020 06:13:17 -0.9 C 43 %
2775 02-01-2020 06:23:17 -0.9 C 43 %
Sensor: Nr:Datum:Temp:Feuchte:
Aussen-T/F 2776 02-01-2020 06:33:18 -0.7 C 42 %
2777 02-01-2020 06:43:18 -0.7 C 41 %
2778 02-01-2020 06:53:17 -0.7 C 40 %
2779 02-01-2020 07:03:18 -0.7 C 40 %
2780 02-01-2020 07:13:18 -0.7 C 40 %
2781 02-01-2020 07:23:17 -0.7 C 39 %
2782 02-01-2020 07:33:17 -0.7 C 39 %
2783 02-01-2020 07:43:17 -0.7 C 40 %
2784 02-01-2020 07:53:17 -0.6 C 41 %
2785 02-01-2020 08:03:18 -0.6 C 41 %
2786 02-01-2020 08:13:18 -0.5 C 41 %
2787 02-01-2020 08:23:17 -0.4 C 41 %
2788 02-01-2020 08:33:17 -0.3 C 40 %
2789 02-01-2020 08:43:17 -0.3 C 41 %
2790 02-01-2020 08:53:17 -0.2 C 42 %
2791 02-01-2020 09:03:17 -0.1 C 42 %
2792 02-01-2020 09:13:17 0.1 C 42 %
2793 02-01-2020 09:23:17 0.1 C 40 %
2794 02-01-2020 09:33:18 0.4 C 38 %
2795 02-01-2020 09:43:18 0.5 C 37 %
2796 02-01-2020 09:53:17 0.4 C 39 %
2797 02-01-2020 10:03:17 0.4 C 40 %
2798 02-01-2020 10:13:18 0.7 C 41 %
2799 02-01-2020 10:23:17 1.1 C 42 %
2800 02-01-2020 10:33:18 1.1 C 39 %
Sensor: Nr:Datum:Temp:Feuchte:
Aussen-T/F 2801 02-01-2020 10:43:18 1.3 C 39 %
2802 02-01-2020 10:53:17 1.5 C 38 %
2803 02-01-2020 11:03:18 1.7 C 38 %
2804 02-01-2020 11:13:18 1.6 C 35 %
2805 02-01-2020 11:23:17 1.9 C 37 %
2806 02-01-2020 11:33:17 2.1 C 36 %
2807 02-01-2020 11:43:17 2.1 C 35 %
2808 02-01-2020 11:53:17 2.1 C 34 %
2809 02-01-2020 12:03:17 2.2 C 34 %
2810 02-01-2020 12:13:17 2.3 C 35 %
2811 02-01-2020 12:23:17 2.3 C 35 %
2812 02-01-2020 12:33:17 2.6 C 34 %
2813 02-01-2020 12:43:17 3 C 35 %
2814 02-01-2020 12:53:17 2.8 C 32 %
2815 02-01-2020 13:03:17 2.9 C 31 %
2816 02-01-2020 13:13:17 3.1 C 30 %
2817 02-01-2020 13:23:17 3.3 C 29 %
2818 02-01-2020 13:33:17 3.6 C 29 %
2819 02-01-2020 13:43:17 3.3 C 29 %
2820 02-01-2020 13:53:18 3.1 C 30 %
2821 02-01-2020 14:03:17 3.4 C 30 %
2822 02-01-2020 14:13:17 3.4 C 30 %
2823 02-01-2020 14:23:18 3.5 C 30 %
2824 02-01-2020 14:33:17 3.4 C 30 %
2825 02-01-2020 14:43:17 3.7 C 30 %
Sensor: Nr:Datum:Temp:Feuchte:
Aussen-T/F 2826 02-01-2020 14:53:17 3.4 C 30 %
2827 02-01-2020 15:03:17 3.1 C 31 %
2828 02-01-2020 15:13:17 3 C 31 %
2829 02-01-2020 15:23:18 2.7 C 32 %
2830 02-01-2020 15:33:17 2.5 C 33 %
2831 02-01-2020 15:43:17 2.5 C 34 %
2832 02-01-2020 15:53:17 2.4 C 35 %
2833 02-01-2020 16:03:17 2.4 C 35 %
2834 02-01-2020 16:13:17 2.3 C 35 %
2835 02-01-2020 16:23:18 2.2 C 36 %
2836 02-01-2020 16:33:17 2.2 C 37 %
2837 02-01-2020 16:43:17 2.3 C 37 %
2838 02-01-2020 16:53:17 2.2 C 37 %
2839 02-01-2020 17:03:17 2.1 C 38 %
2840 02-01-2020 17:13:17 2 C 38 %
2841 02-01-2020 17:23:18 2.1 C 40 %
2842 02-01-2020 17:33:17 2.1 C 40 %
2843 02-01-2020 17:43:17 2.1 C 40 %
2844 02-01-2020 17:53:17 2.1 C 40 %
2845 02-01-2020 18:03:17 2.1 C 40 %
2846 02-01-2020 18:13:17 2.1 C 40 %
2847 02-01-2020 18:23:17 2.1 C 40 %
2848 02-01-2020 18:33:17 2.1 C 40 %
2849 02-01-2020 18:43:18 2.2 C 39 %
2850 02-01-2020 18:53:17 2.3 C 40 %
Sensor: Nr:Datum:Temp:Feuchte:
Aussen-T/F 2851 02-01-2020 19:03:17 2.2 C 40 %
2852 02-01-2020 19:13:18 2.2 C 40 %
2853 02-01-2020 19:23:17 2.3 C 40 %
2854 02-01-2020 19:33:17 2.3 C 40 %
2855 02-01-2020 19:43:18 2.3 C 40 %
2856 02-01-2020 19:53:17 2.3 C 40 %
2857 02-01-2020 20:03:18 2.3 C 40 %
2858 02-01-2020 20:13:18 2.4 C 40 %
2859 02-01-2020 20:23:17 2.5 C 40 %
2860 02-01-2020 20:33:17 2.6 C 40 %
2861 02-01-2020 20:43:17 2.6 C 40 %
2862 02-01-2020 20:53:17 2.5 C 39 %
2863 02-01-2020 21:03:18 2.5 C 40 %
2864 02-01-2020 21:13:18 2.5 C 40 %
2865 02-01-2020 21:23:17 2.5 C 40 %
2866 02-01-2020 21:33:18 2.5 C 40 %
2867 02-01-2020 21:43:18 2.3 C 40 %
2868 02-01-2020 21:53:17 1.9 C 42 %
2869 02-01-2020 22:03:17 2.3 C 43 %
2870 02-01-2020 22:13:17 2.4 C 43 %
2871 02-01-2020 22:23:17 2.5 C 43 %
2872 02-01-2020 22:33:17 2.6 C 43 %
2873 02-01-2020 22:43:18 2.7 C 43 %
2874 02-01-2020 22:53:17 2.7 C 42 %
2875 02-01-2020 23:03:17 2.8 C 42 %
Sensor: Nr:Datum:Temp:Feuchte:
Aussen-T/F 2876 02-01-2020 23:13:17 2.8 C 42 %
2877 02-01-2020 23:23:17 2.8 C 41 %
2878 02-01-2020 23:33:18 2.8 C 42 %
2879 02-01-2020 23:43:18 2.9 C 42 %
2880 02-01-2020 23:53:17 2.8 C 41 %
2881 03-01-2020 00:03:18 2.9 C 42 %
2882 03-01-2020 00:13:18 3 C 41 %
2883 03-01-2020 00:23:17 3.1 C 41 %
2884 03-01-2020 00:33:17 3.2 C 41 %
2885 03-01-2020 00:43:17 3.2 C 41 %
2886 03-01-2020 00:53:17 3.4 C 42 %
2887 03-01-2020 01:03:17 3.4 C 42 %
2888 03-01-2020 01:13:17 3.5 C 42 %
2889 03-01-2020 01:23:18 3.5 C 42 %
2890 03-01-2020 01:33:17 3.5 C 42 %
2891 03-01-2020 01:43:17 3.6 C 42 %
2892 03-01-2020 01:53:18 3.6 C 42 %
2893 03-01-2020 02:03:17 3.7 C 42 %
2894 03-01-2020 02:13:17 3.7 C 42 %
2895 03-01-2020 02:23:17 3.9 C 42 %
2896 03-01-2020 02:33:17 3.7 C 42 %
2897 03-01-2020 02:43:18 3.7 C 43 %
2898 03-01-2020 02:53:17 3.9 C 44 %
2899 03-01-2020 03:03:17 3.8 C 44 %
2900 03-01-2020 03:13:17 3.8 C 44 %
Sensor: Nr:Datum:Temp:Feuchte:
Aussen-T/F 2901 03-01-2020 03:23:17 3.8 C 44 %
2902 03-01-2020 03:33:17 3.9 C 44 %
2903 03-01-2020 03:43:17 3.9 C 44 %
2904 03-01-2020 03:53:18 3.9 C 44 %
2905 03-01-2020 04:03:17 4 C 43 %
2906 03-01-2020 04:13:17 4 C 43 %
2907 03-01-2020 04:23:18 4 C 42 %
2908 03-01-2020 04:33:17 4.1 C 42 %
2909 03-01-2020 04:43:17 4.1 C 42 %
2910 03-01-2020 04:53:17 4.2 C 42 %
2911 03-01-2020 05:03:17 4.2 C 41 %
2912 03-01-2020 05:13:17 4.3 C 40 %
2913 03-01-2020 05:23:17 4.3 C 40 %
2914 03-01-2020 05:33:17 4.4 C 40 %
2915 03-01-2020 05:43:17 4.4 C 40 %
2916 03-01-2020 05:53:17 4.4 C 40 %
2917 03-01-2020 06:03:17 4.4 C 40 %
2918 03-01-2020 06:13:17 4.4 C 40 %
2919 03-01-2020 06:23:18 4.4 C 40 %
2920 03-01-2020 06:33:17 4.7 C 40 %
2921 03-01-2020 06:43:17 5.3 C 40 %
2922 03-01-2020 06:53:18 6.7 C 34 %
2923 03-01-2020 07:03:18 7.1 C 31 %
2924 03-01-2020 07:13:18 7.7 C 30 %
2925 03-01-2020 07:23:17 8 C 29 %
Sensor: Nr:Datum:Temp:Feuchte:
Aussen-T/F 2926 03-01-2020 07:33:17 7.9 C 30 %
2927 03-01-2020 07:43:17 7.8 C 30 %
2928 03-01-2020 07:53:17 7.9 C 29 %
2929 03-01-2020 08:03:18 7.9 C 30 %
2930 03-01-2020 08:13:18 8 C 29 %
2931 03-01-2020 08:23:17 7.9 C 29 %
2932 03-01-2020 08:33:18 7.8 C 29 %
2933 03-01-2020 08:43:18 7.9 C 29 %
2934 03-01-2020 08:53:17 8 C 29 %
2935 03-01-2020 09:03:17 8.2 C 28 %
2936 03-01-2020 09:13:17 8.2 C 28 %
2937 03-01-2020 09:23:17 8.2 C 28 %
2938 03-01-2020 09:33:17 8.4 C 28 %
2939 03-01-2020 09:43:17 8.4 C 27 %
2940 03-01-2020 09:53:17 8.4 C 27 %
2941 03-01-2020 10:03:17 8.6 C 27 %
2942 03-01-2020 10:13:17 8.6 C 27 %
2943 03-01-2020 10:23:17 8.6 C 27 %
2944 03-01-2020 10:33:17 8.6 C 27 %
2945 03-01-2020 10:43:18 8.6 C 27 %
2946 03-01-2020 10:53:17 8.6 C 27 %
2947 03-01-2020 11:03:18 8.3 C 27 %
2948 03-01-2020 11:13:18 8.5 C 27 %
2949 03-01-2020 11:23:18 8.6 C 27 %
2950 03-01-2020 11:33:17 8.9 C 27 %
Sensor: Nr:Datum:Temp:Feuchte:
Aussen-T/F 2951 03-01-2020 11:43:17 8.9 C 27 %
2952 03-01-2020 11:53:17 8.7 C 27 %
2953 03-01-2020 12:03:17 8.6 C 27 %
2954 03-01-2020 12:13:17 8.4 C 27 %
2955 03-01-2020 12:23:17 8.6 C 27 %
2956 03-01-2020 12:33:17 8.7 C 27 %
2957 03-01-2020 12:43:17 8.5 C 27 %
2958 03-01-2020 12:53:17 8.6 C 27 %
2959 03-01-2020 13:03:17 8.5 C 27 %
2960 03-01-2020 13:13:18 8.5 C 28 %
2961 03-01-2020 13:23:17 8.6 C 28 %
2962 03-01-2020 13:33:17 8.8 C 27 %
2963 03-01-2020 13:43:18 8.8 C 28 %
2964 03-01-2020 13:53:17 8.7 C 28 %
2965 03-01-2020 14:03:17 8.7 C 28 %
2966 03-01-2020 14:13:17 8.5 C 28 %
2967 03-01-2020 14:23:18 8.5 C 29 %
2968 03-01-2020 14:33:17 8.5 C 29 %
2969 03-01-2020 14:43:17 8.5 C 29 %
2970 03-01-2020 14:53:17 8.5 C 30 %
2971 03-01-2020 15:03:17 9 C 28 %
2972 03-01-2020 15:13:17 9 C 28 %
2973 03-01-2020 15:23:17 9 C 28 %
2974 03-01-2020 15:33:17 9.1 C 28 %
2975 03-01-2020 15:43:18 9.2 C 28 %
Sensor: Nr:Datum:Temp:Feuchte:
Aussen-T/F 2976 03-01-2020 15:53:17 9 C 28 %
2977 03-01-2020 16:03:17 9 C 28 %
2978 03-01-2020 16:13:17 9 C 29 %
2979 03-01-2020 16:23:17 8.9 C 30 %
2980 03-01-2020 16:33:17 9 C 29 %
2981 03-01-2020 16:43:17 9 C 29 %
2982 03-01-2020 16:53:17 9 C 29 %
2983 03-01-2020 17:03:17 8.6 C 31 %
2984 03-01-2020 17:13:17 8.6 C 31 %
2985 03-01-2020 17:23:17 8.9 C 31 %
2986 03-01-2020 17:33:17 8.8 C 30 %
2987 03-01-2020 17:43:17 8.9 C 30 %
2988 03-01-2020 17:53:17 9 C 30 %
2989 03-01-2020 18:03:17 9 C 30 %
2990 03-01-2020 18:13:18 9.1 C 30 %
2991 03-01-2020 18:23:18 9.3 C 30 %
2992 03-01-2020 18:33:18 9.3 C 30 %
2993 03-01-2020 18:43:18 9.2 C 30 %
2994 03-01-2020 18:53:17 9.3 C 30 %
2995 03-01-2020 19:03:18 9.2 C 30 %
2996 03-01-2020 19:13:18 8.9 C 32 %
2997 03-01-2020 19:23:17 8.9 C 32 %
2998 03-01-2020 19:33:17 9.2 C 31 %
2999 03-01-2020 19:43:17 9.3 C 31 %
3000 03-01-2020 19:53:17 9.2 C 31 %
Sensor: Nr:Datum:Temp:Feuchte:
Aussen-T/F 3001 03-01-2020 20:03:18 9 C 31 %
3002 03-01-2020 20:13:18 8.9 C 35 %
3003 03-01-2020 20:23:17 8.9 C 35 %
3004 03-01-2020 20:33:17 8.8 C 35 %
3005 03-01-2020 20:43:17 8.7 C 36 %
3006 03-01-2020 20:53:18 8.6 C 39 %
3007 03-01-2020 21:03:17 8.2 C 37 %
3008 03-01-2020 21:13:17 7.8 C 35 %
3009 03-01-2020 21:23:17 7.5 C 35 %
3010 03-01-2020 21:33:18 7.4 C 36 %
3011 03-01-2020 21:43:18 7.2 C 35 %
3012 03-01-2020 21:53:17 6.8 C 35 %
3013 03-01-2020 22:03:18 6.8 C 34 %
3014 03-01-2020 22:13:18 6.7 C 35 %
3015 03-01-2020 22:23:17 6.5 C 33 %
3016 03-01-2020 22:33:17 6.4 C 34 %
3017 03-01-2020 22:43:17 6 C 33 %
3018 03-01-2020 22:53:17 6 C 34 %
3019 03-01-2020 23:03:17 5.7 C 35 %
3020 03-01-2020 23:13:17 5.9 C 34 %
3021 03-01-2020 23:23:17 5.8 C 35 %
3022 03-01-2020 23:33:17 5.8 C 33 %
3023 03-01-2020 23:43:17 5.7 C 35 %
3024 03-01-2020 23:53:17 5.8 C 35 %
Sensor: Nr:Datum:Temp:Feuchte:
G-T/H 1 14-12-2019 00:01:17 8.7 C 73 %
2 14-12-2019 00:11:17 8.7 C 73 %
3 14-12-2019 00:21:17 8.7 C 73 %
4 14-12-2019 00:31:18 8.7 C 73 %
5 14-12-2019 00:41:18 8.6 C 73 %
6 14-12-2019 00:51:17 8.7 C 73 %
7 14-12-2019 01:01:17 8.7 C 73 %
8 14-12-2019 01:11:17 8.7 C 74 %
9 14-12-2019 01:21:17 8.7 C 74 %
10 14-12-2019 01:31:17 8.7 C 74 %
11 14-12-2019 01:41:17 8.6 C 74 %
12 14-12-2019 01:51:17 8.7 C 74 %
13 14-12-2019 02:01:17 8.7 C 74 %
14 14-12-2019 02:11:17 8.7 C 74 %
15 14-12-2019 02:21:17 8.7 C 74 %
16 14-12-2019 02:31:18 8.7 C 74 %
17 14-12-2019 02:41:18 8.7 C 74 %
18 14-12-2019 02:51:17 8.7 C 74 %
19 14-12-2019 03:01:18 8.7 C 74 %
20 14-12-2019 03:11:18 8.7 C 74 %
21 14-12-2019 03:21:17 8.7 C 74 %
22 14-12-2019 03:31:17 8.7 C 74 %
23 14-12-2019 03:41:17 8.7 C 74 %
24 14-12-2019 03:51:18 8.7 C 74 %
25 14-12-2019 04:01:17 8.7 C 74 %
Sensor: Nr:Datum:Temp:Feuchte:
G-T/H 26 14-12-2019 04:11:17 8.7 C 74 %
27 14-12-2019 04:21:17 8.7 C 74 %
28 14-12-2019 04:31:18 8.7 C 74 %
29 14-12-2019 04:41:18 8.7 C 74 %
30 14-12-2019 04:51:17 8.7 C 74 %
31 14-12-2019 05:01:17 8.7 C 74 %
32 14-12-2019 05:11:17 8.7 C 74 %
33 14-12-2019 05:21:17 8.7 C 74 %
34 14-12-2019 05:31:18 8.7 C 74 %
35 14-12-2019 05:41:18 8.7 C 74 %
36 14-12-2019 05:51:17 8.7 C 74 %
37 14-12-2019 06:01:18 8.7 C 74 %
38 14-12-2019 06:11:18 8.7 C 74 %
39 14-12-2019 06:21:17 8.7 C 74 %
40 14-12-2019 06:31:17 8.7 C 74 %
41 14-12-2019 06:41:17 8.7 C 74 %
42 14-12-2019 06:51:18 8.7 C 74 %
43 14-12-2019 07:01:17 8.8 C 74 %
44 14-12-2019 07:11:18 8.8 C 74 %
45 14-12-2019 07:21:17 8.8 C 74 %
46 14-12-2019 07:31:17 8.8 C 74 %
47 14-12-2019 07:41:17 8.8 C 74 %
48 14-12-2019 07:51:17 8.8 C 74 %
49 14-12-2019 08:01:17 8.8 C 74 %
50 14-12-2019 08:11:17 8.8 C 74 %
Sensor: Nr:Datum:Temp:Feuchte:
G-T/H 51 14-12-2019 08:21:17 8.8 C 74 %
52 14-12-2019 08:31:18 8.8 C 74 %
53 14-12-2019 08:41:18 8.8 C 74 %
54 14-12-2019 08:51:17 8.8 C 74 %
55 14-12-2019 09:01:17 8.8 C 74 %
56 14-12-2019 09:11:17 8.8 C 74 %
57 14-12-2019 09:21:18 8.8 C 74 %
58 14-12-2019 09:31:18 8.8 C 74 %
59 14-12-2019 09:41:18 8.8 C 74 %
60 14-12-2019 09:51:17 8.8 C 74 %
61 14-12-2019 10:01:17 8.8 C 74 %
62 14-12-2019 10:11:17 8.8 C 74 %
63 14-12-2019 10:21:17 8.8 C 74 %
64 14-12-2019 10:31:17 8.8 C 74 %
65 14-12-2019 10:41:17 8.9 C 74 %
66 14-12-2019 10:51:17 8.9 C 74 %
67 14-12-2019 11:01:18 8.9 C 74 %
68 14-12-2019 11:11:18 8.9 C 74 %
69 14-12-2019 11:21:17 8.9 C 74 %
70 14-12-2019 11:31:17 8.9 C 74 %
71 14-12-2019 11:41:17 8.9 C 74 %
72 14-12-2019 11:51:17 9 C 73 %
73 14-12-2019 12:01:17 9.1 C 73 %
74 14-12-2019 12:11:17 9.1 C 73 %
75 14-12-2019 12:21:18 9 C 72 %
Sensor: Nr:Datum:Temp:Feuchte:
G-T/H 76 14-12-2019 12:31:17 8.9 C 70 %
77 14-12-2019 12:41:17 8.9 C 68 %
78 14-12-2019 12:51:17 8.9 C 68 %
79 14-12-2019 13:01:17 8.9 C 69 %
80 14-12-2019 13:11:17 8.9 C 69 %
81 14-12-2019 13:21:17 9 C 69 %
82 14-12-2019 13:31:17 8.9 C 70 %
83 14-12-2019 13:41:17 8.9 C 70 %
84 14-12-2019 13:51:17 8.9 C 71 %
85 14-12-2019 14:01:18 9 C 70 %
86 14-12-2019 14:11:18 9 C 70 %
87 14-12-2019 14:21:17 9 C 71 %
88 14-12-2019 14:31:18 9 C 71 %
89 14-12-2019 14:41:18 9 C 71 %
90 14-12-2019 14:51:18 8.9 C 72 %
91 14-12-2019 15:01:17 9 C 71 %
92 14-12-2019 15:11:17 9 C 71 %
93 14-12-2019 15:21:17 9 C 72 %
94 14-12-2019 15:31:17 9 C 72 %
95 14-12-2019 15:41:18 9 C 72 %
96 14-12-2019 15:51:17 9 C 72 %
97 14-12-2019 16:01:17 9 C 72 %
98 14-12-2019 16:11:17 9.1 C 72 %
99 14-12-2019 16:21:17 9.1 C 72 %
100 14-12-2019 16:31:18 9.1 C 72 %
Sensor: Nr:Datum:Temp:Feuchte:
G-T/H 101 14-12-2019 16:41:18 9.1 C 72 %
102 14-12-2019 16:51:17 9.1 C 72 %
103 14-12-2019 17:01:17 9.1 C 72 %
104 14-12-2019 17:11:17 9 C 73 %
105 14-12-2019 17:21:17 9.1 C 73 %
106 14-12-2019 17:31:18 9.1 C 73 %
107 14-12-2019 17:41:18 9.1 C 73 %
108 14-12-2019 17:51:17 9.1 C 73 %
109 14-12-2019 18:01:17 9.1 C 73 %
110 14-12-2019 18:11:17 9.1 C 73 %
111 14-12-2019 18:22:17 9.1 C 73 %
112 14-12-2019 18:31:17 9.1 C 73 %
113 14-12-2019 18:41:17 9.1 C 73 %
114 14-12-2019 18:52:17 9.2 C 73 %
115 14-12-2019 19:01:18 9.1 C 73 %
116 14-12-2019 19:11:18 9.1 C 73 %
117 14-12-2019 19:21:17 9.2 C 73 %
118 14-12-2019 19:31:17 9.2 C 73 %
119 14-12-2019 19:41:17 9.2 C 73 %
120 14-12-2019 19:52:17 9.1 C 73 %
121 14-12-2019 20:01:18 9.2 C 73 %
122 14-12-2019 20:11:18 9.2 C 73 %
123 14-12-2019 20:21:17 9.2 C 73 %
124 14-12-2019 20:31:17 9.2 C 73 %
125 14-12-2019 20:41:17 9.1 C 73 %
Sensor: Nr:Datum:Temp:Feuchte:
G-T/H 126 14-12-2019 20:52:17 9.2 C 73 %
127 14-12-2019 21:01:17 9.2 C 73 %
128 14-12-2019 21:11:17 9.2 C 73 %
129 14-12-2019 21:22:17 9.2 C 73 %
130 14-12-2019 21:31:18 9.2 C 73 %
131 14-12-2019 21:41:18 9.2 C 73 %
132 14-12-2019 21:52:17 9.2 C 73 %
133 14-12-2019 22:02:17 9.2 C 73 %
134 14-12-2019 22:11:17 9.2 C 73 %
135 14-12-2019 22:22:17 9.2 C 73 %
136 14-12-2019 22:31:17 9.2 C 74 %
137 14-12-2019 22:41:17 9.2 C 74 %
138 14-12-2019 22:52:17 9.2 C 74 %
139 14-12-2019 23:02:17 9.2 C 74 %
140 14-12-2019 23:12:17 9.2 C 74 %
141 14-12-2019 23:22:17 9.2 C 74 %
142 14-12-2019 23:31:18 9.2 C 74 %
143 14-12-2019 23:41:18 9.2 C 74 %
144 14-12-2019 23:51:18 9.2 C 74 %
145 15-12-2019 00:02:17 9.2 C 74 %
146 15-12-2019 00:11:17 9.2 C 74 %
147 15-12-2019 00:22:17 9.2 C 74 %
148 15-12-2019 00:31:18 9.2 C 74 %
149 15-12-2019 00:41:18 9.2 C 74 %
150 15-12-2019 00:52:17 9.2 C 74 %
Sensor: Nr:Datum:Temp:Feuchte:
G-T/H 151 15-12-2019 01:02:17 9.2 C 74 %
152 15-12-2019 01:12:17 9.2 C 74 %
153 15-12-2019 01:22:17 9.2 C 74 %
154 15-12-2019 01:31:18 9.2 C 74 %
155 15-12-2019 01:41:18 9.2 C 74 %
156 15-12-2019 01:52:17 9.2 C 74 %
157 15-12-2019 02:02:17 9.2 C 74 %
158 15-12-2019 02:12:17 9.3 C 74 %
159 15-12-2019 02:22:17 9.2 C 74 %
160 15-12-2019 02:32:18 9.3 C 74 %
161 15-12-2019 02:42:18 9.3 C 74 %
162 15-12-2019 02:52:17 9.2 C 74 %
163 15-12-2019 03:02:18 9.2 C 74 %
164 15-12-2019 03:12:18 9.3 C 74 %
165 15-12-2019 03:22:17 9.3 C 74 %
166 15-12-2019 03:32:17 9.3 C 74 %
167 15-12-2019 03:42:17 9.3 C 74 %
168 15-12-2019 03:52:17 9.3 C 74 %
169 15-12-2019 04:02:17 9.3 C 74 %
170 15-12-2019 04:12:17 9.3 C 74 %
171 15-12-2019 04:22:17 9.3 C 74 %
172 15-12-2019 04:32:17 9.3 C 74 %
173 15-12-2019 04:42:17 9.3 C 74 %
174 15-12-2019 04:52:17 9.2 C 74 %
175 15-12-2019 05:02:17 9.3 C 74 %
Sensor: Nr:Datum:Temp:Feuchte:
G-T/H 176 15-12-2019 05:12:17 9.3 C 74 %
177 15-12-2019 05:22:17 9.3 C 74 %
178 15-12-2019 05:32:18 9.3 C 74 %
179 15-12-2019 05:42:18 9.3 C 74 %
180 15-12-2019 05:52:17 9.3 C 74 %
181 15-12-2019 06:02:17 9.3 C 74 %
182 15-12-2019 06:12:17 9.4 C 74 %
183 15-12-2019 06:22:17 9.4 C 74 %
184 15-12-2019 06:32:17 9.4 C 74 %
185 15-12-2019 06:42:17 9.4 C 74 %
186 15-12-2019 06:52:17 9.4 C 74 %
187 15-12-2019 07:02:17 9.4 C 74 %
188 15-12-2019 07:12:17 9.5 C 75 %
189 15-12-2019 07:22:17 9.4 C 75 %
190 15-12-2019 07:32:17 9.5 C 75 %
191 15-12-2019 07:42:17 9.5 C 75 %
192 15-12-2019 07:52:17 9.5 C 75 %
193 15-12-2019 08:02:17 9.5 C 75 %
194 15-12-2019 08:12:17 9.5 C 75 %
195 15-12-2019 08:22:17 9.5 C 75 %
196 15-12-2019 08:32:18 9.5 C 75 %
197 15-12-2019 08:42:18 9.5 C 75 %
198 15-12-2019 08:52:17 9.5 C 75 %
199 15-12-2019 09:02:17 9.5 C 75 %
200 15-12-2019 09:12:17 9.5 C 75 %
Sensor: Nr:Datum:Temp:Feuchte:
G-T/H 201 15-12-2019 09:22:17 9.5 C 75 %
202 15-12-2019 09:32:17 9.5 C 75 %
203 15-12-2019 09:42:17 9.6 C 75 %
204 15-12-2019 09:52:18 9.6 C 75 %
205 15-12-2019 10:02:18 9.6 C 75 %
206 15-12-2019 10:12:18 9.6 C 75 %
207 15-12-2019 10:22:18 9.6 C 75 %
208 15-12-2019 10:32:17 9.6 C 75 %
209 15-12-2019 10:42:17 9.6 C 75 %
210 15-12-2019 10:52:17 9.6 C 75 %
211 15-12-2019 11:02:17 9.6 C 75 %
212 15-12-2019 11:12:17 9.6 C 75 %
213 15-12-2019 11:22:17 9.6 C 75 %
214 15-12-2019 11:32:17 9.6 C 75 %
215 15-12-2019 11:42:17 9.6 C 75 %
216 15-12-2019 11:52:17 9.6 C 75 %
217 15-12-2019 12:02:17 9.6 C 75 %
218 15-12-2019 12:12:17 9.7 C 75 %
219 15-12-2019 12:22:17 9.6 C 75 %
220 15-12-2019 12:32:17 9.6 C 75 %
221 15-12-2019 12:42:17 9.7 C 75 %
222 15-12-2019 12:52:18 9.7 C 75 %
223 15-12-2019 13:02:18 9.7 C 75 %
224 15-12-2019 13:12:18 9.7 C 75 %
225 15-12-2019 13:22:17 9.7 C 75 %
Sensor: Nr:Datum:Temp:Feuchte:
G-T/H 226 15-12-2019 13:32:17 9.7 C 75 %
227 15-12-2019 13:42:17 9.7 C 75 %
228 15-12-2019 13:52:18 9.7 C 75 %
229 15-12-2019 14:02:17 9.7 C 75 %
230 15-12-2019 14:12:17 9.7 C 75 %
231 15-12-2019 14:22:17 9.7 C 75 %
232 15-12-2019 14:32:17 9.8 C 75 %
233 15-12-2019 14:42:17 9.7 C 75 %
234 15-12-2019 14:52:17 9.7 C 75 %
235 15-12-2019 15:02:17 9.7 C 75 %
236 15-12-2019 15:12:17 9.7 C 75 %
237 15-12-2019 15:22:17 9.7 C 75 %
238 15-12-2019 15:32:17 9.8 C 75 %
239 15-12-2019 15:42:17 9.8 C 75 %
240 15-12-2019 15:52:17 9.8 C 75 %
241 15-12-2019 16:02:17 9.8 C 75 %
242 15-12-2019 16:12:17 9.8 C 75 %
243 15-12-2019 16:22:18 9.8 C 75 %
244 15-12-2019 16:32:17 9.8 C 75 %
245 15-12-2019 16:42:17 9.8 C 75 %
246 15-12-2019 16:52:17 9.8 C 75 %
247 15-12-2019 17:02:17 9.8 C 75 %
248 15-12-2019 17:12:17 9.8 C 75 %
249 15-12-2019 17:22:17 9.8 C 75 %
250 15-12-2019 17:32:17 9.8 C 75 %
Sensor: Nr:Datum:Temp:Feuchte:
G-T/H 251 15-12-2019 17:42:17 9.8 C 75 %
252 15-12-2019 17:52:17 9.8 C 75 %
253 15-12-2019 18:02:17 9.8 C 75 %
254 15-12-2019 18:12:17 9.8 C 75 %
255 15-12-2019 18:22:17 9.8 C 75 %
256 15-12-2019 18:32:17 9.8 C 75 %
257 15-12-2019 18:42:17 9.8 C 75 %
258 15-12-2019 18:52:18 9.8 C 75 %
259 15-12-2019 19:02:17 9.8 C 75 %
260 15-12-2019 19:12:17 9.8 C 75 %
261 15-12-2019 19:22:17 9.8 C 75 %
262 15-12-2019 19:32:18 9.8 C 75 %
263 15-12-2019 19:42:18 9.8 C 75 %
264 15-12-2019 19:52:17 9.8 C 75 %
265 15-12-2019 20:02:17 9.8 C 75 %
266 15-12-2019 20:12:17 9.8 C 75 %
267 15-12-2019 20:22:17 9.8 C 75 %
268 15-12-2019 20:32:17 9.8 C 75 %
269 15-12-2019 20:42:17 9.8 C 75 %
270 15-12-2019 20:52:17 9.8 C 75 %
271 15-12-2019 21:02:17 9.8 C 75 %
272 15-12-2019 21:12:17 9.8 C 75 %
273 15-12-2019 21:22:17 9.8 C 75 %
274 15-12-2019 21:32:18 9.8 C 75 %
275 15-12-2019 21:42:18 9.8 C 75 %
Sensor: Nr:Datum:Temp:Feuchte:
G-T/H 276 15-12-2019 21:52:17 9.8 C 75 %
277 15-12-2019 22:02:17 9.7 C 75 %
278 15-12-2019 22:12:17 9.7 C 75 %
279 15-12-2019 22:22:17 9.7 C 75 %
280 15-12-2019 22:32:17 9.7 C 75 %
281 15-12-2019 22:42:17 9.7 C 75 %
282 15-12-2019 22:52:18 9.7 C 75 %
283 15-12-2019 23:02:17 9.7 C 75 %
284 15-12-2019 23:12:18 9.7 C 74 %
285 15-12-2019 23:22:17 9.7 C 74 %
286 15-12-2019 23:32:18 9.7 C 74 %
287 15-12-2019 23:42:18 9.7 C 74 %
288 15-12-2019 23:52:17 9.7 C 74 %
289 16-12-2019 00:02:17 9.7 C 74 %
290 16-12-2019 00:12:17 9.7 C 74 %
291 16-12-2019 00:22:17 9.7 C 74 %
292 16-12-2019 00:32:17 9.7 C 74 %
293 16-12-2019 00:42:17 9.7 C 74 %
294 16-12-2019 00:52:18 9.7 C 74 %
295 16-12-2019 01:02:17 9.7 C 74 %
296 16-12-2019 01:12:17 9.7 C 74 %
297 16-12-2019 01:22:17 9.7 C 74 %
298 16-12-2019 01:32:17 9.7 C 74 %
299 16-12-2019 01:42:18 9.7 C 75 %
300 16-12-2019 01:52:17 9.7 C 75 %
Sensor: Nr:Datum:Temp:Feuchte:
G-T/H 301 16-12-2019 02:02:18 9.7 C 75 %
302 16-12-2019 02:12:18 9.7 C 75 %
303 16-12-2019 02:22:17 9.7 C 75 %
304 16-12-2019 02:32:17 9.7 C 75 %
305 16-12-2019 02:42:17 9.7 C 75 %
306 16-12-2019 02:52:18 9.7 C 75 %
307 16-12-2019 03:02:17 9.7 C 75 %
308 16-12-2019 03:12:17 9.7 C 75 %
309 16-12-2019 03:22:17 9.7 C 75 %
310 16-12-2019 03:32:18 9.7 C 75 %
311 16-12-2019 03:42:18 9.6 C 75 %
312 16-12-2019 03:52:17 9.7 C 75 %
313 16-12-2019 04:02:17 9.7 C 75 %
314 16-12-2019 04:12:17 9.7 C 75 %
315 16-12-2019 04:22:17 9.7 C 75 %
316 16-12-2019 04:32:17 9.7 C 75 %
317 16-12-2019 04:42:17 9.7 C 75 %
318 16-12-2019 04:52:17 9.7 C 75 %
319 16-12-2019 05:02:17 9.7 C 75 %
320 16-12-2019 05:12:17 9.7 C 75 %
321 16-12-2019 05:22:17 9.7 C 75 %
322 16-12-2019 05:32:17 9.7 C 75 %
323 16-12-2019 05:42:17 9.7 C 75 %
324 16-12-2019 05:52:17 9.7 C 75 %
325 16-12-2019 06:02:17 9.7 C 75 %
Sensor: Nr:Datum:Temp:Feuchte:
G-T/H 326 16-12-2019 06:12:17 9.7 C 75 %
327 16-12-2019 06:22:17 9.7 C 75 %
328 16-12-2019 06:32:17 9.7 C 75 %
329 16-12-2019 06:42:17 9.7 C 75 %
330 16-12-2019 06:52:17 9.7 C 75 %
331 16-12-2019 07:02:17 9.7 C 75 %
332 16-12-2019 07:12:17 9.7 C 75 %
333 16-12-2019 07:22:17 9.7 C 75 %
334 16-12-2019 07:32:18 9.7 C 75 %
335 16-12-2019 07:42:18 9.7 C 75 %
336 16-12-2019 07:52:17 9.7 C 75 %
337 16-12-2019 08:02:17 9.7 C 75 %
338 16-12-2019 08:12:17 9.7 C 75 %
339 16-12-2019 08:22:17 9.7 C 75 %
340 16-12-2019 08:32:17 9.7 C 75 %
341 16-12-2019 08:42:17 9.7 C 75 %
342 16-12-2019 08:52:17 9.7 C 75 %
343 16-12-2019 09:02:17 9.7 C 75 %
344 16-12-2019 09:12:17 9.8 C 76 %
345 16-12-2019 09:22:18 9.7 C 76 %
346 16-12-2019 09:32:17 9.7 C 76 %
347 16-12-2019 09:42:17 9.8 C 76 %
348 16-12-2019 09:52:17 9.8 C 76 %
349 16-12-2019 10:02:18 9.8 C 76 %
350 16-12-2019 10:12:18 9.7 C 76 %
Sensor: Nr:Datum:Temp:Feuchte:
G-T/H 351 16-12-2019 10:22:17 9.8 C 76 %
352 16-12-2019 10:32:17 9.8 C 76 %
353 16-12-2019 10:42:17 9.8 C 76 %
354 16-12-2019 10:52:17 9.8 C 76 %
355 16-12-2019 11:02:17 9.8 C 76 %
356 16-12-2019 11:12:17 9.8 C 76 %
357 16-12-2019 11:22:17 9.8 C 76 %
358 16-12-2019 11:32:18 9.8 C 76 %
359 16-12-2019 11:42:18 9.8 C 76 %
360 16-12-2019 11:52:17 9.8 C 76 %
361 16-12-2019 12:02:17 9.8 C 76 %
362 16-12-2019 12:12:17 9.8 C 76 %
363 16-12-2019 12:22:17 9.8 C 76 %
364 16-12-2019 12:32:17 9.9 C 76 %
365 16-12-2019 12:42:17 9.9 C 76 %
366 16-12-2019 12:52:17 9.8 C 76 %
367 16-12-2019 13:02:17 9.9 C 76 %
368 16-12-2019 13:12:17 9.9 C 76 %
369 16-12-2019 13:22:17 9.9 C 76 %
370 16-12-2019 13:32:17 9.9 C 76 %
371 16-12-2019 13:42:17 9.9 C 76 %
372 16-12-2019 13:52:18 9.9 C 76 %
373 16-12-2019 14:02:17 10 C 75 %
374 16-12-2019 14:12:17 9.9 C 76 %
375 16-12-2019 14:22:17 10 C 75 %
Sensor: Nr:Datum:Temp:Feuchte:
G-T/H 376 16-12-2019 14:32:17 10 C 75 %
377 16-12-2019 14:42:17 10 C 75 %
378 16-12-2019 14:52:18 10 C 75 %
379 16-12-2019 15:02:17 10 C 75 %
380 16-12-2019 15:12:17 10 C 75 %
381 16-12-2019 15:22:17 10 C 75 %
382 16-12-2019 15:32:18 10 C 75 %
383 16-12-2019 15:42:18 10 C 75 %
384 16-12-2019 15:52:17 10.1 C 75 %
385 16-12-2019 16:02:17 10.1 C 75 %
386 16-12-2019 16:12:17 10.1 C 75 %
387 16-12-2019 16:22:17 10.1 C 75 %
388 16-12-2019 16:32:18 10.1 C 75 %
389 16-12-2019 16:42:18 10.1 C 75 %
390 16-12-2019 16:52:17 10.1 C 75 %
391 16-12-2019 17:02:17 10.1 C 75 %
392 16-12-2019 17:12:17 10.1 C 75 %
393 16-12-2019 17:22:17 10.1 C 75 %
394 16-12-2019 17:32:17 10.1 C 75 %
395 16-12-2019 17:42:17 10.1 C 75 %
396 16-12-2019 17:52:17 10.1 C 75 %
397 16-12-2019 18:02:17 10.1 C 75 %
398 16-12-2019 18:12:17 10.1 C 75 %
399 16-12-2019 18:22:17 10.1 C 75 %
400 16-12-2019 18:32:17 10.1 C 75 %
Sensor: Nr:Datum:Temp:Feuchte:
G-T/H 401 16-12-2019 18:42:17 10.2 C 75 %
402 16-12-2019 18:52:17 10.2 C 75 %
403 16-12-2019 19:02:18 10.2 C 75 %
404 16-12-2019 19:12:18 10.2 C 75 %
405 16-12-2019 19:22:17 10.2 C 75 %
406 16-12-2019 19:32:17 10.2 C 75 %
407 16-12-2019 19:42:17 10.2 C 75 %
408 16-12-2019 19:52:18 10.2 C 75 %
409 16-12-2019 20:02:17 10.2 C 75 %
410 16-12-2019 20:12:17 10.2 C 75 %
411 16-12-2019 20:22:17 10.2 C 75 %
412 16-12-2019 20:32:17 10.2 C 75 %
413 16-12-2019 20:42:17 10.2 C 75 %
414 16-12-2019 20:52:17 10.2 C 75 %
415 16-12-2019 21:02:17 10.2 C 75 %
416 16-12-2019 21:12:17 10.2 C 75 %
417 16-12-2019 21:22:17 10.2 C 75 %
418 16-12-2019 21:32:17 10.2 C 75 %
419 16-12-2019 21:42:17 10.3 C 75 %
420 16-12-2019 21:52:17 10.2 C 75 %
421 16-12-2019 22:02:17 10.2 C 75 %
422 16-12-2019 22:12:17 10.2 C 75 %
423 16-12-2019 22:22:17 10.2 C 75 %
424 16-12-2019 22:32:17 10.3 C 75 %
425 16-12-2019 22:42:17 10.2 C 75 %
Sensor: Nr:Datum:Temp:Feuchte:
G-T/H 426 16-12-2019 22:52:18 10.2 C 75 %
427 16-12-2019 23:02:17 10.2 C 75 %
428 16-12-2019 23:12:17 10.2 C 75 %
429 16-12-2019 23:22:17 10.2 C 75 %
430 16-12-2019 23:32:17 10.2 C 75 %
431 16-12-2019 23:42:17 10.2 C 75 %
432 16-12-2019 23:52:18 10.2 C 75 %
433 17-12-2019 00:02:17 10.2 C 75 %
434 17-12-2019 00:12:17 10.2 C 75 %
435 17-12-2019 00:22:17 10.3 C 75 %
436 17-12-2019 00:32:18 10.2 C 75 %
437 17-12-2019 00:42:18 10.3 C 75 %
438 17-12-2019 00:52:17 10.2 C 75 %
439 17-12-2019 01:02:17 10.2 C 75 %
440 17-12-2019 01:12:17 10.2 C 75 %
441 17-12-2019 01:22:17 10.3 C 75 %
442 17-12-2019 01:32:17 10.2 C 75 %
443 17-12-2019 01:42:17 10.2 C 75 %
444 17-12-2019 01:52:17 10.3 C 75 %
445 17-12-2019 02:02:18 10.2 C 75 %
446 17-12-2019 02:12:18 10.3 C 75 %
447 17-12-2019 02:22:17 10.3 C 75 %
448 17-12-2019 02:32:17 10.2 C 75 %
449 17-12-2019 02:42:17 10.2 C 75 %
450 17-12-2019 02:52:18 10.3 C 75 %
Sensor: Nr:Datum:Temp:Feuchte:
G-T/H 451 17-12-2019 03:02:17 10.2 C 75 %
452 17-12-2019 03:12:17 10.2 C 75 %
453 17-12-2019 03:22:17 10.2 C 75 %
454 17-12-2019 03:32:17 10.3 C 75 %
455 17-12-2019 03:42:17 10.2 C 75 %
456 17-12-2019 03:52:18 10.3 C 75 %
457 17-12-2019 04:02:17 10.3 C 75 %
458 17-12-2019 04:12:17 10.3 C 75 %
459 17-12-2019 04:22:17 10.2 C 75 %
460 17-12-2019 04:32:17 10.3 C 75 %
461 17-12-2019 04:42:17 10.3 C 75 %
462 17-12-2019 04:52:18 10.2 C 75 %
463 17-12-2019 05:02:17 10.3 C 75 %
464 17-12-2019 05:12:17 10.2 C 75 %
465 17-12-2019 05:22:17 10.3 C 75 %
466 17-12-2019 05:32:17 10.2 C 75 %
467 17-12-2019 05:42:17 10.3 C 75 %
468 17-12-2019 05:52:17 10.3 C 75 %
469 17-12-2019 06:02:17 10.3 C 75 %
470 17-12-2019 06:12:17 10.2 C 75 %
471 17-12-2019 06:22:18 10.3 C 75 %
472 17-12-2019 06:32:17 10.3 C 75 %
473 17-12-2019 06:42:17 10.2 C 75 %
474 17-12-2019 06:52:17 10.3 C 75 %
475 17-12-2019 07:02:17 10.3 C 75 %
Sensor: Nr:Datum:Temp:Feuchte:
G-T/H 476 17-12-2019 07:12:17 10.3 C 75 %
477 17-12-2019 07:22:17 10.3 C 75 %
478 17-12-2019 07:32:18 10.3 C 75 %
479 17-12-2019 07:42:18 10.3 C 75 %
480 17-12-2019 07:52:17 10.2 C 75 %
481 17-12-2019 08:02:17 10.3 C 75 %
482 17-12-2019 08:12:17 10.3 C 75 %
483 17-12-2019 08:22:17 10.2 C 75 %
484 17-12-2019 08:32:17 10.3 C 75 %
485 17-12-2019 08:42:18 10.3 C 75 %
486 17-12-2019 08:52:17 10.3 C 75 %
487 17-12-2019 09:02:17 10.3 C 75 %
488 17-12-2019 09:12:17 10.3 C 75 %
489 17-12-2019 09:22:18 10.3 C 75 %
490 17-12-2019 09:32:17 10.3 C 75 %
491 17-12-2019 09:42:17 10.3 C 75 %
492 17-12-2019 09:52:17 10.3 C 75 %
493 17-12-2019 10:02:18 10.3 C 75 %
494 17-12-2019 10:12:18 10.2 C 75 %
495 17-12-2019 10:22:17 10.3 C 75 %
496 17-12-2019 10:32:17 10.3 C 75 %
497 17-12-2019 10:42:17 10.2 C 75 %
498 17-12-2019 10:52:17 10.3 C 75 %
499 17-12-2019 11:02:17 10.3 C 75 %
500 17-12-2019 11:12:17 10.3 C 75 %
Sensor: Nr:Datum:Temp:Feuchte:
G-T/H 501 17-12-2019 11:22:17 10.3 C 75 %
502 17-12-2019 11:32:17 10.3 C 75 %
503 17-12-2019 11:42:17 10.3 C 75 %
504 17-12-2019 11:52:17 10.3 C 75 %
505 17-12-2019 12:02:17 10.3 C 75 %
506 17-12-2019 12:12:17 10.3 C 75 %
507 17-12-2019 12:22:17 10.3 C 75 %
508 17-12-2019 12:32:17 10.3 C 75 %
509 17-12-2019 12:42:17 10.3 C 75 %
510 17-12-2019 12:52:17 10.3 C 75 %
511 17-12-2019 13:02:17 10.3 C 75 %
512 17-12-2019 13:12:17 10.3 C 75 %
513 17-12-2019 13:22:17 10.3 C 76 %
514 17-12-2019 13:32:17 10.3 C 76 %
515 17-12-2019 13:42:17 10.3 C 76 %
516 17-12-2019 13:52:18 10.3 C 76 %
517 17-12-2019 14:02:17 10.3 C 76 %
518 17-12-2019 14:12:17 10.3 C 76 %
519 17-12-2019 14:22:17 10.3 C 76 %
520 17-12-2019 14:32:17 10.4 C 76 %
521 17-12-2019 14:42:17 10.4 C 76 %
522 17-12-2019 14:52:17 10.4 C 76 %
523 17-12-2019 15:02:17 10.4 C 76 %
524 17-12-2019 15:12:17 10.4 C 76 %
525 17-12-2019 15:22:17 10.4 C 76 %
Sensor: Nr:Datum:Temp:Feuchte:
G-T/H 526 17-12-2019 15:32:17 10.4 C 76 %
527 17-12-2019 15:42:17 10.4 C 76 %
528 17-12-2019 15:52:18 10.4 C 76 %
529 17-12-2019 16:02:17 10.4 C 76 %
530 17-12-2019 16:12:17 10.4 C 76 %
531 17-12-2019 16:22:17 10.4 C 76 %
532 17-12-2019 16:32:18 10.4 C 76 %
533 17-12-2019 16:42:18 10.4 C 76 %
534 17-12-2019 16:52:17 10.4 C 76 %
535 17-12-2019 17:02:17 10.4 C 76 %
536 17-12-2019 17:12:18 10.4 C 76 %
537 17-12-2019 17:22:17 10.4 C 76 %
538 17-12-2019 17:32:18 10.4 C 76 %
539 17-12-2019 17:42:18 10.5 C 76 %
540 17-12-2019 17:52:17 10.5 C 76 %
541 17-12-2019 18:02:17 10.5 C 76 %
542 17-12-2019 18:12:17 10.5 C 76 %
543 17-12-2019 18:22:17 10.5 C 76 %
544 17-12-2019 18:32:17 10.5 C 76 %
545 17-12-2019 18:42:17 10.8 C 76 %
546 17-12-2019 18:52:17 10.9 C 76 %
547 17-12-2019 19:02:17 11 C 76 %
548 17-12-2019 19:12:17 11.1 C 76 %
549 17-12-2019 19:22:17 11 C 75 %
550 17-12-2019 19:32:18 11 C 75 %
Sensor: Nr:Datum:Temp:Feuchte:
G-T/H 551 17-12-2019 19:42:18 10.9 C 76 %
552 17-12-2019 19:52:17 10.9 C 76 %
553 17-12-2019 20:02:18 10.8 C 76 %
554 17-12-2019 20:12:18 10.9 C 76 %
555 17-12-2019 20:22:17 10.8 C 76 %
556 17-12-2019 20:32:17 10.8 C 76 %
557 17-12-2019 20:42:17 10.8 C 76 %
558 17-12-2019 20:52:17 10.8 C 76 %
559 17-12-2019 21:02:17 10.8 C 76 %
560 17-12-2019 21:12:17 10.8 C 76 %
561 17-12-2019 21:22:17 10.8 C 76 %
562 17-12-2019 21:32:17 10.8 C 76 %
563 17-12-2019 21:42:17 10.8 C 76 %
564 17-12-2019 21:52:17 10.9 C 76 %
565 17-12-2019 22:02:17 10.8 C 76 %
566 17-12-2019 22:12:17 10.9 C 76 %
567 17-12-2019 22:22:17 10.9 C 76 %
568 17-12-2019 22:32:17 10.9 C 76 %
569 17-12-2019 22:42:17 10.9 C 76 %
570 17-12-2019 22:52:17 10.9 C 76 %
571 17-12-2019 23:02:17 10.9 C 76 %
572 17-12-2019 23:12:17 10.9 C 77 %
573 17-12-2019 23:22:17 10.9 C 77 %
574 17-12-2019 23:32:17 10.9 C 77 %
575 17-12-2019 23:42:17 11 C 76 %
Sensor: Nr:Datum:Temp:Feuchte:
G-T/H 576 17-12-2019 23:52:17 10.9 C 77 %
577 18-12-2019 00:02:17 11 C 76 %
578 18-12-2019 00:12:17 11 C 76 %
579 18-12-2019 00:22:17 11 C 76 %
580 18-12-2019 00:32:18 11 C 76 %
581 18-12-2019 00:42:18 11 C 76 %
582 18-12-2019 00:52:17 11 C 76 %
583 18-12-2019 01:02:17 11 C 76 %
584 18-12-2019 01:12:17 11 C 76 %
585 18-12-2019 01:22:17 11 C 76 %
586 18-12-2019 01:32:18 11 C 76 %
587 18-12-2019 01:42:18 11 C 76 %
588 18-12-2019 01:52:17 11 C 76 %
589 18-12-2019 02:02:17 11 C 76 %
590 18-12-2019 02:12:17 11 C 76 %
591 18-12-2019 02:22:17 11.1 C 76 %
592 18-12-2019 02:32:17 11 C 76 %
593 18-12-2019 02:42:18 11 C 76 %
594 18-12-2019 02:52:17 11.1 C 76 %
595 18-12-2019 03:02:17 11 C 76 %
596 18-12-2019 03:12:17 11.1 C 76 %
597 18-12-2019 03:22:18 11.1 C 76 %
598 18-12-2019 03:32:17 11.1 C 76 %
599 18-12-2019 03:42:17 11.1 C 76 %
600 18-12-2019 03:52:18 11.1 C 76 %
Sensor: Nr:Datum:Temp:Feuchte:
G-T/H 601 18-12-2019 04:02:18 11.1 C 76 %
602 18-12-2019 04:12:18 11.1 C 76 %
603 18-12-2019 04:22:17 11.1 C 76 %
604 18-12-2019 04:32:18 11.1 C 76 %
605 18-12-2019 04:42:18 11.1 C 76 %
606 18-12-2019 04:52:17 11.1 C 76 %
607 18-12-2019 05:02:18 11.1 C 76 %
608 18-12-2019 05:12:18 11.1 C 76 %
609 18-12-2019 05:22:17 11.1 C 76 %
610 18-12-2019 05:32:17 11.1 C 76 %
611 18-12-2019 05:42:17 11.1 C 76 %
612 18-12-2019 05:52:17 11.1 C 76 %
613 18-12-2019 06:02:18 11.1 C 76 %
614 18-12-2019 06:12:18 11.1 C 76 %
615 18-12-2019 06:22:17 11.1 C 76 %
616 18-12-2019 06:32:18 11.1 C 76 %
617 18-12-2019 06:42:18 11.1 C 76 %
618 18-12-2019 06:52:17 11.1 C 76 %
619 18-12-2019 07:02:17 11.1 C 76 %
620 18-12-2019 07:12:17 11.1 C 76 %
621 18-12-2019 07:22:17 11.1 C 76 %
622 18-12-2019 07:32:17 11.1 C 76 %
623 18-12-2019 07:42:17 11.1 C 76 %
624 18-12-2019 07:52:17 11.1 C 76 %
625 18-12-2019 08:02:17 11.1 C 76 %
Sensor: Nr:Datum:Temp:Feuchte:
G-T/H 626 18-12-2019 08:12:17 11.1 C 76 %
627 18-12-2019 08:22:17 11.1 C 76 %
628 18-12-2019 08:32:17 11.1 C 76 %
629 18-12-2019 08:42:17 11.1 C 76 %
630 18-12-2019 08:52:17 11.1 C 76 %
631 18-12-2019 09:02:17 11.1 C 76 %
632 18-12-2019 09:12:17 11.1 C 76 %
633 18-12-2019 09:22:17 11.1 C 76 %
634 18-12-2019 09:32:17 11.1 C 76 %
635 18-12-2019 09:42:17 11.1 C 76 %
636 18-12-2019 09:52:17 11.1 C 76 %
637 18-12-2019 10:02:17 11.1 C 76 %
638 18-12-2019 10:12:18 11.1 C 76 %
639 18-12-2019 10:22:17 11.1 C 76 %
640 18-12-2019 10:32:17 11.1 C 76 %
641 18-12-2019 10:42:17 11.1 C 76 %
642 18-12-2019 10:52:17 11.1 C 76 %
643 18-12-2019 11:02:17 11.1 C 76 %
644 18-12-2019 11:12:17 11.1 C 76 %
645 18-12-2019 11:22:17 11.1 C 76 %
646 18-12-2019 11:32:18 11 C 76 %
647 18-12-2019 11:42:18 11.1 C 76 %
648 18-12-2019 11:52:17 11 C 76 %
649 18-12-2019 12:02:17 11.1 C 76 %
650 18-12-2019 12:12:17 11.1 C 76 %
Sensor: Nr:Datum:Temp:Feuchte:
G-T/H 651 18-12-2019 12:22:17 11.1 C 76 %
652 18-12-2019 12:32:17 11 C 76 %
653 18-12-2019 12:42:17 11.1 C 76 %
654 18-12-2019 12:52:17 11.1 C 76 %
655 18-12-2019 13:02:17 11.1 C 76 %
656 18-12-2019 13:12:17 11 C 76 %
657 18-12-2019 13:22:17 11 C 76 %
658 18-12-2019 13:32:18 11 C 76 %
659 18-12-2019 13:42:18 11 C 76 %
660 18-12-2019 13:52:17 11 C 76 %
661 18-12-2019 14:02:18 11 C 76 %
662 18-12-2019 14:12:18 11 C 75 %
663 18-12-2019 14:22:17 11 C 75 %
664 18-12-2019 14:32:17 11 C 75 %
665 18-12-2019 14:42:17 11 C 75 %
666 18-12-2019 14:52:17 10.9 C 76 %
667 18-12-2019 15:02:17 11 C 75 %
668 18-12-2019 15:12:17 11 C 75 %
669 18-12-2019 15:22:17 11 C 75 %
670 18-12-2019 15:32:17 11 C 75 %
671 18-12-2019 15:42:17 11 C 75 %
672 18-12-2019 15:52:17 10.9 C 76 %
673 18-12-2019 16:02:17 10.9 C 76 %
674 18-12-2019 16:12:17 10.9 C 76 %
675 18-12-2019 16:22:17 10.9 C 76 %
Sensor: Nr:Datum:Temp:Feuchte:
G-T/H 676 18-12-2019 16:32:17 10.9 C 76 %
677 18-12-2019 16:42:17 10.9 C 76 %
678 18-12-2019 16:52:17 10.8 C 76 %
679 18-12-2019 17:02:17 10.8 C 76 %
680 18-12-2019 17:12:17 10.8 C 75 %
681 18-12-2019 17:22:17 10.8 C 75 %
682 18-12-2019 17:32:17 10.8 C 75 %
683 18-12-2019 17:42:17 10.8 C 75 %
684 18-12-2019 17:52:18 10.8 C 75 %
685 18-12-2019 18:02:17 10.8 C 75 %
686 18-12-2019 18:12:17 10.8 C 75 %
687 18-12-2019 18:22:17 10.8 C 75 %
688 18-12-2019 18:32:17 10.8 C 75 %
689 18-12-2019 18:42:17 10.7 C 75 %
690 18-12-2019 18:52:17 10.7 C 75 %
691 18-12-2019 19:02:17 10.7 C 75 %
692 18-12-2019 19:12:17 10.7 C 75 %
693 18-12-2019 19:22:17 10.7 C 75 %
694 18-12-2019 19:32:18 10.7 C 75 %
695 18-12-2019 19:42:18 10.7 C 75 %
696 18-12-2019 19:52:17 10.7 C 75 %
697 18-12-2019 20:02:17 10.7 C 75 %
698 18-12-2019 20:12:17 10.7 C 75 %
699 18-12-2019 20:22:17 10.7 C 75 %
700 18-12-2019 20:32:17 10.7 C 75 %
Sensor: Nr:Datum:Temp:Feuchte:
G-T/H 701 18-12-2019 20:42:18 10.7 C 75 %
702 18-12-2019 20:52:17 10.7 C 75 %
703 18-12-2019 21:02:17 10.6 C 74 %
704 18-12-2019 21:12:17 10.6 C 74 %
705 18-12-2019 21:22:17 10.6 C 74 %
706 18-12-2019 21:32:17 10.6 C 74 %
707 18-12-2019 21:42:17 10.6 C 74 %
708 18-12-2019 21:52:17 10.6 C 74 %
709 18-12-2019 22:02:17 10.5 C 74 %
710 18-12-2019 22:12:17 10.5 C 74 %
711 18-12-2019 22:22:17 10.5 C 74 %
712 18-12-2019 22:32:17 10.4 C 74 %
713 18-12-2019 22:42:17 10.4 C 74 %
714 18-12-2019 22:52:17 10.4 C 74 %
715 18-12-2019 23:02:17 10.4 C 73 %
716 18-12-2019 23:12:17 10.4 C 73 %
717 18-12-2019 23:22:18 10.4 C 73 %
718 18-12-2019 23:32:17 10.3 C 73 %
719 18-12-2019 23:42:17 10.3 C 73 %
720 18-12-2019 23:52:17 10.3 C 73 %
721 19-12-2019 00:02:18 10.2 C 73 %
722 19-12-2019 00:12:18 10.2 C 73 %
723 19-12-2019 00:22:17 10.2 C 73 %
724 19-12-2019 00:32:17 10.2 C 72 %
725 19-12-2019 00:42:17 10.2 C 72 %
Sensor: Nr:Datum:Temp:Feuchte:
G-T/H 726 19-12-2019 00:52:18 10.2 C 72 %
727 19-12-2019 01:02:17 10.2 C 72 %
728 19-12-2019 01:12:17 10.2 C 72 %
729 19-12-2019 01:22:17 10.1 C 72 %
730 19-12-2019 01:32:18 10.1 C 72 %
731 19-12-2019 01:42:18 10.1 C 72 %
732 19-12-2019 01:52:17 10.1 C 72 %
733 19-12-2019 02:02:17 10.1 C 72 %
734 19-12-2019 02:12:17 10.1 C 72 %
735 19-12-2019 02:22:17 10 C 72 %
736 19-12-2019 02:32:18 10 C 72 %
737 19-12-2019 02:42:18 10 C 72 %
738 19-12-2019 02:52:17 10 C 72 %
739 19-12-2019 03:02:18 10 C 71 %
740 19-12-2019 03:12:18 10 C 71 %
741 19-12-2019 03:22:17 10 C 71 %
742 19-12-2019 03:32:17 9.9 C 72 %
743 19-12-2019 03:42:17 9.9 C 72 %
744 19-12-2019 03:52:17 9.9 C 72 %
745 19-12-2019 04:02:17 9.9 C 72 %
746 19-12-2019 04:12:17 9.9 C 72 %
747 19-12-2019 04:22:18 9.9 C 72 %
748 19-12-2019 04:32:17 9.9 C 72 %
749 19-12-2019 04:42:17 9.9 C 72 %
750 19-12-2019 04:52:18 9.9 C 72 %
Sensor: Nr:Datum:Temp:Feuchte:
G-T/H 751 19-12-2019 05:02:17 9.9 C 72 %
752 19-12-2019 05:12:17 9.9 C 73 %
753 19-12-2019 05:22:17 9.9 C 73 %
754 19-12-2019 05:32:17 9.9 C 73 %
755 19-12-2019 05:42:17 9.8 C 73 %
756 19-12-2019 05:52:17 9.8 C 73 %
757 19-12-2019 06:02:17 9.8 C 73 %
758 19-12-2019 06:12:17 9.8 C 73 %
759 19-12-2019 06:22:17 9.8 C 73 %
760 19-12-2019 06:32:17 9.8 C 73 %
761 19-12-2019 06:42:18 9.8 C 73 %
762 19-12-2019 06:52:17 9.8 C 73 %
763 19-12-2019 07:02:17 9.8 C 73 %
764 19-12-2019 07:12:17 9.8 C 73 %
765 19-12-2019 07:22:17 9.8 C 73 %
766 19-12-2019 07:32:17 9.7 C 73 %
767 19-12-2019 07:42:18 9.8 C 73 %
768 19-12-2019 07:52:17 9.8 C 73 %
769 19-12-2019 08:02:18 9.8 C 73 %
770 19-12-2019 08:12:18 9.7 C 73 %
771 19-12-2019 08:22:17 9.7 C 73 %
772 19-12-2019 08:32:18 9.7 C 73 %
773 19-12-2019 08:42:18 9.7 C 73 %
774 19-12-2019 08:52:17 9.7 C 73 %
775 19-12-2019 09:02:17 9.7 C 73 %
Sensor: Nr:Datum:Temp:Feuchte:
G-T/H 776 19-12-2019 09:12:17 9.7 C 73 %
777 19-12-2019 09:22:17 9.7 C 73 %
778 19-12-2019 09:32:17 9.7 C 73 %
779 19-12-2019 09:42:17 9.7 C 73 %
780 19-12-2019 09:52:17 9.7 C 73 %
781 19-12-2019 10:02:17 9.7 C 73 %
782 19-12-2019 10:12:17 9.7 C 73 %
783 19-12-2019 10:22:17 9.6 C 73 %
784 19-12-2019 10:32:17 9.7 C 73 %
785 19-12-2019 10:42:17 9.7 C 73 %
786 19-12-2019 10:52:18 9.6 C 73 %
787 19-12-2019 11:02:17 9.6 C 74 %
788 19-12-2019 11:12:17 9.6 C 74 %
789 19-12-2019 11:22:17 9.7 C 74 %
790 19-12-2019 11:32:17 9.7 C 74 %
791 19-12-2019 11:42:17 9.7 C 74 %
792 19-12-2019 11:52:18 9.7 C 74 %
793 19-12-2019 12:02:17 9.7 C 74 %
794 19-12-2019 12:12:17 9.6 C 74 %
795 19-12-2019 12:22:17 9.7 C 74 %
796 19-12-2019 12:32:17 9.6 C 74 %
797 19-12-2019 12:42:17 9.6 C 74 %
798 19-12-2019 12:52:17 9.6 C 74 %
799 19-12-2019 13:02:17 9.6 C 74 %
800 19-12-2019 13:12:17 9.6 C 74 %
Sensor: Nr:Datum:Temp:Feuchte:
G-T/H 801 19-12-2019 13:22:17 9.6 C 74 %
802 19-12-2019 13:32:17 9.6 C 74 %
803 19-12-2019 13:42:17 9.6 C 74 %
804 19-12-2019 13:52:17 9.6 C 74 %
805 19-12-2019 14:02:17 9.6 C 74 %
806 19-12-2019 14:12:17 9.7 C 74 %
807 19-12-2019 14:22:17 9.6 C 74 %
808 19-12-2019 14:32:17 9.7 C 74 %
809 19-12-2019 14:42:17 9.6 C 74 %
810 19-12-2019 14:52:17 9.6 C 74 %
811 19-12-2019 15:02:17 9.6 C 74 %
812 19-12-2019 15:12:17 9.7 C 74 %
813 19-12-2019 15:22:17 9.6 C 74 %
814 19-12-2019 15:32:18 9.6 C 74 %
815 19-12-2019 15:42:18 9.6 C 74 %
816 19-12-2019 15:52:17 9.7 C 75 %
817 19-12-2019 16:02:17 9.7 C 75 %
818 19-12-2019 16:12:17 9.6 C 75 %
819 19-12-2019 16:22:18 9.6 C 75 %
820 19-12-2019 16:32:17 9.7 C 75 %
821 19-12-2019 16:42:17 9.7 C 75 %
822 19-12-2019 16:52:17 9.7 C 75 %
823 19-12-2019 17:02:17 9.7 C 75 %
824 19-12-2019 17:12:17 9.7 C 75 %
825 19-12-2019 17:22:17 9.7 C 75 %
Sensor: Nr:Datum:Temp:Feuchte:
G-T/H 826 19-12-2019 17:32:17 9.7 C 75 %
827 19-12-2019 17:42:17 9.7 C 75 %
828 19-12-2019 17:52:17 9.7 C 75 %
829 19-12-2019 18:02:17 9.7 C 75 %
830 19-12-2019 18:12:18 9.7 C 75 %
831 19-12-2019 18:22:17 9.7 C 75 %
832 19-12-2019 18:32:17 9.7 C 75 %
833 19-12-2019 18:42:17 9.7 C 75 %
834 19-12-2019 18:52:18 9.7 C 75 %
835 19-12-2019 19:02:17 9.6 C 75 %
836 19-12-2019 19:12:17 9.7 C 75 %
837 19-12-2019 19:22:18 9.7 C 75 %
838 19-12-2019 19:32:17 9.7 C 75 %
839 19-12-2019 19:42:17 9.7 C 75 %
840 19-12-2019 19:52:17 9.7 C 75 %
841 19-12-2019 20:02:17 9.7 C 75 %
842 19-12-2019 20:12:17 9.7 C 75 %
843 19-12-2019 20:22:17 9.7 C 75 %
844 19-12-2019 20:32:17 9.7 C 75 %
845 19-12-2019 20:42:17 9.7 C 75 %
846 19-12-2019 20:52:17 9.7 C 75 %
847 19-12-2019 21:02:17 9.7 C 75 %
848 19-12-2019 21:12:18 9.7 C 75 %
849 19-12-2019 21:22:17 9.7 C 75 %
850 19-12-2019 21:32:17 9.7 C 75 %
Sensor: Nr:Datum:Temp:Feuchte:
G-T/H 851 19-12-2019 21:42:17 9.7 C 75 %
852 19-12-2019 21:52:17 9.7 C 75 %
853 19-12-2019 22:02:17 9.6 C 75 %
854 19-12-2019 22:12:17 9.6 C 75 %
855 19-12-2019 22:22:18 9.7 C 75 %
856 19-12-2019 22:32:18 9.7 C 75 %
857 19-12-2019 22:42:18 9.6 C 75 %
858 19-12-2019 22:52:17 9.7 C 75 %
859 19-12-2019 23:02:17 9.7 C 75 %
860 19-12-2019 23:12:17 9.7 C 75 %
861 19-12-2019 23:22:17 9.7 C 75 %
862 19-12-2019 23:32:17 9.7 C 75 %
863 19-12-2019 23:42:17 9.7 C 75 %
864 19-12-2019 23:52:17 9.6 C 75 %
865 20-12-2019 00:02:17 9.7 C 75 %
866 20-12-2019 00:12:17 9.7 C 75 %
867 20-12-2019 00:22:17 9.7 C 75 %
868 20-12-2019 00:32:17 9.6 C 75 %
869 20-12-2019 00:42:17 9.6 C 75 %
870 20-12-2019 00:52:17 9.6 C 75 %
871 20-12-2019 01:02:17 9.6 C 75 %
872 20-12-2019 01:12:17 9.6 C 75 %
873 20-12-2019 01:22:17 9.6 C 75 %
874 20-12-2019 01:32:17 9.6 C 75 %
875 20-12-2019 01:42:17 9.6 C 75 %
Sensor: Nr:Datum:Temp:Feuchte:
G-T/H 876 20-12-2019 01:52:17 9.7 C 74 %
877 20-12-2019 02:02:17 9.6 C 74 %
878 20-12-2019 02:12:17 9.6 C 74 %
879 20-12-2019 02:22:17 9.6 C 74 %
880 20-12-2019 02:32:18 9.6 C 74 %
881 20-12-2019 02:42:18 9.6 C 74 %
882 20-12-2019 02:52:17 9.6 C 74 %
883 20-12-2019 03:02:17 9.6 C 74 %
884 20-12-2019 03:12:17 9.6 C 74 %
885 20-12-2019 03:22:17 9.6 C 74 %
886 20-12-2019 03:32:17 9.6 C 74 %
887 20-12-2019 03:42:17 9.6 C 74 %
888 20-12-2019 03:52:17 9.6 C 74 %
889 20-12-2019 04:02:17 9.6 C 74 %
890 20-12-2019 04:12:17 9.5 C 74 %
891 20-12-2019 04:22:17 9.6 C 74 %
892 20-12-2019 04:32:18 9.6 C 74 %
893 20-12-2019 04:42:18 9.6 C 74 %
894 20-12-2019 04:52:17 9.6 C 74 %
895 20-12-2019 05:02:17 9.6 C 74 %
896 20-12-2019 05:12:17 9.6 C 74 %
897 20-12-2019 05:22:17 9.6 C 74 %
898 20-12-2019 05:32:17 9.5 C 74 %
899 20-12-2019 05:42:17 9.5 C 74 %
900 20-12-2019 05:52:18 9.5 C 74 %
Sensor: Nr:Datum:Temp:Feuchte:
G-T/H 901 20-12-2019 06:02:18 9.5 C 74 %
902 20-12-2019 06:12:18 9.5 C 74 %
903 20-12-2019 06:22:17 9.5 C 74 %
904 20-12-2019 06:32:17 9.5 C 74 %
905 20-12-2019 06:42:17 9.5 C 74 %
906 20-12-2019 06:52:17 9.6 C 74 %
907 20-12-2019 07:02:17 9.5 C 74 %
908 20-12-2019 07:12:17 9.6 C 74 %
909 20-12-2019 07:22:17 9.5 C 74 %
910 20-12-2019 07:32:17 9.5 C 74 %
911 20-12-2019 07:42:17 9.5 C 74 %
912 20-12-2019 07:52:17 9.5 C 74 %
913 20-12-2019 08:02:17 9.5 C 74 %
914 20-12-2019 08:12:17 9.5 C 74 %
915 20-12-2019 08:22:17 9.5 C 74 %
916 20-12-2019 08:32:18 9.5 C 75 %
917 20-12-2019 08:42:18 9.5 C 75 %
918 20-12-2019 08:52:17 9.5 C 75 %
919 20-12-2019 09:02:17 9.5 C 75 %
920 20-12-2019 09:12:17 9.5 C 75 %
921 20-12-2019 09:22:17 9.5 C 75 %
922 20-12-2019 09:32:17 9.5 C 75 %
923 20-12-2019 09:42:17 9.6 C 75 %
924 20-12-2019 09:52:17 9.5 C 75 %
925 20-12-2019 10:02:17 9.6 C 75 %
Sensor: Nr:Datum:Temp:Feuchte:
G-T/H 926 20-12-2019 10:12:17 9.5 C 75 %
927 20-12-2019 10:22:17 9.5 C 75 %
928 20-12-2019 10:32:17 9.5 C 75 %
929 20-12-2019 10:42:17 9.5 C 75 %
930 20-12-2019 10:52:17 9.6 C 75 %
931 20-12-2019 11:02:17 9.6 C 75 %
932 20-12-2019 11:12:17 9.6 C 75 %
933 20-12-2019 11:22:17 9.5 C 75 %
934 20-12-2019 11:32:17 9.6 C 75 %
935 20-12-2019 11:42:17 9.6 C 75 %
936 20-12-2019 11:52:17 9.6 C 75 %
937 20-12-2019 12:02:18 9.6 C 75 %
938 20-12-2019 12:12:18 9.5 C 75 %
939 20-12-2019 12:22:18 9.5 C 75 %
940 20-12-2019 12:32:17 9.5 C 75 %
941 20-12-2019 12:42:18 9.6 C 75 %
942 20-12-2019 12:52:17 9.6 C 75 %
943 20-12-2019 13:02:18 9.6 C 75 %
944 20-12-2019 13:12:18 9.6 C 75 %
945 20-12-2019 13:22:17 9.6 C 75 %
946 20-12-2019 13:32:17 9.6 C 75 %
947 20-12-2019 13:42:17 9.6 C 75 %
948 20-12-2019 13:52:17 9.6 C 75 %
949 20-12-2019 14:02:17 9.6 C 75 %
950 20-12-2019 14:12:17 9.6 C 76 %
Sensor: Nr:Datum:Temp:Feuchte:
G-T/H 951 20-12-2019 14:22:17 9.6 C 76 %
952 20-12-2019 14:32:17 9.7 C 76 %
953 20-12-2019 14:42:17 9.6 C 76 %
954 20-12-2019 14:52:18 9.7 C 76 %
955 20-12-2019 15:02:17 9.7 C 76 %
956 20-12-2019 15:12:17 9.7 C 76 %
957 20-12-2019 15:22:17 9.7 C 76 %
958 20-12-2019 15:32:17 9.7 C 76 %
959 20-12-2019 15:42:17 9.7 C 76 %
960 20-12-2019 15:52:17 9.7 C 76 %
961 20-12-2019 16:02:17 9.7 C 76 %
962 20-12-2019 16:12:18 9.7 C 76 %
963 20-12-2019 16:22:17 9.7 C 76 %
964 20-12-2019 16:32:17 9.7 C 76 %
965 20-12-2019 16:42:17 9.7 C 76 %
966 20-12-2019 16:52:18 9.8 C 76 %
967 20-12-2019 17:02:17 9.8 C 76 %
968 20-12-2019 17:12:18 9.8 C 76 %
969 20-12-2019 17:22:17 9.8 C 76 %
970 20-12-2019 17:32:17 9.8 C 76 %
971 20-12-2019 17:42:17 9.8 C 76 %
972 20-12-2019 17:52:18 9.8 C 76 %
973 20-12-2019 18:02:17 9.8 C 76 %
974 20-12-2019 18:12:17 9.8 C 76 %
975 20-12-2019 18:22:17 9.9 C 76 %
Sensor: Nr:Datum:Temp:Feuchte:
G-T/H 976 20-12-2019 18:32:17 9.8 C 76 %
977 20-12-2019 18:42:17 9.9 C 76 %
978 20-12-2019 18:52:18 9.9 C 76 %
979 20-12-2019 19:02:17 9.9 C 76 %
980 20-12-2019 19:12:17 9.9 C 76 %
981 20-12-2019 19:22:17 9.9 C 77 %
982 20-12-2019 19:32:17 9.9 C 77 %
983 20-12-2019 19:42:17 9.9 C 77 %
984 20-12-2019 19:52:18 9.9 C 77 %
985 20-12-2019 20:02:18 10 C 75 %
986 20-12-2019 20:12:18 9.9 C 77 %
987 20-12-2019 20:22:17 9.9 C 77 %
988 20-12-2019 20:32:18 10 C 75 %
989 20-12-2019 20:42:18 10 C 75 %
990 20-12-2019 20:52:17 10 C 75 %
991 20-12-2019 21:02:18 10 C 75 %
992 20-12-2019 21:12:18 10 C 75 %
993 20-12-2019 21:22:17 10 C 75 %
994 20-12-2019 21:32:17 10 C 75 %
995 20-12-2019 21:42:17 10 C 75 %
996 20-12-2019 21:52:17 10 C 75 %
997 20-12-2019 22:02:17 10 C 75 %
998 20-12-2019 22:12:17 10.1 C 75 %
999 20-12-2019 22:22:17 10.1 C 75 %
1000 20-12-2019 22:32:17 10.1 C 75 %
Sensor: Nr:Datum:Temp:Feuchte:
G-T/H 1001 20-12-2019 22:42:17 10.1 C 75 %
1002 20-12-2019 22:52:17 10.1 C 75 %
1003 20-12-2019 23:02:17 10.1 C 75 %
1004 20-12-2019 23:12:17 10 C 75 %
1005 20-12-2019 23:22:17 10.1 C 75 %
1006 20-12-2019 23:32:17 10.1 C 75 %
1007 20-12-2019 23:42:17 10.1 C 75 %
1008 20-12-2019 23:52:18 10.1 C 75 %
1009 21-12-2019 00:02:17 10.1 C 75 %
1010 21-12-2019 00:12:17 10.1 C 75 %
1011 21-12-2019 00:22:17 10.1 C 75 %
1012 21-12-2019 00:32:17 10.1 C 75 %
1013 21-12-2019 00:42:17 10.1 C 75 %
1014 21-12-2019 00:52:18 10.1 C 75 %
1015 21-12-2019 01:02:17 10.1 C 75 %
1016 21-12-2019 01:12:17 10.1 C 75 %
1017 21-12-2019 01:22:17 10.1 C 75 %
1018 21-12-2019 01:32:17 10.1 C 75 %
1019 21-12-2019 01:42:17 10.1 C 75 %
1020 21-12-2019 01:52:17 10.1 C 75 %
1021 21-12-2019 02:02:17 10.1 C 75 %
1022 21-12-2019 02:12:17 10.1 C 75 %
1023 21-12-2019 02:22:17 10.2 C 75 %
1024 21-12-2019 02:32:18 10.2 C 75 %
1025 21-12-2019 02:42:18 10.2 C 75 %
Sensor: Nr:Datum:Temp:Feuchte:
G-T/H 1026 21-12-2019 02:52:17 10.2 C 75 %
1027 21-12-2019 03:02:17 10.2 C 75 %
1028 21-12-2019 03:12:17 10.2 C 75 %
1029 21-12-2019 03:22:17 10.2 C 75 %
1030 21-12-2019 03:32:18 10.2 C 75 %
1031 21-12-2019 03:42:18 10.2 C 75 %
1032 21-12-2019 03:52:17 10.2 C 75 %
1033 21-12-2019 04:02:17 10.2 C 75 %
1034 21-12-2019 04:12:17 10.2 C 75 %
1035 21-12-2019 04:22:17 10.2 C 75 %
1036 21-12-2019 04:32:18 10.2 C 75 %
1037 21-12-2019 04:42:18 10.2 C 75 %
1038 21-12-2019 04:52:17 10.2 C 75 %
1039 21-12-2019 05:02:17 10.2 C 75 %
1040 21-12-2019 05:12:17 10.2 C 75 %
1041 21-12-2019 05:22:17 10.2 C 75 %
1042 21-12-2019 05:32:18 10.2 C 75 %
1043 21-12-2019 05:42:18 10.2 C 75 %
1044 21-12-2019 05:52:17 10.2 C 75 %
1045 21-12-2019 06:02:17 10.2 C 75 %
1046 21-12-2019 06:12:17 10.2 C 75 %
1047 21-12-2019 06:22:18 10.2 C 75 %
1048 21-12-2019 06:32:17 10.1 C 75 %
1049 21-12-2019 06:42:17 10.1 C 75 %
1050 21-12-2019 06:52:18 10.2 C 75 %
Sensor: Nr:Datum:Temp:Feuchte:
G-T/H 1051 21-12-2019 07:02:17 10.1 C 75 %
1052 21-12-2019 07:12:18 10.1 C 75 %
1053 21-12-2019 07:22:17 10.1 C 75 %
1054 21-12-2019 07:32:17 10.1 C 75 %
1055 21-12-2019 07:42:17 10.1 C 75 %
1056 21-12-2019 07:52:17 10.1 C 75 %
1057 21-12-2019 08:02:17 10.1 C 74 %
1058 21-12-2019 08:12:17 10.1 C 74 %
1059 21-12-2019 08:22:17 10.1 C 74 %
1060 21-12-2019 08:32:17 10.1 C 74 %
1061 21-12-2019 08:42:17 10.1 C 74 %
1062 21-12-2019 08:52:17 10.1 C 74 %
1063 21-12-2019 09:02:17 10.1 C 74 %
1064 21-12-2019 09:12:17 10.1 C 74 %
1065 21-12-2019 09:22:17 10.1 C 74 %
1066 21-12-2019 09:32:17 10.1 C 74 %
1067 21-12-2019 09:42:17 10.1 C 74 %
1068 21-12-2019 09:52:17 10 C 74 %
1069 21-12-2019 10:02:17 10 C 74 %
1070 21-12-2019 10:12:17 10 C 74 %
1071 21-12-2019 10:22:17 10 C 74 %
1072 21-12-2019 10:32:17 10 C 74 %
1073 21-12-2019 10:42:17 10 C 74 %
1074 21-12-2019 10:52:17 10 C 74 %
1075 21-12-2019 11:02:17 10 C 74 %
Sensor: Nr:Datum:Temp:Feuchte:
G-T/H 1076 21-12-2019 11:12:17 10 C 74 %
1077 21-12-2019 11:22:17 10 C 74 %
1078 21-12-2019 11:32:17 10 C 74 %
1079 21-12-2019 11:42:17 10 C 74 %
1080 21-12-2019 11:52:17 10.1 C 74 %
1081 21-12-2019 12:02:17 10.1 C 74 %
1082 21-12-2019 12:12:17 10.2 C 74 %
1083 21-12-2019 12:22:17 10.1 C 74 %
1084 21-12-2019 12:32:17 10.1 C 74 %
1085 21-12-2019 12:42:17 10.1 C 74 %
1086 21-12-2019 12:52:17 10.1 C 74 %
1087 21-12-2019 13:02:17 10.1 C 74 %
1088 21-12-2019 13:12:17 10 C 74 %
1089 21-12-2019 13:22:17 10 C 74 %
1090 21-12-2019 13:32:17 10 C 74 %
1091 21-12-2019 13:42:17 10 C 74 %
1092 21-12-2019 13:52:18 10 C 74 %
1093 21-12-2019 14:02:17 10 C 74 %
1094 21-12-2019 14:12:17 10 C 74 %
1095 21-12-2019 14:22:17 10 C 74 %
1096 21-12-2019 14:32:18 10 C 74 %
1097 21-12-2019 14:42:18 10 C 74 %
1098 21-12-2019 14:52:17 10 C 74 %
1099 21-12-2019 15:02:18 10 C 74 %
1100 21-12-2019 15:12:18 10 C 74 %
Sensor: Nr:Datum:Temp:Feuchte:
G-T/H 1101 21-12-2019 15:22:18 10 C 74 %
1102 21-12-2019 15:32:17 10 C 74 %
1103 21-12-2019 15:42:17 10 C 74 %
1104 21-12-2019 15:52:17 10 C 74 %
1105 21-12-2019 16:02:17 10 C 74 %
1106 21-12-2019 16:12:17 10 C 74 %
1107 21-12-2019 16:22:17 10 C 74 %
1108 21-12-2019 16:32:17 9.9 C 76 %
1109 21-12-2019 16:42:17 10 C 74 %
1110 21-12-2019 16:52:17 10 C 74 %
1111 21-12-2019 17:02:17 10 C 74 %
1112 21-12-2019 17:12:17 10 C 75 %
1113 21-12-2019 17:22:17 10 C 75 %
1114 21-12-2019 17:32:17 10 C 75 %
1115 21-12-2019 17:42:17 10 C 75 %
1116 21-12-2019 17:52:17 10 C 75 %
1117 21-12-2019 18:02:17 10 C 75 %
1118 21-12-2019 18:12:17 10 C 75 %
1119 21-12-2019 18:22:17 10 C 75 %
1120 21-12-2019 18:32:18 10 C 75 %
1121 21-12-2019 18:42:18 10 C 75 %
1122 21-12-2019 18:52:17 10 C 75 %
1123 21-12-2019 19:02:17 10 C 75 %
1124 21-12-2019 19:12:17 10 C 75 %
1125 21-12-2019 19:22:17 10 C 75 %
Sensor: Nr:Datum:Temp:Feuchte:
G-T/H 1126 21-12-2019 19:32:17 10 C 75 %
1127 21-12-2019 19:42:17 10 C 75 %
1128 21-12-2019 19:52:17 10 C 75 %
1129 21-12-2019 20:02:17 10 C 75 %
1130 21-12-2019 20:12:17 10 C 75 %
1131 21-12-2019 20:22:17 10 C 75 %
1132 21-12-2019 20:32:17 10 C 75 %
1133 21-12-2019 20:42:17 10 C 75 %
1134 21-12-2019 20:52:17 10 C 75 %
1135 21-12-2019 21:02:18 10 C 75 %
1136 21-12-2019 21:12:18 10 C 75 %
1137 21-12-2019 21:22:17 10 C 75 %
1138 21-12-2019 21:32:17 10 C 75 %
1139 21-12-2019 21:42:17 10 C 75 %
1140 21-12-2019 21:52:18 10 C 75 %
1141 21-12-2019 22:02:18 10 C 75 %
1142 21-12-2019 22:12:18 10 C 75 %
1143 21-12-2019 22:22:17 10 C 75 %
1144 21-12-2019 22:32:17 10 C 75 %
1145 21-12-2019 22:42:17 10 C 75 %
1146 21-12-2019 22:52:17 10 C 74 %
1147 21-12-2019 23:02:17 10 C 74 %
1148 21-12-2019 23:12:17 10 C 74 %
1149 21-12-2019 23:22:17 10 C 74 %
1150 21-12-2019 23:32:18 10 C 74 %
Sensor: Nr:Datum:Temp:Feuchte:
G-T/H 1151 21-12-2019 23:42:18 10 C 74 %
1152 21-12-2019 23:52:17 10 C 74 %
1153 22-12-2019 00:02:17 10 C 74 %
1154 22-12-2019 00:12:17 10 C 74 %
1155 22-12-2019 00:22:17 10 C 74 %
1156 22-12-2019 00:32:17 10 C 74 %
1157 22-12-2019 00:42:17 10 C 74 %
1158 22-12-2019 00:52:17 10 C 74 %
1159 22-12-2019 01:02:17 10 C 74 %
1160 22-12-2019 01:12:18 10 C 74 %
1161 22-12-2019 01:22:17 10 C 74 %
1162 22-12-2019 01:32:17 10 C 74 %
1163 22-12-2019 01:42:17 10 C 74 %
1164 22-12-2019 01:52:17 10 C 74 %
1165 22-12-2019 02:02:17 10 C 74 %
1166 22-12-2019 02:12:18 10 C 74 %
1167 22-12-2019 02:22:17 10 C 74 %
1168 22-12-2019 02:32:17 10 C 74 %
1169 22-12-2019 02:42:17 10 C 74 %
1170 22-12-2019 02:52:18 10 C 74 %
1171 22-12-2019 03:02:17 10 C 74 %
1172 22-12-2019 03:12:17 10 C 74 %
1173 22-12-2019 03:22:17 10 C 74 %
1174 22-12-2019 03:32:17 10 C 74 %
1175 22-12-2019 03:42:17 10 C 74 %
Sensor: Nr:Datum:Temp:Feuchte:
G-T/H 1176 22-12-2019 03:52:17 10 C 74 %
1177 22-12-2019 04:02:18 10 C 75 %
1178 22-12-2019 04:12:18 10 C 74 %
1179 22-12-2019 04:22:17 10 C 75 %
1180 22-12-2019 04:32:17 10 C 75 %
1181 22-12-2019 04:42:17 10 C 75 %
1182 22-12-2019 04:52:17 10 C 75 %
1183 22-12-2019 05:02:17 10 C 75 %
1184 22-12-2019 05:12:17 10 C 75 %
1185 22-12-2019 05:22:17 10 C 75 %
1186 22-12-2019 05:32:17 10 C 75 %
1187 22-12-2019 05:42:17 10 C 75 %
1188 22-12-2019 05:52:17 10 C 75 %
1189 22-12-2019 06:02:17 10 C 75 %
1190 22-12-2019 06:12:17 10 C 75 %
1191 22-12-2019 06:22:17 10 C 75 %
1192 22-12-2019 06:32:17 10 C 75 %
1193 22-12-2019 06:42:17 10 C 75 %
1194 22-12-2019 06:52:17 10 C 75 %
1195 22-12-2019 07:02:17 10 C 75 %
1196 22-12-2019 07:12:17 10 C 75 %
1197 22-12-2019 07:22:17 10 C 75 %
1198 22-12-2019 07:32:17 10 C 75 %
1199 22-12-2019 07:42:17 10 C 75 %
1200 22-12-2019 07:52:17 10 C 75 %
Sensor: Nr:Datum:Temp:Feuchte:
G-T/H 1201 22-12-2019 08:02:18 10 C 75 %
1202 22-12-2019 08:12:18 10 C 75 %
1203 22-12-2019 08:22:17 10 C 75 %
1204 22-12-2019 08:32:17 10 C 75 %
1205 22-12-2019 08:42:17 10 C 75 %
1206 22-12-2019 08:52:18 10 C 75 %
1207 22-12-2019 09:02:17 10 C 75 %
1208 22-12-2019 09:12:17 10 C 75 %
1209 22-12-2019 09:22:17 10 C 75 %
1210 22-12-2019 09:32:17 10 C 75 %
1211 22-12-2019 09:42:17 10 C 75 %
1212 22-12-2019 09:52:17 10 C 75 %
1213 22-12-2019 10:02:17 10 C 75 %
1214 22-12-2019 10:12:17 10 C 75 %
1215 22-12-2019 10:22:17 10 C 75 %
1216 22-12-2019 10:32:17 10 C 75 %
1217 22-12-2019 10:42:17 10 C 75 %
1218 22-12-2019 10:52:17 10 C 75 %
1219 22-12-2019 11:02:17 10 C 75 %
1220 22-12-2019 11:12:17 10 C 75 %
1221 22-12-2019 11:22:17 10 C 75 %
1222 22-12-2019 11:32:18 10 C 75 %
1223 22-12-2019 11:42:18 10 C 75 %
1224 22-12-2019 11:52:17 10 C 75 %
1225 22-12-2019 12:02:17 10 C 75 %
Sensor: Nr:Datum:Temp:Feuchte:
G-T/H 1226 22-12-2019 12:12:17 10 C 75 %
1227 22-12-2019 12:22:17 10 C 75 %
1228 22-12-2019 12:32:17 10.1 C 75 %
1229 22-12-2019 12:42:17 10.1 C 75 %
1230 22-12-2019 12:52:17 10.1 C 75 %
1231 22-12-2019 13:02:17 10.1 C 75 %
1232 22-12-2019 13:12:17 10.1 C 75 %
1233 22-12-2019 13:22:17 10.1 C 75 %
1234 22-12-2019 13:32:17 10.1 C 75 %
1235 22-12-2019 13:42:17 10.1 C 75 %
1236 22-12-2019 13:52:17 10.1 C 75 %
1237 22-12-2019 14:02:17 10.1 C 75 %
1238 22-12-2019 14:12:17 10.1 C 75 %
1239 22-12-2019 14:22:17 10.1 C 75 %
1240 22-12-2019 14:32:17 10.1 C 75 %
1241 22-12-2019 14:42:17 10.1 C 75 %
1242 22-12-2019 14:52:17 10.1 C 75 %
1243 22-12-2019 15:02:17 10.2 C 76 %
1244 22-12-2019 15:12:17 10.2 C 76 %
1245 22-12-2019 15:22:17 10.2 C 76 %
1246 22-12-2019 15:32:17 10.2 C 76 %
1247 22-12-2019 15:42:17 10.2 C 76 %
1248 22-12-2019 15:52:18 10.2 C 76 %
1249 22-12-2019 16:02:18 10.2 C 76 %
1250 22-12-2019 16:12:18 10.2 C 76 %
Sensor: Nr:Datum:Temp:Feuchte:
G-T/H 1251 22-12-2019 16:22:17 10.2 C 76 %
1252 22-12-2019 16:32:17 10.2 C 76 %
1253 22-12-2019 16:42:17 10.3 C 76 %
1254 22-12-2019 16:52:17 10.3 C 76 %
1255 22-12-2019 17:02:18 10.3 C 76 %
1256 22-12-2019 17:12:18 10.3 C 76 %
1257 22-12-2019 17:22:17 10.3 C 76 %
1258 22-12-2019 17:32:17 10.3 C 76 %
1259 22-12-2019 17:42:17 10.3 C 76 %
1260 22-12-2019 17:52:17 10.3 C 76 %
1261 22-12-2019 18:02:17 10.3 C 76 %
1262 22-12-2019 18:12:17 10.3 C 76 %
1263 22-12-2019 18:22:17 10.3 C 76 %
1264 22-12-2019 18:32:17 10.4 C 76 %
1265 22-12-2019 18:42:17 10.3 C 76 %
1266 22-12-2019 18:52:17 10.3 C 76 %
1267 22-12-2019 19:02:17 10.4 C 76 %
1268 22-12-2019 19:12:17 10.4 C 76 %
1269 22-12-2019 19:22:17 10.4 C 76 %
1270 22-12-2019 19:32:17 10.4 C 76 %
1271 22-12-2019 19:42:17 10.4 C 76 %
1272 22-12-2019 19:52:17 10.4 C 76 %
1273 22-12-2019 20:02:17 10.4 C 76 %
1274 22-12-2019 20:12:17 10.4 C 76 %
1275 22-12-2019 20:22:17 10.4 C 76 %
Sensor: Nr:Datum:Temp:Feuchte:
G-T/H 1276 22-12-2019 20:32:17 10.4 C 76 %
1277 22-12-2019 20:42:17 10.4 C 76 %
1278 22-12-2019 20:52:17 10.4 C 76 %
1279 22-12-2019 21:02:17 10.4 C 76 %
1280 22-12-2019 21:12:17 10.4 C 76 %
1281 22-12-2019 21:22:17 10.4 C 76 %
1282 22-12-2019 21:32:17 10.4 C 76 %
1283 22-12-2019 21:42:17 10.4 C 76 %
1284 22-12-2019 21:52:17 10.4 C 76 %
1285 22-12-2019 22:02:17 10.4 C 76 %
1286 22-12-2019 22:12:17 10.4 C 76 %
1287 22-12-2019 22:22:17 10.4 C 76 %
1288 22-12-2019 22:32:17 10.4 C 76 %
1289 22-12-2019 22:42:17 10.4 C 76 %
1290 22-12-2019 22:52:17 10.4 C 75 %
1291 22-12-2019 23:02:17 10.4 C 75 %
1292 22-12-2019 23:12:17 10.4 C 75 %
1293 22-12-2019 23:22:17 10.4 C 75 %
1294 22-12-2019 23:32:17 10.4 C 75 %
1295 22-12-2019 23:42:17 10.4 C 75 %
1296 22-12-2019 23:52:17 10.4 C 75 %
1297 23-12-2019 00:02:17 10.4 C 75 %
1298 23-12-2019 00:12:17 10.4 C 75 %
1299 23-12-2019 00:22:17 10.4 C 75 %
1300 23-12-2019 00:32:17 10.4 C 75 %
Sensor: Nr:Datum:Temp:Feuchte:
G-T/H 1301 23-12-2019 00:42:17 10.4 C 75 %
1302 23-12-2019 00:52:17 10.4 C 75 %
1303 23-12-2019 01:02:17 10.4 C 75 %
1304 23-12-2019 01:12:17 10.4 C 75 %
1305 23-12-2019 01:22:17 10.4 C 75 %
1306 23-12-2019 01:32:17 10.4 C 75 %
1307 23-12-2019 01:42:17 10.4 C 75 %
1308 23-12-2019 01:52:17 10.4 C 75 %
1309 23-12-2019 02:02:17 10.3 C 75 %
1310 23-12-2019 02:12:17 10.3 C 75 %
1311 23-12-2019 02:22:17 10.4 C 75 %
1312 23-12-2019 02:32:17 10.3 C 75 %
1313 23-12-2019 02:42:17 10.4 C 75 %
1314 23-12-2019 02:52:17 10.3 C 75 %
1315 23-12-2019 03:02:17 10.3 C 75 %
1316 23-12-2019 03:12:17 10.3 C 75 %
1317 23-12-2019 03:22:17 10.3 C 75 %
1318 23-12-2019 03:32:17 10.3 C 75 %
1319 23-12-2019 03:42:17 10.3 C 75 %
1320 23-12-2019 03:52:17 10.3 C 75 %
1321 23-12-2019 04:02:17 10.3 C 75 %
1322 23-12-2019 04:12:17 10.3 C 75 %
1323 23-12-2019 04:22:17 10.3 C 75 %
1324 23-12-2019 04:32:17 10.3 C 75 %
1325 23-12-2019 04:42:17 10.3 C 75 %
Sensor: Nr:Datum:Temp:Feuchte:
G-T/H 1326 23-12-2019 04:52:17 10.3 C 75 %
1327 23-12-2019 05:02:17 10.3 C 75 %
1328 23-12-2019 05:12:17 10.3 C 75 %
1329 23-12-2019 05:22:17 10.2 C 75 %
1330 23-12-2019 05:32:17 10.3 C 75 %
1331 23-12-2019 05:42:17 10.2 C 75 %
1332 23-12-2019 05:52:17 10.2 C 75 %
1333 23-12-2019 06:02:18 10.2 C 75 %
1334 23-12-2019 06:12:18 10.2 C 75 %
1335 23-12-2019 06:22:17 10.2 C 75 %
1336 23-12-2019 06:32:18 10.2 C 75 %
1337 23-12-2019 06:42:18 10.2 C 75 %
1338 23-12-2019 06:52:17 10.2 C 75 %
1339 23-12-2019 07:02:17 10.2 C 75 %
1340 23-12-2019 07:12:17 10.2 C 75 %
1341 23-12-2019 07:22:17 10.2 C 75 %
1342 23-12-2019 07:32:17 10.2 C 75 %
1343 23-12-2019 07:42:17 10.2 C 75 %
1344 23-12-2019 07:52:17 10.2 C 75 %
1345 23-12-2019 08:02:17 10.2 C 75 %
1346 23-12-2019 08:12:17 10.2 C 75 %
1347 23-12-2019 08:22:17 10.2 C 75 %
1348 23-12-2019 08:32:18 10.2 C 75 %
1349 23-12-2019 08:42:18 10.2 C 75 %
1350 23-12-2019 08:52:17 10.2 C 75 %
Sensor: Nr:Datum:Temp:Feuchte:
G-T/H 1351 23-12-2019 09:02:17 10.2 C 75 %
1352 23-12-2019 09:12:18 10.2 C 75 %
1353 23-12-2019 09:22:17 10.2 C 75 %
1354 23-12-2019 09:32:18 10.2 C 75 %
1355 23-12-2019 09:42:18 10.2 C 75 %
1356 23-12-2019 09:52:18 10.2 C 75 %
1357 23-12-2019 10:02:17 10.2 C 75 %
1358 23-12-2019 10:12:18 10.2 C 75 %
1359 23-12-2019 10:22:17 10.2 C 75 %
1360 23-12-2019 10:32:18 10.2 C 75 %
1361 23-12-2019 10:42:18 10.2 C 75 %
1362 23-12-2019 10:52:17 10.2 C 75 %
1363 23-12-2019 11:02:18 10.2 C 75 %
1364 23-12-2019 11:12:18 10.2 C 75 %
1365 23-12-2019 11:22:17 10.2 C 75 %
1366 23-12-2019 11:32:18 10.2 C 75 %
1367 23-12-2019 11:42:18 10.2 C 75 %
1368 23-12-2019 11:52:17 10.2 C 75 %
1369 23-12-2019 12:02:18 10.2 C 75 %
1370 23-12-2019 12:12:18 10.2 C 75 %
1371 23-12-2019 12:22:17 10.2 C 75 %
1372 23-12-2019 12:32:17 10.3 C 75 %
1373 23-12-2019 12:42:17 10.3 C 75 %
1374 23-12-2019 12:52:17 10.2 C 75 %
1375 23-12-2019 13:02:17 10.3 C 75 %
Sensor: Nr:Datum:Temp:Feuchte:
G-T/H 1376 23-12-2019 13:12:17 10.3 C 76 %
1377 23-12-2019 13:22:17 10.3 C 75 %
1378 23-12-2019 13:32:18 10.3 C 76 %
1379 23-12-2019 13:42:18 10.3 C 76 %
1380 23-12-2019 13:52:17 10.3 C 76 %
1381 23-12-2019 14:02:17 10.3 C 76 %
1382 23-12-2019 14:12:17 10.3 C 76 %
1383 23-12-2019 14:22:18 10.3 C 76 %
1384 23-12-2019 14:32:17 10.3 C 76 %
1385 23-12-2019 14:42:17 10.3 C 76 %
1386 23-12-2019 14:52:17 10.3 C 76 %
1387 23-12-2019 15:02:18 10.3 C 76 %
1388 23-12-2019 15:12:18 10.3 C 76 %
1389 23-12-2019 15:22:17 10.3 C 76 %
1390 23-12-2019 15:32:17 10.3 C 76 %
1391 23-12-2019 15:42:17 10.3 C 76 %
1392 23-12-2019 15:52:17 10.3 C 76 %
1393 23-12-2019 16:02:17 10.3 C 75 %
1394 23-12-2019 16:12:17 10.3 C 75 %
1395 23-12-2019 16:22:18 10.3 C 76 %
1396 23-12-2019 16:32:17 10.4 C 76 %
1397 23-12-2019 16:42:17 10.3 C 76 %
1398 23-12-2019 16:52:18 10.4 C 76 %
1399 23-12-2019 17:02:17 10.4 C 76 %
1400 23-12-2019 17:12:17 10.4 C 76 %
Sensor: Nr:Datum:Temp:Feuchte:
G-T/H 1401 23-12-2019 17:22:17 10.4 C 76 %
1402 23-12-2019 17:32:17 10.4 C 76 %
1403 23-12-2019 17:42:18 10.4 C 76 %
1404 23-12-2019 17:52:17 10.4 C 76 %
1405 23-12-2019 18:02:17 10.4 C 76 %
1406 23-12-2019 18:12:17 10.4 C 76 %
1407 23-12-2019 18:22:17 10.4 C 76 %
1408 23-12-2019 18:32:17 10.4 C 76 %
1409 23-12-2019 18:42:17 10.4 C 76 %
1410 23-12-2019 18:52:17 10.4 C 76 %
1411 23-12-2019 19:02:17 10.4 C 76 %
1412 23-12-2019 19:12:17 10.4 C 76 %
1413 23-12-2019 19:22:17 10.4 C 76 %
1414 23-12-2019 19:32:17 10.4 C 76 %
1415 23-12-2019 19:42:17 10.4 C 76 %
1416 23-12-2019 19:52:17 10.4 C 76 %
1417 23-12-2019 20:02:17 10.4 C 76 %
1418 23-12-2019 20:12:17 10.4 C 76 %
1419 23-12-2019 20:22:17 10.4 C 76 %
1420 23-12-2019 20:32:18 10.4 C 76 %
1421 23-12-2019 20:42:18 10.4 C 76 %
1422 23-12-2019 20:52:17 10.4 C 76 %
1423 23-12-2019 21:02:18 10.4 C 76 %
1424 23-12-2019 21:12:18 10.4 C 76 %
1425 23-12-2019 21:22:17 10.4 C 76 %
Sensor: Nr:Datum:Temp:Feuchte:
G-T/H 1426 23-12-2019 21:32:17 10.4 C 76 %
1427 23-12-2019 21:42:17 10.4 C 76 %
1428 23-12-2019 21:52:17 10.4 C 76 %
1429 23-12-2019 22:02:18 10.4 C 76 %
1430 23-12-2019 22:12:18 10.4 C 76 %
1431 23-12-2019 22:22:17 10.3 C 76 %
1432 23-12-2019 22:32:17 10.3 C 75 %
1433 23-12-2019 22:42:17 10.3 C 75 %
1434 23-12-2019 22:52:17 10.3 C 75 %
1435 23-12-2019 23:02:17 10.3 C 75 %
1436 23-12-2019 23:12:17 10.4 C 75 %
1437 23-12-2019 23:22:18 10.3 C 75 %
1438 23-12-2019 23:32:17 10.3 C 75 %
1439 23-12-2019 23:42:17 10.3 C 75 %
1440 23-12-2019 23:52:17 10.3 C 75 %
1441 24-12-2019 00:02:17 10.3 C 75 %
1442 24-12-2019 00:12:17 10.3 C 75 %
1443 24-12-2019 00:22:17 10.3 C 75 %
1444 24-12-2019 00:32:18 10.3 C 75 %
1445 24-12-2019 00:42:18 10.3 C 75 %
1446 24-12-2019 00:52:17 10.3 C 75 %
1447 24-12-2019 01:02:17 10.3 C 75 %
1448 24-12-2019 01:12:17 10.3 C 75 %
1449 24-12-2019 01:22:17 10.3 C 75 %
1450 24-12-2019 01:32:17 10.3 C 75 %
Sensor: Nr:Datum:Temp:Feuchte:
G-T/H 1451 24-12-2019 01:42:17 10.2 C 75 %
1452 24-12-2019 01:52:17 10.2 C 75 %
1453 24-12-2019 02:02:17 10.2 C 75 %
1454 24-12-2019 02:12:17 10.2 C 75 %
1455 24-12-2019 02:22:17 10.2 C 75 %
1456 24-12-2019 02:32:18 10.2 C 75 %
1457 24-12-2019 02:42:18 10.2 C 75 %
1458 24-12-2019 02:52:17 10.2 C 75 %
1459 24-12-2019 03:02:18 10.2 C 75 %
1460 24-12-2019 03:12:18 10.2 C 75 %
1461 24-12-2019 03:22:17 10.2 C 75 %
1462 24-12-2019 03:32:17 10.2 C 75 %
1463 24-12-2019 03:42:17 10.2 C 75 %
1464 24-12-2019 03:52:17 10.2 C 75 %
1465 24-12-2019 04:02:17 10.2 C 75 %
1466 24-12-2019 04:12:17 10.2 C 75 %
1467 24-12-2019 04:22:17 10.2 C 75 %
1468 24-12-2019 04:32:17 10.2 C 75 %
1469 24-12-2019 04:42:17 10.1 C 75 %
1470 24-12-2019 04:52:17 10.2 C 75 %
1471 24-12-2019 05:02:18 10.2 C 75 %
1472 24-12-2019 05:12:18 10.1 C 75 %
1473 24-12-2019 05:22:17 10.1 C 75 %
1474 24-12-2019 05:32:18 10.1 C 75 %
1475 24-12-2019 05:42:18 10.1 C 75 %
Sensor: Nr:Datum:Temp:Feuchte:
G-T/H 1476 24-12-2019 05:52:17 10.1 C 75 %
1477 24-12-2019 06:02:18 10.1 C 75 %
1478 24-12-2019 06:12:18 10.1 C 75 %
1479 24-12-2019 06:22:17 10.1 C 75 %
1480 24-12-2019 06:32:17 10.1 C 75 %
1481 24-12-2019 06:42:17 10.1 C 74 %
1482 24-12-2019 06:52:17 10 C 74 %
1483 24-12-2019 07:02:17 10.1 C 74 %
1484 24-12-2019 07:12:17 10.1 C 74 %
1485 24-12-2019 07:22:17 10.1 C 74 %
1486 24-12-2019 07:32:17 10.1 C 74 %
1487 24-12-2019 07:42:17 10.1 C 74 %
1488 24-12-2019 07:52:17 10.1 C 74 %
1489 24-12-2019 08:02:17 10.1 C 74 %
1490 24-12-2019 08:12:17 10.1 C 74 %
1491 24-12-2019 08:22:17 10 C 74 %
1492 24-12-2019 08:32:17 10 C 74 %
1493 24-12-2019 08:42:17 10 C 74 %
1494 24-12-2019 08:52:18 10 C 74 %
1495 24-12-2019 09:02:17 10 C 74 %
1496 24-12-2019 09:12:17 10 C 74 %
1497 24-12-2019 09:22:17 10 C 75 %
1498 24-12-2019 09:32:17 10 C 74 %
1499 24-12-2019 09:42:17 10 C 75 %
1500 24-12-2019 09:52:17 10 C 75 %
Sensor: Nr:Datum:Temp:Feuchte:
G-T/H 1501 24-12-2019 10:02:17 10 C 75 %
1502 24-12-2019 10:12:17 10 C 75 %
1503 24-12-2019 10:22:17 10 C 75 %
1504 24-12-2019 10:32:17 10 C 75 %
1505 24-12-2019 10:42:17 10 C 75 %
1506 24-12-2019 10:52:17 10 C 75 %
1507 24-12-2019 11:02:17 10 C 75 %
1508 24-12-2019 11:12:17 10 C 75 %
1509 24-12-2019 11:22:17 10 C 75 %
1510 24-12-2019 11:32:17 10 C 75 %
1511 24-12-2019 11:42:17 10 C 75 %
1512 24-12-2019 11:52:18 10 C 75 %
1513 24-12-2019 12:02:17 10 C 75 %
1514 24-12-2019 12:12:17 10 C 75 %
1515 24-12-2019 12:22:17 10 C 75 %
1516 24-12-2019 12:32:17 10 C 75 %
1517 24-12-2019 12:42:17 10 C 75 %
1518 24-12-2019 12:52:18 10 C 75 %
1519 24-12-2019 13:02:17 10 C 75 %
1520 24-12-2019 13:12:17 10 C 75 %
1521 24-12-2019 13:22:17 10 C 75 %
1522 24-12-2019 13:32:17 10.1 C 75 %
1523 24-12-2019 13:42:17 10.1 C 75 %
1524 24-12-2019 13:52:17 10 C 75 %
1525 24-12-2019 14:02:18 10 C 75 %
Sensor: Nr:Datum:Temp:Feuchte:
G-T/H 1526 24-12-2019 14:12:18 10.1 C 75 %
1527 24-12-2019 14:22:17 10 C 75 %
1528 24-12-2019 14:32:18 10.1 C 75 %
1529 24-12-2019 14:42:18 10.1 C 75 %
1530 24-12-2019 14:52:17 10.1 C 75 %
1531 24-12-2019 15:02:18 10 C 75 %
1532 24-12-2019 15:12:18 10.1 C 75 %
1533 24-12-2019 15:22:17 10.1 C 75 %
1534 24-12-2019 15:32:17 10.1 C 75 %
1535 24-12-2019 15:42:17 10.1 C 75 %
1536 24-12-2019 15:52:17 10.1 C 75 %
1537 24-12-2019 16:02:17 10.1 C 75 %
1538 24-12-2019 16:12:17 10.1 C 75 %
1539 24-12-2019 16:22:17 10.1 C 75 %
1540 24-12-2019 16:32:17 10.1 C 75 %
1541 24-12-2019 16:42:17 10.1 C 75 %
1542 24-12-2019 16:52:17 10.1 C 75 %
1543 24-12-2019 17:02:17 10.1 C 75 %
1544 24-12-2019 17:12:17 10.1 C 75 %
1545 24-12-2019 17:22:18 10.1 C 75 %
1546 24-12-2019 17:32:17 10.1 C 75 %
1547 24-12-2019 17:42:17 10.1 C 75 %
1548 24-12-2019 17:52:17 10.2 C 75 %
1549 24-12-2019 18:02:17 10.2 C 75 %
1550 24-12-2019 18:12:17 10.2 C 75 %
Sensor: Nr:Datum:Temp:Feuchte:
G-T/H 1551 24-12-2019 18:22:17 10.2 C 75 %
1552 24-12-2019 18:32:17 10.2 C 75 %
1553 24-12-2019 18:42:17 10.2 C 75 %
1554 24-12-2019 18:52:17 10.2 C 75 %
1555 24-12-2019 19:02:17 10.2 C 75 %
1556 24-12-2019 19:12:17 10.2 C 75 %
1557 24-12-2019 19:22:17 10.2 C 75 %
1558 24-12-2019 19:32:17 10.2 C 75 %
1559 24-12-2019 19:42:17 10.2 C 75 %
1560 24-12-2019 19:52:17 10.2 C 76 %
1561 24-12-2019 20:02:17 10.2 C 75 %
1562 24-12-2019 20:12:17 10.2 C 75 %
1563 24-12-2019 20:22:17 10.1 C 75 %
1564 24-12-2019 20:32:18 10.1 C 75 %
1565 24-12-2019 20:42:18 10.2 C 75 %
1566 24-12-2019 20:52:17 10.2 C 75 %
1567 24-12-2019 21:02:17 10.2 C 75 %
1568 24-12-2019 21:12:17 10.2 C 75 %
1569 24-12-2019 21:22:17 10.2 C 75 %
1570 24-12-2019 21:32:17 10.2 C 75 %
1571 24-12-2019 21:42:17 10.2 C 75 %
1572 24-12-2019 21:52:17 10.2 C 75 %
1573 24-12-2019 22:02:17 10.2 C 75 %
1574 24-12-2019 22:12:17 10.2 C 75 %
1575 24-12-2019 22:22:17 10.1 C 75 %
Sensor: Nr:Datum:Temp:Feuchte:
G-T/H 1576 24-12-2019 22:32:17 10.2 C 75 %
1577 24-12-2019 22:42:17 10.2 C 75 %
1578 24-12-2019 22:52:17 10.2 C 76 %
1579 24-12-2019 23:02:17 10.2 C 76 %
1580 24-12-2019 23:12:17 10.2 C 76 %
1581 24-12-2019 23:22:17 10.2 C 76 %
1582 24-12-2019 23:32:17 10.2 C 76 %
1583 24-12-2019 23:42:17 10.2 C 76 %
1584 24-12-2019 23:52:17 10.2 C 76 %
1585 25-12-2019 00:02:17 10.2 C 76 %
1586 25-12-2019 00:12:17 10.2 C 76 %
1587 25-12-2019 00:22:17 10.2 C 76 %
1588 25-12-2019 00:32:17 10.2 C 76 %
1589 25-12-2019 00:42:18 10.2 C 76 %
1590 25-12-2019 00:52:17 10.2 C 76 %
1591 25-12-2019 01:02:17 10.2 C 76 %
1592 25-12-2019 01:12:17 10.2 C 76 %
1593 25-12-2019 01:22:17 10.2 C 76 %
1594 25-12-2019 01:32:18 10.2 C 76 %
1595 25-12-2019 01:42:18 10.2 C 76 %
1596 25-12-2019 01:52:17 10.2 C 76 %
1597 25-12-2019 02:02:17 10.2 C 76 %
1598 25-12-2019 02:12:17 10.2 C 76 %
1599 25-12-2019 02:22:17 10.2 C 76 %
1600 25-12-2019 02:32:18 10.2 C 76 %
Sensor: Nr:Datum:Temp:Feuchte:
G-T/H 1601 25-12-2019 02:42:18 10.2 C 76 %
1602 25-12-2019 02:52:17 10.2 C 76 %
1603 25-12-2019 03:02:17 10.2 C 76 %
1604 25-12-2019 03:12:17 10.2 C 76 %
1605 25-12-2019 03:22:17 10.2 C 76 %
1606 25-12-2019 03:32:17 10.2 C 76 %
1607 25-12-2019 03:42:17 10.2 C 76 %
1608 25-12-2019 03:52:18 10.2 C 76 %
1609 25-12-2019 04:02:17 10.2 C 76 %
1610 25-12-2019 04:12:17 10.2 C 76 %
1611 25-12-2019 04:22:18 10.2 C 76 %
1612 25-12-2019 04:32:17 10.2 C 76 %
1613 25-12-2019 04:42:17 10.2 C 76 %
1614 25-12-2019 04:52:17 10.2 C 76 %
1615 25-12-2019 05:02:17 10.2 C 76 %
1616 25-12-2019 05:12:17 10.2 C 76 %
1617 25-12-2019 05:22:18 10.2 C 76 %
1618 25-12-2019 05:32:17 10.2 C 76 %
1619 25-12-2019 05:42:17 10.2 C 76 %
1620 25-12-2019 05:52:17 10.2 C 76 %
1621 25-12-2019 06:02:18 10.2 C 76 %
1622 25-12-2019 06:12:18 10.2 C 76 %
1623 25-12-2019 06:22:17 10.2 C 76 %
1624 25-12-2019 06:32:18 10.2 C 76 %
1625 25-12-2019 06:42:18 10.2 C 76 %
Sensor: Nr:Datum:Temp:Feuchte:
G-T/H 1626 25-12-2019 06:52:17 10.2 C 76 %
1627 25-12-2019 07:02:18 10.2 C 76 %
1628 25-12-2019 07:12:18 10.2 C 76 %
1629 25-12-2019 07:22:17 10.2 C 76 %
1630 25-12-2019 07:32:18 10.2 C 76 %
1631 25-12-2019 07:42:18 10.2 C 76 %
1632 25-12-2019 07:52:17 10.2 C 76 %
1633 25-12-2019 08:02:18 10.2 C 76 %
1634 25-12-2019 08:12:18 10.2 C 76 %
1635 25-12-2019 08:22:17 10.2 C 76 %
1636 25-12-2019 08:32:17 10.2 C 76 %
1637 25-12-2019 08:42:17 10.2 C 76 %
1638 25-12-2019 08:52:17 10.2 C 76 %
1639 25-12-2019 09:02:17 10.2 C 76 %
1640 25-12-2019 09:12:17 10.2 C 76 %
1641 25-12-2019 09:22:18 10.2 C 76 %
1642 25-12-2019 09:32:17 10.2 C 76 %
1643 25-12-2019 09:42:17 10.2 C 76 %
1644 25-12-2019 09:52:17 10.2 C 76 %
1645 25-12-2019 10:02:17 10.2 C 76 %
1646 25-12-2019 10:12:17 10.2 C 76 %
1647 25-12-2019 10:22:18 10.2 C 76 %
1648 25-12-2019 10:32:17 10.2 C 76 %
1649 25-12-2019 10:42:17 10.2 C 76 %
1650 25-12-2019 10:52:17 10.3 C 76 %
Sensor: Nr:Datum:Temp:Feuchte:
G-T/H 1651 25-12-2019 11:02:17 10.3 C 76 %
1652 25-12-2019 11:12:17 10.3 C 76 %
1653 25-12-2019 11:22:17 10.2 C 76 %
1654 25-12-2019 11:32:17 10.3 C 76 %
1655 25-12-2019 11:42:17 10.2 C 76 %
1656 25-12-2019 11:52:18 10.3 C 76 %
1657 25-12-2019 12:02:17 10.2 C 76 %
1658 25-12-2019 12:12:17 10.2 C 76 %
1659 25-12-2019 12:22:17 10.3 C 76 %
1660 25-12-2019 12:32:17 10.3 C 76 %
1661 25-12-2019 12:42:17 10.3 C 76 %
1662 25-12-2019 12:52:18